<?xml version="1.0" encoding="UTF-8" standalone="no" ?>
<gpx xmlns="http://www.topografix.com/GPX/1/1" xmlns:xsi="http://www.w3.org/2001/XMLSchema-instance" xsi:schemaLocation="http://www.topografix.com/GPX/1/1 http://www.topografix.com/GPX/1/1/gpx.xsd" version="1.1" creator="VisuGPX - https://www.visugpx.com">
  <metadata>
    <name>VacancesDricouZoe</name>
  </metadata>
  <trk>
    <name><![CDATA[Journal actif: 2021-06-29 09:33]]></name>
    <trkseg>
      <trkpt lat="46.32708" lon="2.60921">
        <ele>208.74</ele>
        <time>2021-06-29T11:33:21Z</time>
      </trkpt>
      <trkpt lat="46.32718" lon="2.60913">
        <ele>208.26</ele>
        <time>2021-06-29T11:33:53Z</time>
      </trkpt>
      <trkpt lat="46.32717" lon="2.60909">
        <ele>208.26</ele>
        <time>2021-06-29T11:34:06Z</time>
      </trkpt>
      <trkpt lat="46.32717" lon="2.6089">
        <ele>208.74</ele>
        <time>2021-06-29T11:34:21Z</time>
      </trkpt>
      <trkpt lat="46.32717" lon="2.60889">
        <ele>208.74</ele>
        <time>2021-06-29T11:34:45Z</time>
      </trkpt>
      <trkpt lat="46.32716" lon="2.6089">
        <ele>205.38</ele>
        <time>2021-06-29T11:35:36Z</time>
      </trkpt>
      <trkpt lat="46.32716" lon="2.60892">
        <ele>203.46</ele>
        <time>2021-06-29T11:36:01Z</time>
      </trkpt>
      <trkpt lat="46.32716" lon="2.60892">
        <ele>202.49</ele>
        <time>2021-06-29T11:37:00Z</time>
      </trkpt>
      <trkpt lat="46.32715" lon="2.60889">
        <ele>202.01</ele>
        <time>2021-06-29T11:37:25Z</time>
      </trkpt>
      <trkpt lat="46.32704" lon="2.60886">
        <ele>201.53</ele>
        <time>2021-06-29T11:37:39Z</time>
      </trkpt>
      <trkpt lat="46.32682" lon="2.60865">
        <ele>199.13</ele>
        <time>2021-06-29T11:37:53Z</time>
      </trkpt>
      <trkpt lat="46.32647" lon="2.60867">
        <ele>196.73</ele>
        <time>2021-06-29T11:38:02Z</time>
      </trkpt>
      <trkpt lat="46.32647" lon="2.60867">
        <ele>196.73</ele>
        <time>2021-06-29T11:38:03Z</time>
      </trkpt>
      <trkpt lat="46.32647" lon="2.60867">
        <ele>196.25</ele>
        <time>2021-06-29T11:38:04Z</time>
      </trkpt>
      <trkpt lat="46.32647" lon="2.60867">
        <ele>198.17</ele>
        <time>2021-06-29T11:38:07Z</time>
      </trkpt>
      <trkpt lat="46.32663" lon="2.60866">
        <ele>198.17</ele>
        <time>2021-06-29T11:38:08Z</time>
      </trkpt>
      <trkpt lat="46.32665" lon="2.60866">
        <ele>198.65</ele>
        <time>2021-06-29T11:38:09Z</time>
      </trkpt>
      <trkpt lat="46.32665" lon="2.60866">
        <ele>198.65</ele>
        <time>2021-06-29T11:38:10Z</time>
      </trkpt>
      <trkpt lat="46.32667" lon="2.60866">
        <ele>199.61</ele>
        <time>2021-06-29T11:38:11Z</time>
      </trkpt>
      <trkpt lat="46.32669" lon="2.60866">
        <ele>199.61</ele>
        <time>2021-06-29T11:38:12Z</time>
      </trkpt>
      <trkpt lat="46.32672" lon="2.60866">
        <ele>199.61</ele>
        <time>2021-06-29T11:38:13Z</time>
      </trkpt>
      <trkpt lat="46.32681" lon="2.60865">
        <ele>199.61</ele>
        <time>2021-06-29T11:38:14Z</time>
      </trkpt>
      <trkpt lat="46.32765" lon="2.60865">
        <ele>206.82</ele>
        <time>2021-06-29T11:38:29Z</time>
      </trkpt>
      <trkpt lat="46.32806" lon="2.60867">
        <ele>210.67</ele>
        <time>2021-06-29T11:38:36Z</time>
      </trkpt>
      <trkpt lat="46.3281" lon="2.60867">
        <ele>210.19</ele>
        <time>2021-06-29T11:38:37Z</time>
      </trkpt>
      <trkpt lat="46.32814" lon="2.60867">
        <ele>210.19</ele>
        <time>2021-06-29T11:38:38Z</time>
      </trkpt>
      <trkpt lat="46.32819" lon="2.60867">
        <ele>210.19</ele>
        <time>2021-06-29T11:38:39Z</time>
      </trkpt>
      <trkpt lat="46.3282" lon="2.60858">
        <ele>210.67</ele>
        <time>2021-06-29T11:38:40Z</time>
      </trkpt>
      <trkpt lat="46.3282" lon="2.60852">
        <ele>210.67</ele>
        <time>2021-06-29T11:38:41Z</time>
      </trkpt>
      <trkpt lat="46.32823" lon="2.60838">
        <ele>211.15</ele>
        <time>2021-06-29T11:38:42Z</time>
      </trkpt>
      <trkpt lat="46.32823" lon="2.60838">
        <ele>211.63</ele>
        <time>2021-06-29T11:38:43Z</time>
      </trkpt>
      <trkpt lat="46.32853" lon="2.60725">
        <ele>212.59</ele>
        <time>2021-06-29T11:38:55Z</time>
      </trkpt>
      <trkpt lat="46.3287" lon="2.60661">
        <ele>214.03</ele>
        <time>2021-06-29T11:39:05Z</time>
      </trkpt>
      <trkpt lat="46.32873" lon="2.60649">
        <ele>214.03</ele>
        <time>2021-06-29T11:39:30Z</time>
      </trkpt>
      <trkpt lat="46.32897" lon="2.60568">
        <ele>213.07</ele>
        <time>2021-06-29T11:39:41Z</time>
      </trkpt>
      <trkpt lat="46.32937" lon="2.60423">
        <ele>211.15</ele>
        <time>2021-06-29T11:39:55Z</time>
      </trkpt>
      <trkpt lat="46.32995" lon="2.60259">
        <ele>211.15</ele>
        <time>2021-06-29T11:40:10Z</time>
      </trkpt>
      <trkpt lat="46.33075" lon="2.60083">
        <ele>209.7</ele>
        <time>2021-06-29T11:40:27Z</time>
      </trkpt>
      <trkpt lat="46.33086" lon="2.60058">
        <ele>209.7</ele>
        <time>2021-06-29T11:40:30Z</time>
      </trkpt>
      <trkpt lat="46.33089" lon="2.60052">
        <ele>209.22</ele>
        <time>2021-06-29T11:40:31Z</time>
      </trkpt>
      <trkpt lat="46.33091" lon="2.60047">
        <ele>209.7</ele>
        <time>2021-06-29T11:40:32Z</time>
      </trkpt>
      <trkpt lat="46.33102" lon="2.60043">
        <ele>209.7</ele>
        <time>2021-06-29T11:40:33Z</time>
      </trkpt>
      <trkpt lat="46.33102" lon="2.60043">
        <ele>209.22</ele>
        <time>2021-06-29T11:40:34Z</time>
      </trkpt>
      <trkpt lat="46.33105" lon="2.60046">
        <ele>209.22</ele>
        <time>2021-06-29T11:40:35Z</time>
      </trkpt>
      <trkpt lat="46.33113" lon="2.60045">
        <ele>209.22</ele>
        <time>2021-06-29T11:40:36Z</time>
      </trkpt>
      <trkpt lat="46.33117" lon="2.60042">
        <ele>208.74</ele>
        <time>2021-06-29T11:40:37Z</time>
      </trkpt>
      <trkpt lat="46.33121" lon="2.60034">
        <ele>208.74</ele>
        <time>2021-06-29T11:40:38Z</time>
      </trkpt>
      <trkpt lat="46.33121" lon="2.60028">
        <ele>208.26</ele>
        <time>2021-06-29T11:40:39Z</time>
      </trkpt>
      <trkpt lat="46.3312" lon="2.60022">
        <ele>208.26</ele>
        <time>2021-06-29T11:40:40Z</time>
      </trkpt>
      <trkpt lat="46.33119" lon="2.60015">
        <ele>208.26</ele>
        <time>2021-06-29T11:40:41Z</time>
      </trkpt>
      <trkpt lat="46.33117" lon="2.60013">
        <ele>208.74</ele>
        <time>2021-06-29T11:40:42Z</time>
      </trkpt>
      <trkpt lat="46.33104" lon="2.60003">
        <ele>209.22</ele>
        <time>2021-06-29T11:40:43Z</time>
      </trkpt>
      <trkpt lat="46.33035" lon="2.59923">
        <ele>209.22</ele>
        <time>2021-06-29T11:40:57Z</time>
      </trkpt>
      <trkpt lat="46.33035" lon="2.59923">
        <ele>209.22</ele>
        <time>2021-06-29T11:40:58Z</time>
      </trkpt>
      <trkpt lat="46.33032" lon="2.5992">
        <ele>209.22</ele>
        <time>2021-06-29T11:40:59Z</time>
      </trkpt>
      <trkpt lat="46.33034" lon="2.59911">
        <ele>208.26</ele>
        <time>2021-06-29T11:41:00Z</time>
      </trkpt>
      <trkpt lat="46.33039" lon="2.599">
        <ele>207.78</ele>
        <time>2021-06-29T11:41:01Z</time>
      </trkpt>
      <trkpt lat="46.33041" lon="2.59895">
        <ele>207.3</ele>
        <time>2021-06-29T11:41:02Z</time>
      </trkpt>
      <trkpt lat="46.33042" lon="2.59886">
        <ele>206.82</ele>
        <time>2021-06-29T11:41:03Z</time>
      </trkpt>
      <trkpt lat="46.33042" lon="2.59886">
        <ele>206.82</ele>
        <time>2021-06-29T11:41:04Z</time>
      </trkpt>
      <trkpt lat="46.33042" lon="2.59879">
        <ele>206.34</ele>
        <time>2021-06-29T11:41:05Z</time>
      </trkpt>
      <trkpt lat="46.33036" lon="2.59865">
        <ele>205.86</ele>
        <time>2021-06-29T11:41:06Z</time>
      </trkpt>
      <trkpt lat="46.33036" lon="2.59865">
        <ele>205.86</ele>
        <time>2021-06-29T11:41:07Z</time>
      </trkpt>
      <trkpt lat="46.33032" lon="2.59858">
        <ele>205.86</ele>
        <time>2021-06-29T11:41:08Z</time>
      </trkpt>
      <trkpt lat="46.33027" lon="2.59852">
        <ele>205.38</ele>
        <time>2021-06-29T11:41:09Z</time>
      </trkpt>
      <trkpt lat="46.32967" lon="2.59772">
        <ele>205.38</ele>
        <time>2021-06-29T11:41:21Z</time>
      </trkpt>
      <trkpt lat="46.32908" lon="2.59666">
        <ele>210.67</ele>
        <time>2021-06-29T11:41:33Z</time>
      </trkpt>
      <trkpt lat="46.32898" lon="2.59647">
        <ele>210.19</ele>
        <time>2021-06-29T11:41:37Z</time>
      </trkpt>
      <trkpt lat="46.32898" lon="2.59639">
        <ele>210.19</ele>
        <time>2021-06-29T11:41:38Z</time>
      </trkpt>
      <trkpt lat="46.32929" lon="2.59569">
        <ele>211.63</ele>
        <time>2021-06-29T11:41:47Z</time>
      </trkpt>
      <trkpt lat="46.32932" lon="2.59562">
        <ele>212.59</ele>
        <time>2021-06-29T11:41:55Z</time>
      </trkpt>
      <trkpt lat="46.32942" lon="2.59543">
        <ele>212.11</ele>
        <time>2021-06-29T11:43:16Z</time>
      </trkpt>
      <trkpt lat="46.32989" lon="2.59474">
        <ele>211.15</ele>
        <time>2021-06-29T11:43:28Z</time>
      </trkpt>
      <trkpt lat="46.33034" lon="2.5941">
        <ele>210.67</ele>
        <time>2021-06-29T11:43:39Z</time>
      </trkpt>
      <trkpt lat="46.3313" lon="2.59344">
        <ele>209.7</ele>
        <time>2021-06-29T11:43:52Z</time>
      </trkpt>
      <trkpt lat="46.33285" lon="2.59282">
        <ele>214.51</ele>
        <time>2021-06-29T11:44:08Z</time>
      </trkpt>
      <trkpt lat="46.33421" lon="2.59228">
        <ele>214.99</ele>
        <time>2021-06-29T11:44:22Z</time>
      </trkpt>
      <trkpt lat="46.33523" lon="2.59146">
        <ele>217.4</ele>
        <time>2021-06-29T11:44:34Z</time>
      </trkpt>
      <trkpt lat="46.3363" lon="2.5898">
        <ele>216.43</ele>
        <time>2021-06-29T11:44:49Z</time>
      </trkpt>
      <trkpt lat="46.33685" lon="2.58835">
        <ele>215.95</ele>
        <time>2021-06-29T11:45:01Z</time>
      </trkpt>
      <trkpt lat="46.33692" lon="2.58748">
        <ele>216.91</ele>
        <time>2021-06-29T11:45:10Z</time>
      </trkpt>
      <trkpt lat="46.33692" lon="2.58739">
        <ele>216.91</ele>
        <time>2021-06-29T11:45:18Z</time>
      </trkpt>
      <trkpt lat="46.33699" lon="2.5873">
        <ele>216.91</ele>
        <time>2021-06-29T11:45:20Z</time>
      </trkpt>
      <trkpt lat="46.33697" lon="2.58722">
        <ele>216.43</ele>
        <time>2021-06-29T11:45:21Z</time>
      </trkpt>
      <trkpt lat="46.33698" lon="2.5871">
        <ele>215.95</ele>
        <time>2021-06-29T11:45:23Z</time>
      </trkpt>
      <trkpt lat="46.33722" lon="2.58595">
        <ele>216.91</ele>
        <time>2021-06-29T11:45:36Z</time>
      </trkpt>
      <trkpt lat="46.33737" lon="2.58552">
        <ele>217.4</ele>
        <time>2021-06-29T11:45:44Z</time>
      </trkpt>
      <trkpt lat="46.33744" lon="2.58537">
        <ele>217.4</ele>
        <time>2021-06-29T11:45:45Z</time>
      </trkpt>
      <trkpt lat="46.33744" lon="2.58537">
        <ele>217.4</ele>
        <time>2021-06-29T11:45:46Z</time>
      </trkpt>
      <trkpt lat="46.33745" lon="2.58532">
        <ele>217.4</ele>
        <time>2021-06-29T11:45:47Z</time>
      </trkpt>
      <trkpt lat="46.33748" lon="2.58527">
        <ele>217.4</ele>
        <time>2021-06-29T11:45:48Z</time>
      </trkpt>
      <trkpt lat="46.3375" lon="2.58522">
        <ele>217.4</ele>
        <time>2021-06-29T11:45:49Z</time>
      </trkpt>
      <trkpt lat="46.33752" lon="2.58516">
        <ele>217.88</ele>
        <time>2021-06-29T11:45:50Z</time>
      </trkpt>
      <trkpt lat="46.33754" lon="2.5851">
        <ele>217.4</ele>
        <time>2021-06-29T11:45:51Z</time>
      </trkpt>
      <trkpt lat="46.33803" lon="2.58431">
        <ele>219.8</ele>
        <time>2021-06-29T11:46:03Z</time>
      </trkpt>
      <trkpt lat="46.33808" lon="2.58426">
        <ele>219.8</ele>
        <time>2021-06-29T11:46:04Z</time>
      </trkpt>
      <trkpt lat="46.33878" lon="2.58371">
        <ele>221.24</ele>
        <time>2021-06-29T11:46:16Z</time>
      </trkpt>
      <trkpt lat="46.33932" lon="2.58331">
        <ele>220.76</ele>
        <time>2021-06-29T11:46:27Z</time>
      </trkpt>
      <trkpt lat="46.33942" lon="2.58324">
        <ele>220.28</ele>
        <time>2021-06-29T11:46:30Z</time>
      </trkpt>
      <trkpt lat="46.33977" lon="2.58301">
        <ele>218.36</ele>
        <time>2021-06-29T11:46:41Z</time>
      </trkpt>
      <trkpt lat="46.33977" lon="2.58301">
        <ele>221.72</ele>
        <time>2021-06-29T11:46:52Z</time>
      </trkpt>
      <trkpt lat="46.33999" lon="2.58286">
        <ele>220.76</ele>
        <time>2021-06-29T11:46:59Z</time>
      </trkpt>
      <trkpt lat="46.33998" lon="2.58281">
        <ele>220.76</ele>
        <time>2021-06-29T11:47:00Z</time>
      </trkpt>
      <trkpt lat="46.33997" lon="2.58275">
        <ele>220.76</ele>
        <time>2021-06-29T11:47:01Z</time>
      </trkpt>
      <trkpt lat="46.33995" lon="2.5827">
        <ele>220.76</ele>
        <time>2021-06-29T11:47:02Z</time>
      </trkpt>
      <trkpt lat="46.33993" lon="2.58262">
        <ele>220.76</ele>
        <time>2021-06-29T11:47:03Z</time>
      </trkpt>
      <trkpt lat="46.33958" lon="2.58156">
        <ele>228.45</ele>
        <time>2021-06-29T11:47:12Z</time>
      </trkpt>
      <trkpt lat="46.33867" lon="2.57858">
        <ele>232.3</ele>
        <time>2021-06-29T11:47:33Z</time>
      </trkpt>
      <trkpt lat="46.33848" lon="2.57725">
        <ele>227.97</ele>
        <time>2021-06-29T11:47:44Z</time>
      </trkpt>
      <trkpt lat="46.33841" lon="2.57549">
        <ele>223.16</ele>
        <time>2021-06-29T11:47:56Z</time>
      </trkpt>
      <trkpt lat="46.33839" lon="2.57476">
        <ele>223.64</ele>
        <time>2021-06-29T11:48:03Z</time>
      </trkpt>
      <trkpt lat="46.33839" lon="2.57459">
        <ele>222.68</ele>
        <time>2021-06-29T11:48:14Z</time>
      </trkpt>
      <trkpt lat="46.33837" lon="2.57426">
        <ele>222.68</ele>
        <time>2021-06-29T11:49:08Z</time>
      </trkpt>
      <trkpt lat="46.33832" lon="2.57265">
        <ele>222.68</ele>
        <time>2021-06-29T11:49:18Z</time>
      </trkpt>
      <trkpt lat="46.33819" lon="2.5701">
        <ele>230.85</ele>
        <time>2021-06-29T11:49:34Z</time>
      </trkpt>
      <trkpt lat="46.33814" lon="2.569">
        <ele>233.74</ele>
        <time>2021-06-29T11:49:43Z</time>
      </trkpt>
      <trkpt lat="46.33814" lon="2.56893">
        <ele>234.22</ele>
        <time>2021-06-29T11:49:44Z</time>
      </trkpt>
      <trkpt lat="46.33814" lon="2.56885">
        <ele>234.7</ele>
        <time>2021-06-29T11:49:45Z</time>
      </trkpt>
      <trkpt lat="46.33814" lon="2.56883">
        <ele>234.7</ele>
        <time>2021-06-29T11:49:46Z</time>
      </trkpt>
      <trkpt lat="46.33821" lon="2.56878">
        <ele>234.7</ele>
        <time>2021-06-29T11:49:47Z</time>
      </trkpt>
      <trkpt lat="46.33826" lon="2.56867">
        <ele>234.7</ele>
        <time>2021-06-29T11:49:48Z</time>
      </trkpt>
      <trkpt lat="46.33827" lon="2.5686">
        <ele>235.18</ele>
        <time>2021-06-29T11:49:49Z</time>
      </trkpt>
      <trkpt lat="46.33824" lon="2.56851">
        <ele>235.18</ele>
        <time>2021-06-29T11:49:50Z</time>
      </trkpt>
      <trkpt lat="46.33821" lon="2.56845">
        <ele>235.18</ele>
        <time>2021-06-29T11:49:51Z</time>
      </trkpt>
      <trkpt lat="46.33821" lon="2.56844">
        <ele>235.18</ele>
        <time>2021-06-29T11:49:52Z</time>
      </trkpt>
      <trkpt lat="46.33812" lon="2.5683">
        <ele>236.14</ele>
        <time>2021-06-29T11:49:53Z</time>
      </trkpt>
      <trkpt lat="46.33811" lon="2.56821">
        <ele>236.14</ele>
        <time>2021-06-29T11:49:54Z</time>
      </trkpt>
      <trkpt lat="46.3381" lon="2.5681">
        <ele>236.62</ele>
        <time>2021-06-29T11:49:55Z</time>
      </trkpt>
      <trkpt lat="46.3381" lon="2.56799">
        <ele>237.58</ele>
        <time>2021-06-29T11:49:56Z</time>
      </trkpt>
      <trkpt lat="46.33803" lon="2.56599">
        <ele>245.27</ele>
        <time>2021-06-29T11:50:11Z</time>
      </trkpt>
      <trkpt lat="46.33797" lon="2.56469">
        <ele>246.23</ele>
        <time>2021-06-29T11:50:23Z</time>
      </trkpt>
      <trkpt lat="46.33797" lon="2.56463">
        <ele>246.23</ele>
        <time>2021-06-29T11:50:24Z</time>
      </trkpt>
      <trkpt lat="46.33797" lon="2.56457">
        <ele>246.23</ele>
        <time>2021-06-29T11:50:25Z</time>
      </trkpt>
      <trkpt lat="46.33796" lon="2.56433">
        <ele>245.75</ele>
        <time>2021-06-29T11:50:36Z</time>
      </trkpt>
      <trkpt lat="46.33796" lon="2.56433">
        <ele>245.75</ele>
        <time>2021-06-29T11:55:21Z</time>
      </trkpt>
      <trkpt lat="46.33795" lon="2.56422">
        <ele>243.83</ele>
        <time>2021-06-29T11:56:10Z</time>
      </trkpt>
      <trkpt lat="46.33795" lon="2.56417">
        <ele>244.79</ele>
        <time>2021-06-29T11:56:24Z</time>
      </trkpt>
      <trkpt lat="46.33795" lon="2.5641">
        <ele>245.27</ele>
        <time>2021-06-29T11:58:23Z</time>
      </trkpt>
      <trkpt lat="46.33795" lon="2.56405">
        <ele>245.27</ele>
        <time>2021-06-29T11:58:24Z</time>
      </trkpt>
      <trkpt lat="46.33795" lon="2.564">
        <ele>245.27</ele>
        <time>2021-06-29T11:58:25Z</time>
      </trkpt>
      <trkpt lat="46.33794" lon="2.56394">
        <ele>245.27</ele>
        <time>2021-06-29T11:58:26Z</time>
      </trkpt>
      <trkpt lat="46.33794" lon="2.56387">
        <ele>245.27</ele>
        <time>2021-06-29T11:58:27Z</time>
      </trkpt>
      <trkpt lat="46.33791" lon="2.56282">
        <ele>247.68</ele>
        <time>2021-06-29T11:58:38Z</time>
      </trkpt>
      <trkpt lat="46.33792" lon="2.56242">
        <ele>249.12</ele>
        <time>2021-06-29T11:58:47Z</time>
      </trkpt>
      <trkpt lat="46.33795" lon="2.56236">
        <ele>249.12</ele>
        <time>2021-06-29T11:58:48Z</time>
      </trkpt>
      <trkpt lat="46.33795" lon="2.5623">
        <ele>249.12</ele>
        <time>2021-06-29T11:58:49Z</time>
      </trkpt>
      <trkpt lat="46.33795" lon="2.56224">
        <ele>249.12</ele>
        <time>2021-06-29T11:58:50Z</time>
      </trkpt>
      <trkpt lat="46.33784" lon="2.5621">
        <ele>249.6</ele>
        <time>2021-06-29T11:58:52Z</time>
      </trkpt>
      <trkpt lat="46.33784" lon="2.56202">
        <ele>250.08</ele>
        <time>2021-06-29T11:58:53Z</time>
      </trkpt>
      <trkpt lat="46.33782" lon="2.56085">
        <ele>252.96</ele>
        <time>2021-06-29T11:59:02Z</time>
      </trkpt>
      <trkpt lat="46.33772" lon="2.55868">
        <ele>259.69</ele>
        <time>2021-06-29T11:59:14Z</time>
      </trkpt>
      <trkpt lat="46.33756" lon="2.5545">
        <ele>273.15</ele>
        <time>2021-06-29T11:59:34Z</time>
      </trkpt>
      <trkpt lat="46.33733" lon="2.55057">
        <ele>285.17</ele>
        <time>2021-06-29T11:59:51Z</time>
      </trkpt>
      <trkpt lat="46.33685" lon="2.54807">
        <ele>295.74</ele>
        <time>2021-06-29T12:00:03Z</time>
      </trkpt>
      <trkpt lat="46.33607" lon="2.54587">
        <ele>305.84</ele>
        <time>2021-06-29T12:00:14Z</time>
      </trkpt>
      <trkpt lat="46.33493" lon="2.54309">
        <ele>309.68</ele>
        <time>2021-06-29T12:00:28Z</time>
      </trkpt>
      <trkpt lat="46.33461" lon="2.54222">
        <ele>309.68</ele>
        <time>2021-06-29T12:00:36Z</time>
      </trkpt>
      <trkpt lat="46.3346" lon="2.54214">
        <ele>309.68</ele>
        <time>2021-06-29T12:00:37Z</time>
      </trkpt>
      <trkpt lat="46.33458" lon="2.54205">
        <ele>310.16</ele>
        <time>2021-06-29T12:00:38Z</time>
      </trkpt>
      <trkpt lat="46.33456" lon="2.54195">
        <ele>310.16</ele>
        <time>2021-06-29T12:00:39Z</time>
      </trkpt>
      <trkpt lat="46.3346" lon="2.54176">
        <ele>310.16</ele>
        <time>2021-06-29T12:00:40Z</time>
      </trkpt>
      <trkpt lat="46.3346" lon="2.54176">
        <ele>309.68</ele>
        <time>2021-06-29T12:00:41Z</time>
      </trkpt>
      <trkpt lat="46.33463" lon="2.54166">
        <ele>309.68</ele>
        <time>2021-06-29T12:00:42Z</time>
      </trkpt>
      <trkpt lat="46.33465" lon="2.54156">
        <ele>309.2</ele>
        <time>2021-06-29T12:00:43Z</time>
      </trkpt>
      <trkpt lat="46.33476" lon="2.54115">
        <ele>308.24</ele>
        <time>2021-06-29T12:00:48Z</time>
      </trkpt>
      <trkpt lat="46.33478" lon="2.54108">
        <ele>307.76</ele>
        <time>2021-06-29T12:00:49Z</time>
      </trkpt>
      <trkpt lat="46.33487" lon="2.54103">
        <ele>307.76</ele>
        <time>2021-06-29T12:00:50Z</time>
      </trkpt>
      <trkpt lat="46.33491" lon="2.54102">
        <ele>307.28</ele>
        <time>2021-06-29T12:00:52Z</time>
      </trkpt>
      <trkpt lat="46.33498" lon="2.54096">
        <ele>307.28</ele>
        <time>2021-06-29T12:00:53Z</time>
      </trkpt>
      <trkpt lat="46.33501" lon="2.5409">
        <ele>307.28</ele>
        <time>2021-06-29T12:00:54Z</time>
      </trkpt>
      <trkpt lat="46.335" lon="2.54081">
        <ele>307.28</ele>
        <time>2021-06-29T12:00:55Z</time>
      </trkpt>
      <trkpt lat="46.33499" lon="2.54074">
        <ele>307.28</ele>
        <time>2021-06-29T12:00:56Z</time>
      </trkpt>
      <trkpt lat="46.33499" lon="2.54072">
        <ele>307.28</ele>
        <time>2021-06-29T12:00:57Z</time>
      </trkpt>
      <trkpt lat="46.33486" lon="2.54059">
        <ele>306.8</ele>
        <time>2021-06-29T12:00:58Z</time>
      </trkpt>
      <trkpt lat="46.33487" lon="2.54051">
        <ele>306.8</ele>
        <time>2021-06-29T12:00:59Z</time>
      </trkpt>
      <trkpt lat="46.33487" lon="2.54042">
        <ele>306.8</ele>
        <time>2021-06-29T12:01:00Z</time>
      </trkpt>
      <trkpt lat="46.33492" lon="2.53916">
        <ele>306.32</ele>
        <time>2021-06-29T12:01:09Z</time>
      </trkpt>
      <trkpt lat="46.33465" lon="2.53786">
        <ele>305.84</ele>
        <time>2021-06-29T12:01:17Z</time>
      </trkpt>
      <trkpt lat="46.33364" lon="2.53616">
        <ele>309.68</ele>
        <time>2021-06-29T12:01:29Z</time>
      </trkpt>
      <trkpt lat="46.33283" lon="2.53489">
        <ele>314.01</ele>
        <time>2021-06-29T12:01:41Z</time>
      </trkpt>
      <trkpt lat="46.33279" lon="2.53483">
        <ele>314.01</ele>
        <time>2021-06-29T12:01:42Z</time>
      </trkpt>
      <trkpt lat="46.33277" lon="2.53479">
        <ele>314.49</ele>
        <time>2021-06-29T12:01:43Z</time>
      </trkpt>
      <trkpt lat="46.33275" lon="2.53475">
        <ele>314.49</ele>
        <time>2021-06-29T12:01:44Z</time>
      </trkpt>
      <trkpt lat="46.33274" lon="2.53473">
        <ele>314.97</ele>
        <time>2021-06-29T12:01:45Z</time>
      </trkpt>
      <trkpt lat="46.3328" lon="2.53469">
        <ele>314.97</ele>
        <time>2021-06-29T12:01:46Z</time>
      </trkpt>
      <trkpt lat="46.33283" lon="2.53465">
        <ele>314.97</ele>
        <time>2021-06-29T12:01:47Z</time>
      </trkpt>
      <trkpt lat="46.33286" lon="2.53459">
        <ele>314.97</ele>
        <time>2021-06-29T12:01:48Z</time>
      </trkpt>
      <trkpt lat="46.33289" lon="2.53454">
        <ele>314.49</ele>
        <time>2021-06-29T12:01:49Z</time>
      </trkpt>
      <trkpt lat="46.33289" lon="2.53454">
        <ele>314.97</ele>
        <time>2021-06-29T12:01:50Z</time>
      </trkpt>
      <trkpt lat="46.33303" lon="2.53433">
        <ele>314.49</ele>
        <time>2021-06-29T12:01:51Z</time>
      </trkpt>
      <trkpt lat="46.33303" lon="2.53433">
        <ele>314.49</ele>
        <time>2021-06-29T12:01:52Z</time>
      </trkpt>
      <trkpt lat="46.3331" lon="2.53434">
        <ele>314.49</ele>
        <time>2021-06-29T12:01:53Z</time>
      </trkpt>
      <trkpt lat="46.33318" lon="2.53435">
        <ele>314.49</ele>
        <time>2021-06-29T12:01:54Z</time>
      </trkpt>
      <trkpt lat="46.33326" lon="2.53437">
        <ele>314.01</ele>
        <time>2021-06-29T12:01:55Z</time>
      </trkpt>
      <trkpt lat="46.3334" lon="2.53449">
        <ele>313.53</ele>
        <time>2021-06-29T12:01:56Z</time>
      </trkpt>
      <trkpt lat="46.3334" lon="2.53449">
        <ele>313.05</ele>
        <time>2021-06-29T12:01:57Z</time>
      </trkpt>
      <trkpt lat="46.33388" lon="2.53517">
        <ele>306.8</ele>
        <time>2021-06-29T12:02:04Z</time>
      </trkpt>
      <trkpt lat="46.33393" lon="2.53526">
        <ele>306.32</ele>
        <time>2021-06-29T12:02:05Z</time>
      </trkpt>
      <trkpt lat="46.33393" lon="2.53526">
        <ele>305.84</ele>
        <time>2021-06-29T12:02:06Z</time>
      </trkpt>
      <trkpt lat="46.33394" lon="2.53537">
        <ele>305.36</ele>
        <time>2021-06-29T12:02:07Z</time>
      </trkpt>
      <trkpt lat="46.33395" lon="2.53549">
        <ele>304.39</ele>
        <time>2021-06-29T12:02:08Z</time>
      </trkpt>
      <trkpt lat="46.33396" lon="2.53561">
        <ele>303.91</ele>
        <time>2021-06-29T12:02:09Z</time>
      </trkpt>
      <trkpt lat="46.3339" lon="2.53586">
        <ele>303.43</ele>
        <time>2021-06-29T12:02:10Z</time>
      </trkpt>
      <trkpt lat="46.33385" lon="2.53598">
        <ele>302.95</ele>
        <time>2021-06-29T12:02:11Z</time>
      </trkpt>
      <trkpt lat="46.33376" lon="2.53608">
        <ele>302.47</ele>
        <time>2021-06-29T12:02:12Z</time>
      </trkpt>
      <trkpt lat="46.33367" lon="2.53618">
        <ele>301.51</ele>
        <time>2021-06-29T12:02:13Z</time>
      </trkpt>
      <trkpt lat="46.33356" lon="2.53624">
        <ele>302.47</ele>
        <time>2021-06-29T12:02:14Z</time>
      </trkpt>
      <trkpt lat="46.33345" lon="2.5363">
        <ele>302.95</ele>
        <time>2021-06-29T12:02:15Z</time>
      </trkpt>
      <trkpt lat="46.33333" lon="2.53636">
        <ele>302.95</ele>
        <time>2021-06-29T12:02:16Z</time>
      </trkpt>
      <trkpt lat="46.33221" lon="2.53666">
        <ele>303.43</ele>
        <time>2021-06-29T12:02:24Z</time>
      </trkpt>
      <trkpt lat="46.33043" lon="2.53665">
        <ele>304.39</ele>
        <time>2021-06-29T12:02:33Z</time>
      </trkpt>
      <trkpt lat="46.32858" lon="2.53594">
        <ele>304.39</ele>
        <time>2021-06-29T12:02:42Z</time>
      </trkpt>
      <trkpt lat="46.32706" lon="2.53468">
        <ele>308.72</ele>
        <time>2021-06-29T12:02:50Z</time>
      </trkpt>
      <trkpt lat="46.32551" lon="2.53237">
        <ele>316.89</ele>
        <time>2021-06-29T12:02:59Z</time>
      </trkpt>
      <trkpt lat="46.32444" lon="2.5296">
        <ele>322.66</ele>
        <time>2021-06-29T12:03:09Z</time>
      </trkpt>
      <trkpt lat="46.32263" lon="2.52432">
        <ele>335.64</ele>
        <time>2021-06-29T12:03:29Z</time>
      </trkpt>
      <trkpt lat="46.32138" lon="2.52003">
        <ele>346.21</ele>
        <time>2021-06-29T12:03:43Z</time>
      </trkpt>
      <trkpt lat="46.3198" lon="2.51236">
        <ele>368.32</ele>
        <time>2021-06-29T12:04:09Z</time>
      </trkpt>
      <trkpt lat="46.31812" lon="2.50423">
        <ele>386.59</ele>
        <time>2021-06-29T12:04:35Z</time>
      </trkpt>
      <trkpt lat="46.31715" lon="2.49862">
        <ele>391.39</ele>
        <time>2021-06-29T12:04:53Z</time>
      </trkpt>
      <trkpt lat="46.31682" lon="2.49316">
        <ele>390.91</ele>
        <time>2021-06-29T12:05:10Z</time>
      </trkpt>
      <trkpt lat="46.31636" lon="2.48514">
        <ele>397.64</ele>
        <time>2021-06-29T12:05:35Z</time>
      </trkpt>
      <trkpt lat="46.31576" lon="2.48046">
        <ele>400.53</ele>
        <time>2021-06-29T12:05:50Z</time>
      </trkpt>
      <trkpt lat="46.3147" lon="2.47587">
        <ele>403.89</ele>
        <time>2021-06-29T12:06:05Z</time>
      </trkpt>
      <trkpt lat="46.31325" lon="2.47175">
        <ele>408.7</ele>
        <time>2021-06-29T12:06:19Z</time>
      </trkpt>
      <trkpt lat="46.31117" lon="2.46674">
        <ele>424.08</ele>
        <time>2021-06-29T12:06:37Z</time>
      </trkpt>
      <trkpt lat="46.30977" lon="2.46227">
        <ele>439.46</ele>
        <time>2021-06-29T12:06:53Z</time>
      </trkpt>
      <trkpt lat="46.30751" lon="2.45461">
        <ele>445.23</ele>
        <time>2021-06-29T12:07:20Z</time>
      </trkpt>
      <trkpt lat="46.30556" lon="2.44799">
        <ele>434.65</ele>
        <time>2021-06-29T12:07:43Z</time>
      </trkpt>
      <trkpt lat="46.30419" lon="2.44414">
        <ele>444.75</ele>
        <time>2021-06-29T12:07:57Z</time>
      </trkpt>
      <trkpt lat="46.30235" lon="2.44054">
        <ele>458.69</ele>
        <time>2021-06-29T12:08:12Z</time>
      </trkpt>
      <trkpt lat="46.29995" lon="2.43707">
        <ele>475.99</ele>
        <time>2021-06-29T12:08:29Z</time>
      </trkpt>
      <trkpt lat="46.29777" lon="2.43362">
        <ele>480.32</ele>
        <time>2021-06-29T12:08:44Z</time>
      </trkpt>
      <trkpt lat="46.29616" lon="2.43005">
        <ele>475.99</ele>
        <time>2021-06-29T12:08:57Z</time>
      </trkpt>
      <trkpt lat="46.29346" lon="2.42253">
        <ele>467.82</ele>
        <time>2021-06-29T12:09:22Z</time>
      </trkpt>
      <trkpt lat="46.29022" lon="2.41359">
        <ele>463.01</ele>
        <time>2021-06-29T12:09:51Z</time>
      </trkpt>
      <trkpt lat="46.28822" lon="2.40866">
        <ele>458.69</ele>
        <time>2021-06-29T12:10:09Z</time>
      </trkpt>
      <trkpt lat="46.28616" lon="2.40502">
        <ele>457.24</ele>
        <time>2021-06-29T12:10:23Z</time>
      </trkpt>
      <trkpt lat="46.28214" lon="2.39832">
        <ele>444.27</ele>
        <time>2021-06-29T12:10:48Z</time>
      </trkpt>
      <trkpt lat="46.27884" lon="2.39288">
        <ele>451.96</ele>
        <time>2021-06-29T12:11:10Z</time>
      </trkpt>
      <trkpt lat="46.27489" lon="2.38634">
        <ele>443.79</ele>
        <time>2021-06-29T12:11:36Z</time>
      </trkpt>
      <trkpt lat="46.27159" lon="2.38088">
        <ele>445.71</ele>
        <time>2021-06-29T12:11:57Z</time>
      </trkpt>
      <trkpt lat="46.26793" lon="2.37482">
        <ele>434.17</ele>
        <time>2021-06-29T12:12:20Z</time>
      </trkpt>
      <trkpt lat="46.26451" lon="2.36915">
        <ele>442.82</ele>
        <time>2021-06-29T12:12:42Z</time>
      </trkpt>
      <trkpt lat="46.26208" lon="2.36558">
        <ele>447.63</ele>
        <time>2021-06-29T12:12:57Z</time>
      </trkpt>
      <trkpt lat="46.25896" lon="2.36199">
        <ele>451.96</ele>
        <time>2021-06-29T12:13:13Z</time>
      </trkpt>
      <trkpt lat="46.25552" lon="2.35826">
        <ele>446.67</ele>
        <time>2021-06-29T12:13:33Z</time>
      </trkpt>
      <trkpt lat="46.25123" lon="2.35351">
        <ele>431.29</ele>
        <time>2021-06-29T12:13:57Z</time>
      </trkpt>
      <trkpt lat="46.24839" lon="2.3501">
        <ele>420.71</ele>
        <time>2021-06-29T12:14:13Z</time>
      </trkpt>
      <trkpt lat="46.24685" lon="2.34725">
        <ele>408.7</ele>
        <time>2021-06-29T12:14:23Z</time>
      </trkpt>
      <trkpt lat="46.24453" lon="2.3421">
        <ele>399.57</ele>
        <time>2021-06-29T12:14:43Z</time>
      </trkpt>
      <trkpt lat="46.24245" lon="2.33745">
        <ele>392.84</ele>
        <time>2021-06-29T12:14:59Z</time>
      </trkpt>
      <trkpt lat="46.24034" lon="2.33241">
        <ele>390.43</ele>
        <time>2021-06-29T12:15:16Z</time>
      </trkpt>
      <trkpt lat="46.23888" lon="2.32771">
        <ele>396.68</ele>
        <time>2021-06-29T12:15:31Z</time>
      </trkpt>
      <trkpt lat="46.23703" lon="2.32219">
        <ele>408.7</ele>
        <time>2021-06-29T12:15:49Z</time>
      </trkpt>
      <trkpt lat="46.23518" lon="2.31826">
        <ele>414.47</ele>
        <time>2021-06-29T12:16:03Z</time>
      </trkpt>
      <trkpt lat="46.23217" lon="2.31335">
        <ele>409.18</ele>
        <time>2021-06-29T12:16:22Z</time>
      </trkpt>
      <trkpt lat="46.22818" lon="2.30695">
        <ele>399.57</ele>
        <time>2021-06-29T12:16:47Z</time>
      </trkpt>
      <trkpt lat="46.22501" lon="2.30211">
        <ele>390.43</ele>
        <time>2021-06-29T12:17:07Z</time>
      </trkpt>
      <trkpt lat="46.2226" lon="2.29933">
        <ele>381.78</ele>
        <time>2021-06-29T12:17:20Z</time>
      </trkpt>
      <trkpt lat="46.22099" lon="2.29678">
        <ele>373.61</ele>
        <time>2021-06-29T12:17:30Z</time>
      </trkpt>
      <trkpt lat="46.21916" lon="2.29267">
        <ele>365.92</ele>
        <time>2021-06-29T12:17:44Z</time>
      </trkpt>
      <trkpt lat="46.21603" lon="2.2854">
        <ele>362.07</ele>
        <time>2021-06-29T12:18:08Z</time>
      </trkpt>
      <trkpt lat="46.21429" lon="2.28217">
        <ele>366.4</ele>
        <time>2021-06-29T12:18:19Z</time>
      </trkpt>
      <trkpt lat="46.2108" lon="2.2765">
        <ele>366.88</ele>
        <time>2021-06-29T12:18:39Z</time>
      </trkpt>
      <trkpt lat="46.2075" lon="2.27116">
        <ele>370.73</ele>
        <time>2021-06-29T12:18:59Z</time>
      </trkpt>
      <trkpt lat="46.20489" lon="2.26638">
        <ele>361.11</ele>
        <time>2021-06-29T12:19:15Z</time>
      </trkpt>
      <trkpt lat="46.20127" lon="2.25907">
        <ele>366.4</ele>
        <time>2021-06-29T12:19:41Z</time>
      </trkpt>
      <trkpt lat="46.1991" lon="2.25443">
        <ele>367.36</ele>
        <time>2021-06-29T12:19:57Z</time>
      </trkpt>
      <trkpt lat="46.19857" lon="2.2522">
        <ele>372.17</ele>
        <time>2021-06-29T12:20:04Z</time>
      </trkpt>
      <trkpt lat="46.19848" lon="2.24957">
        <ele>373.13</ele>
        <time>2021-06-29T12:20:12Z</time>
      </trkpt>
      <trkpt lat="46.19892" lon="2.24664">
        <ele>371.21</ele>
        <time>2021-06-29T12:20:21Z</time>
      </trkpt>
      <trkpt lat="46.19924" lon="2.24329">
        <ele>370.73</ele>
        <time>2021-06-29T12:20:31Z</time>
      </trkpt>
      <trkpt lat="46.19909" lon="2.23986">
        <ele>370.24</ele>
        <time>2021-06-29T12:20:41Z</time>
      </trkpt>
      <trkpt lat="46.19848" lon="2.23652">
        <ele>370.73</ele>
        <time>2021-06-29T12:20:51Z</time>
      </trkpt>
      <trkpt lat="46.1967" lon="2.22874">
        <ele>376.49</ele>
        <time>2021-06-29T12:21:14Z</time>
      </trkpt>
      <trkpt lat="46.19543" lon="2.22246">
        <ele>380.82</ele>
        <time>2021-06-29T12:21:32Z</time>
      </trkpt>
      <trkpt lat="46.1954" lon="2.21921">
        <ele>379.38</ele>
        <time>2021-06-29T12:21:41Z</time>
      </trkpt>
      <trkpt lat="46.19601" lon="2.21571">
        <ele>381.3</ele>
        <time>2021-06-29T12:21:51Z</time>
      </trkpt>
      <trkpt lat="46.19777" lon="2.20714">
        <ele>383.22</ele>
        <time>2021-06-29T12:22:15Z</time>
      </trkpt>
      <trkpt lat="46.19809" lon="2.20387">
        <ele>386.11</ele>
        <time>2021-06-29T12:22:24Z</time>
      </trkpt>
      <trkpt lat="46.19796" lon="2.19977">
        <ele>389.95</ele>
        <time>2021-06-29T12:22:35Z</time>
      </trkpt>
      <trkpt lat="46.19741" lon="2.19027">
        <ele>397.64</ele>
        <time>2021-06-29T12:23:01Z</time>
      </trkpt>
      <trkpt lat="46.19684" lon="2.18677">
        <ele>405.81</ele>
        <time>2021-06-29T12:23:11Z</time>
      </trkpt>
      <trkpt lat="46.19567" lon="2.18227">
        <ele>421.19</ele>
        <time>2021-06-29T12:23:25Z</time>
      </trkpt>
      <trkpt lat="46.19401" lon="2.17534">
        <ele>428.89</ele>
        <time>2021-06-29T12:23:46Z</time>
      </trkpt>
      <trkpt lat="46.19383" lon="2.17218">
        <ele>425.04</ele>
        <time>2021-06-29T12:23:56Z</time>
      </trkpt>
      <trkpt lat="46.19409" lon="2.16852">
        <ele>413.98</ele>
        <time>2021-06-29T12:24:05Z</time>
      </trkpt>
      <trkpt lat="46.19499" lon="2.16205">
        <ele>401.01</ele>
        <time>2021-06-29T12:24:23Z</time>
      </trkpt>
      <trkpt lat="46.19579" lon="2.15644">
        <ele>394.76</ele>
        <time>2021-06-29T12:24:37Z</time>
      </trkpt>
      <trkpt lat="46.19704" lon="2.14757">
        <ele>388.99</ele>
        <time>2021-06-29T12:25:02Z</time>
      </trkpt>
      <trkpt lat="46.19781" lon="2.14318">
        <ele>390.43</ele>
        <time>2021-06-29T12:25:14Z</time>
      </trkpt>
      <trkpt lat="46.19895" lon="2.13743">
        <ele>391.87</ele>
        <time>2021-06-29T12:25:29Z</time>
      </trkpt>
      <trkpt lat="46.19938" lon="2.13262">
        <ele>401.97</ele>
        <time>2021-06-29T12:25:43Z</time>
      </trkpt>
      <trkpt lat="46.20012" lon="2.12396">
        <ele>394.76</ele>
        <time>2021-06-29T12:26:06Z</time>
      </trkpt>
      <trkpt lat="46.20095" lon="2.11433">
        <ele>397.64</ele>
        <time>2021-06-29T12:26:31Z</time>
      </trkpt>
      <trkpt lat="46.20162" lon="2.10655">
        <ele>411.1</ele>
        <time>2021-06-29T12:26:51Z</time>
      </trkpt>
      <trkpt lat="46.20214" lon="2.10224">
        <ele>426.96</ele>
        <time>2021-06-29T12:27:04Z</time>
      </trkpt>
      <trkpt lat="46.20307" lon="2.09942">
        <ele>435.61</ele>
        <time>2021-06-29T12:27:13Z</time>
      </trkpt>
      <trkpt lat="46.20461" lon="2.09578">
        <ele>440.9</ele>
        <time>2021-06-29T12:27:25Z</time>
      </trkpt>
      <trkpt lat="46.20523" lon="2.093">
        <ele>442.34</ele>
        <time>2021-06-29T12:27:33Z</time>
      </trkpt>
      <trkpt lat="46.20532" lon="2.09">
        <ele>445.71</ele>
        <time>2021-06-29T12:27:41Z</time>
      </trkpt>
      <trkpt lat="46.20491" lon="2.08445">
        <ele>462.05</ele>
        <time>2021-06-29T12:27:56Z</time>
      </trkpt>
      <trkpt lat="46.20431" lon="2.07774">
        <ele>469.26</ele>
        <time>2021-06-29T12:28:15Z</time>
      </trkpt>
      <trkpt lat="46.2036" lon="2.07355">
        <ele>473.11</ele>
        <time>2021-06-29T12:28:27Z</time>
      </trkpt>
      <trkpt lat="46.20341" lon="2.06957">
        <ele>478.39</ele>
        <time>2021-06-29T12:28:38Z</time>
      </trkpt>
      <trkpt lat="46.20368" lon="2.06508">
        <ele>482.24</ele>
        <time>2021-06-29T12:28:50Z</time>
      </trkpt>
      <trkpt lat="46.20445" lon="2.05547">
        <ele>494.74</ele>
        <time>2021-06-29T12:29:15Z</time>
      </trkpt>
      <trkpt lat="46.20486" lon="2.04989">
        <ele>504.35</ele>
        <time>2021-06-29T12:29:30Z</time>
      </trkpt>
      <trkpt lat="46.20476" lon="2.04585">
        <ele>510.6</ele>
        <time>2021-06-29T12:29:41Z</time>
      </trkpt>
      <trkpt lat="46.20487" lon="2.04254">
        <ele>514.92</ele>
        <time>2021-06-29T12:29:50Z</time>
      </trkpt>
      <trkpt lat="46.20556" lon="2.03817">
        <ele>519.25</ele>
        <time>2021-06-29T12:30:02Z</time>
      </trkpt>
      <trkpt lat="46.20598" lon="2.03408">
        <ele>521.17</ele>
        <time>2021-06-29T12:30:13Z</time>
      </trkpt>
      <trkpt lat="46.20659" lon="2.02608">
        <ele>516.85</ele>
        <time>2021-06-29T12:30:34Z</time>
      </trkpt>
      <trkpt lat="46.20721" lon="2.01763">
        <ele>499.06</ele>
        <time>2021-06-29T12:30:56Z</time>
      </trkpt>
      <trkpt lat="46.20729" lon="2.01432">
        <ele>491.85</ele>
        <time>2021-06-29T12:31:05Z</time>
      </trkpt>
      <trkpt lat="46.20686" lon="2.01077">
        <ele>484.16</ele>
        <time>2021-06-29T12:31:15Z</time>
      </trkpt>
      <trkpt lat="46.20584" lon="2.00705">
        <ele>480.8</ele>
        <time>2021-06-29T12:31:26Z</time>
      </trkpt>
      <trkpt lat="46.2048" lon="2.00293">
        <ele>477.91</ele>
        <time>2021-06-29T12:31:38Z</time>
      </trkpt>
      <trkpt lat="46.20432" lon="1.99894">
        <ele>475.51</ele>
        <time>2021-06-29T12:31:49Z</time>
      </trkpt>
      <trkpt lat="46.20432" lon="1.9945">
        <ele>468.78</ele>
        <time>2021-06-29T12:32:00Z</time>
      </trkpt>
      <trkpt lat="46.20458" lon="1.98998">
        <ele>461.09</ele>
        <time>2021-06-29T12:32:13Z</time>
      </trkpt>
      <trkpt lat="46.20442" lon="1.98708">
        <ele>457.24</ele>
        <time>2021-06-29T12:32:23Z</time>
      </trkpt>
      <trkpt lat="46.20375" lon="1.98365">
        <ele>456.28</ele>
        <time>2021-06-29T12:32:34Z</time>
      </trkpt>
      <trkpt lat="46.20279" lon="1.98072">
        <ele>457.72</ele>
        <time>2021-06-29T12:32:45Z</time>
      </trkpt>
      <trkpt lat="46.20193" lon="1.97747">
        <ele>454.36</ele>
        <time>2021-06-29T12:32:57Z</time>
      </trkpt>
      <trkpt lat="46.20117" lon="1.97354">
        <ele>447.15</ele>
        <time>2021-06-29T12:33:13Z</time>
      </trkpt>
      <trkpt lat="46.19998" lon="1.96749">
        <ele>434.65</ele>
        <time>2021-06-29T12:33:36Z</time>
      </trkpt>
      <trkpt lat="46.19895" lon="1.96308">
        <ele>423.12</ele>
        <time>2021-06-29T12:33:52Z</time>
      </trkpt>
      <trkpt lat="46.19769" lon="1.95993">
        <ele>410.14</ele>
        <time>2021-06-29T12:34:06Z</time>
      </trkpt>
      <trkpt lat="46.19569" lon="1.95599">
        <ele>391.39</ele>
        <time>2021-06-29T12:34:24Z</time>
      </trkpt>
      <trkpt lat="46.19412" lon="1.95436">
        <ele>379.86</ele>
        <time>2021-06-29T12:34:34Z</time>
      </trkpt>
      <trkpt lat="46.19202" lon="1.95322">
        <ele>371.21</ele>
        <time>2021-06-29T12:34:45Z</time>
      </trkpt>
      <trkpt lat="46.19054" lon="1.95201">
        <ele>363.04</ele>
        <time>2021-06-29T12:34:54Z</time>
      </trkpt>
      <trkpt lat="46.18981" lon="1.95067">
        <ele>353.9</ele>
        <time>2021-06-29T12:35:01Z</time>
      </trkpt>
      <trkpt lat="46.18927" lon="1.94856">
        <ele>344.29</ele>
        <time>2021-06-29T12:35:09Z</time>
      </trkpt>
      <trkpt lat="46.18905" lon="1.94514">
        <ele>330.83</ele>
        <time>2021-06-29T12:35:21Z</time>
      </trkpt>
      <trkpt lat="46.18875" lon="1.93862">
        <ele>334.68</ele>
        <time>2021-06-29T12:35:44Z</time>
      </trkpt>
      <trkpt lat="46.18835" lon="1.93382">
        <ele>346.21</ele>
        <time>2021-06-29T12:36:01Z</time>
      </trkpt>
      <trkpt lat="46.18753" lon="1.93116">
        <ele>350.06</ele>
        <time>2021-06-29T12:36:11Z</time>
      </trkpt>
      <trkpt lat="46.18449" lon="1.9236">
        <ele>353.9</ele>
        <time>2021-06-29T12:36:40Z</time>
      </trkpt>
      <trkpt lat="46.18169" lon="1.91679">
        <ele>367.84</ele>
        <time>2021-06-29T12:37:05Z</time>
      </trkpt>
      <trkpt lat="46.18041" lon="1.91324">
        <ele>372.65</ele>
        <time>2021-06-29T12:37:17Z</time>
      </trkpt>
      <trkpt lat="46.17938" lon="1.90877">
        <ele>384.18</ele>
        <time>2021-06-29T12:37:31Z</time>
      </trkpt>
      <trkpt lat="46.17797" lon="1.9018">
        <ele>394.76</ele>
        <time>2021-06-29T12:37:53Z</time>
      </trkpt>
      <trkpt lat="46.17781" lon="1.89925">
        <ele>394.76</ele>
        <time>2021-06-29T12:38:01Z</time>
      </trkpt>
      <trkpt lat="46.17815" lon="1.89671">
        <ele>398.6</ele>
        <time>2021-06-29T12:38:09Z</time>
      </trkpt>
      <trkpt lat="46.17986" lon="1.88967">
        <ele>405.81</ele>
        <time>2021-06-29T12:38:31Z</time>
      </trkpt>
      <trkpt lat="46.18182" lon="1.88158">
        <ele>395.24</ele>
        <time>2021-06-29T12:38:55Z</time>
      </trkpt>
      <trkpt lat="46.18293" lon="1.87575">
        <ele>397.64</ele>
        <time>2021-06-29T12:39:12Z</time>
      </trkpt>
      <trkpt lat="46.18409" lon="1.86855">
        <ele>400.53</ele>
        <time>2021-06-29T12:39:33Z</time>
      </trkpt>
      <trkpt lat="46.18478" lon="1.86309">
        <ele>388.51</ele>
        <time>2021-06-29T12:39:49Z</time>
      </trkpt>
      <trkpt lat="46.18498" lon="1.85803">
        <ele>375.05</ele>
        <time>2021-06-29T12:40:03Z</time>
      </trkpt>
      <trkpt lat="46.18475" lon="1.8522">
        <ele>380.34</ele>
        <time>2021-06-29T12:40:19Z</time>
      </trkpt>
      <trkpt lat="46.18465" lon="1.84572">
        <ele>393.8</ele>
        <time>2021-06-29T12:40:36Z</time>
      </trkpt>
      <trkpt lat="46.1852" lon="1.83902">
        <ele>409.66</ele>
        <time>2021-06-29T12:40:56Z</time>
      </trkpt>
      <trkpt lat="46.18564" lon="1.8339">
        <ele>411.1</ele>
        <time>2021-06-29T12:41:11Z</time>
      </trkpt>
      <trkpt lat="46.18606" lon="1.82786">
        <ele>413.98</ele>
        <time>2021-06-29T12:41:29Z</time>
      </trkpt>
      <trkpt lat="46.18627" lon="1.82445">
        <ele>418.79</ele>
        <time>2021-06-29T12:41:39Z</time>
      </trkpt>
      <trkpt lat="46.18692" lon="1.82189">
        <ele>433.69</ele>
        <time>2021-06-29T12:41:47Z</time>
      </trkpt>
      <trkpt lat="46.18774" lon="1.81853">
        <ele>446.67</ele>
        <time>2021-06-29T12:41:58Z</time>
      </trkpt>
      <trkpt lat="46.18833" lon="1.81498">
        <ele>464.45</ele>
        <time>2021-06-29T12:42:10Z</time>
      </trkpt>
      <trkpt lat="46.18935" lon="1.81246">
        <ele>473.59</ele>
        <time>2021-06-29T12:42:19Z</time>
      </trkpt>
      <trkpt lat="46.19088" lon="1.80894">
        <ele>494.74</ele>
        <time>2021-06-29T12:42:35Z</time>
      </trkpt>
      <trkpt lat="46.19187" lon="1.80527">
        <ele>505.31</ele>
        <time>2021-06-29T12:42:48Z</time>
      </trkpt>
      <trkpt lat="46.19282" lon="1.80167">
        <ele>503.87</ele>
        <time>2021-06-29T12:43:01Z</time>
      </trkpt>
      <trkpt lat="46.19435" lon="1.79587">
        <ele>494.74</ele>
        <time>2021-06-29T12:43:19Z</time>
      </trkpt>
      <trkpt lat="46.19612" lon="1.78905">
        <ele>490.41</ele>
        <time>2021-06-29T12:43:40Z</time>
      </trkpt>
      <trkpt lat="46.19687" lon="1.78565">
        <ele>485.12</ele>
        <time>2021-06-29T12:43:51Z</time>
      </trkpt>
      <trkpt lat="46.19784" lon="1.77985">
        <ele>500.5</ele>
        <time>2021-06-29T12:44:10Z</time>
      </trkpt>
      <trkpt lat="46.1978" lon="1.77743">
        <ele>501.95</ele>
        <time>2021-06-29T12:44:18Z</time>
      </trkpt>
      <trkpt lat="46.1973" lon="1.77509">
        <ele>501.46</ele>
        <time>2021-06-29T12:44:26Z</time>
      </trkpt>
      <trkpt lat="46.19673" lon="1.77239">
        <ele>498.1</ele>
        <time>2021-06-29T12:44:36Z</time>
      </trkpt>
      <trkpt lat="46.19669" lon="1.76958">
        <ele>490.89</ele>
        <time>2021-06-29T12:44:46Z</time>
      </trkpt>
      <trkpt lat="46.19718" lon="1.76636">
        <ele>474.55</ele>
        <time>2021-06-29T12:44:57Z</time>
      </trkpt>
      <trkpt lat="46.1981" lon="1.7608">
        <ele>450.52</ele>
        <time>2021-06-29T12:45:14Z</time>
      </trkpt>
      <trkpt lat="46.19925" lon="1.75519">
        <ele>456.28</ele>
        <time>2021-06-29T12:45:30Z</time>
      </trkpt>
      <trkpt lat="46.20017" lon="1.7532">
        <ele>454.36</ele>
        <time>2021-06-29T12:45:38Z</time>
      </trkpt>
      <trkpt lat="46.20162" lon="1.7514">
        <ele>450.52</ele>
        <time>2021-06-29T12:45:46Z</time>
      </trkpt>
      <trkpt lat="46.2034" lon="1.75028">
        <ele>446.67</ele>
        <time>2021-06-29T12:45:54Z</time>
      </trkpt>
      <trkpt lat="46.20581" lon="1.74976">
        <ele>446.19</ele>
        <time>2021-06-29T12:46:03Z</time>
      </trkpt>
      <trkpt lat="46.208" lon="1.74912">
        <ele>451</ele>
        <time>2021-06-29T12:46:13Z</time>
      </trkpt>
      <trkpt lat="46.21004" lon="1.7476">
        <ele>453.88</ele>
        <time>2021-06-29T12:46:22Z</time>
      </trkpt>
      <trkpt lat="46.2114" lon="1.74602">
        <ele>458.69</ele>
        <time>2021-06-29T12:46:29Z</time>
      </trkpt>
      <trkpt lat="46.21243" lon="1.74392">
        <ele>464.93</ele>
        <time>2021-06-29T12:46:36Z</time>
      </trkpt>
      <trkpt lat="46.21343" lon="1.74041">
        <ele>467.82</ele>
        <time>2021-06-29T12:46:46Z</time>
      </trkpt>
      <trkpt lat="46.21507" lon="1.73412">
        <ele>460.61</ele>
        <time>2021-06-29T12:47:04Z</time>
      </trkpt>
      <trkpt lat="46.21555" lon="1.73054">
        <ele>450.03</ele>
        <time>2021-06-29T12:47:14Z</time>
      </trkpt>
      <trkpt lat="46.21585" lon="1.72533">
        <ele>442.34</ele>
        <time>2021-06-29T12:47:28Z</time>
      </trkpt>
      <trkpt lat="46.21654" lon="1.72035">
        <ele>457.72</ele>
        <time>2021-06-29T12:47:42Z</time>
      </trkpt>
      <trkpt lat="46.21695" lon="1.71624">
        <ele>455.32</ele>
        <time>2021-06-29T12:47:54Z</time>
      </trkpt>
      <trkpt lat="46.21685" lon="1.71316">
        <ele>445.71</ele>
        <time>2021-06-29T12:48:03Z</time>
      </trkpt>
      <trkpt lat="46.21728" lon="1.71082">
        <ele>440.42</ele>
        <time>2021-06-29T12:48:10Z</time>
      </trkpt>
      <trkpt lat="46.21861" lon="1.70693">
        <ele>438.5</ele>
        <time>2021-06-29T12:48:22Z</time>
      </trkpt>
      <trkpt lat="46.22076" lon="1.70095">
        <ele>451</ele>
        <time>2021-06-29T12:48:41Z</time>
      </trkpt>
      <trkpt lat="46.22136" lon="1.69835">
        <ele>454.84</ele>
        <time>2021-06-29T12:48:48Z</time>
      </trkpt>
      <trkpt lat="46.22129" lon="1.69627">
        <ele>456.76</ele>
        <time>2021-06-29T12:48:55Z</time>
      </trkpt>
      <trkpt lat="46.22103" lon="1.69132">
        <ele>457.72</ele>
        <time>2021-06-29T12:49:09Z</time>
      </trkpt>
      <trkpt lat="46.22137" lon="1.68805">
        <ele>448.59</ele>
        <time>2021-06-29T12:49:18Z</time>
      </trkpt>
      <trkpt lat="46.22176" lon="1.68439">
        <ele>438.5</ele>
        <time>2021-06-29T12:49:28Z</time>
      </trkpt>
      <trkpt lat="46.22232" lon="1.67787">
        <ele>429.85</ele>
        <time>2021-06-29T12:49:46Z</time>
      </trkpt>
      <trkpt lat="46.22261" lon="1.67247">
        <ele>433.21</ele>
        <time>2021-06-29T12:50:01Z</time>
      </trkpt>
      <trkpt lat="46.22224" lon="1.6689">
        <ele>432.25</ele>
        <time>2021-06-29T12:50:11Z</time>
      </trkpt>
      <trkpt lat="46.22147" lon="1.66436">
        <ele>430.81</ele>
        <time>2021-06-29T12:50:24Z</time>
      </trkpt>
      <trkpt lat="46.22045" lon="1.66019">
        <ele>424.56</ele>
        <time>2021-06-29T12:50:37Z</time>
      </trkpt>
      <trkpt lat="46.21943" lon="1.65827">
        <ele>418.79</ele>
        <time>2021-06-29T12:50:44Z</time>
      </trkpt>
      <trkpt lat="46.21725" lon="1.65471">
        <ele>401.49</ele>
        <time>2021-06-29T12:50:57Z</time>
      </trkpt>
      <trkpt lat="46.21662" lon="1.65232">
        <ele>397.64</ele>
        <time>2021-06-29T12:51:05Z</time>
      </trkpt>
      <trkpt lat="46.2145" lon="1.6436">
        <ele>403.41</ele>
        <time>2021-06-29T12:51:30Z</time>
      </trkpt>
      <trkpt lat="46.21415" lon="1.64115">
        <ele>401.97</ele>
        <time>2021-06-29T12:51:37Z</time>
      </trkpt>
      <trkpt lat="46.2143" lon="1.63864">
        <ele>402.45</ele>
        <time>2021-06-29T12:51:44Z</time>
      </trkpt>
      <trkpt lat="46.21492" lon="1.63626">
        <ele>402.45</ele>
        <time>2021-06-29T12:51:51Z</time>
      </trkpt>
      <trkpt lat="46.21724" lon="1.62925">
        <ele>413.5</ele>
        <time>2021-06-29T12:52:12Z</time>
      </trkpt>
      <trkpt lat="46.21946" lon="1.62252">
        <ele>434.17</ele>
        <time>2021-06-29T12:52:33Z</time>
      </trkpt>
      <trkpt lat="46.22075" lon="1.6179">
        <ele>438.02</ele>
        <time>2021-06-29T12:52:47Z</time>
      </trkpt>
      <trkpt lat="46.22224" lon="1.61215">
        <ele>429.37</ele>
        <time>2021-06-29T12:53:04Z</time>
      </trkpt>
      <trkpt lat="46.22254" lon="1.60918">
        <ele>419.75</ele>
        <time>2021-06-29T12:53:12Z</time>
      </trkpt>
      <trkpt lat="46.22232" lon="1.60586">
        <ele>412.54</ele>
        <time>2021-06-29T12:53:21Z</time>
      </trkpt>
      <trkpt lat="46.22148" lon="1.59894">
        <ele>403.89</ele>
        <time>2021-06-29T12:53:40Z</time>
      </trkpt>
      <trkpt lat="46.22096" lon="1.5932">
        <ele>414.47</ele>
        <time>2021-06-29T12:53:56Z</time>
      </trkpt>
      <trkpt lat="46.2212" lon="1.58922">
        <ele>418.79</ele>
        <time>2021-06-29T12:54:07Z</time>
      </trkpt>
      <trkpt lat="46.22181" lon="1.58519">
        <ele>420.71</ele>
        <time>2021-06-29T12:54:18Z</time>
      </trkpt>
      <trkpt lat="46.22276" lon="1.58038">
        <ele>412.06</ele>
        <time>2021-06-29T12:54:31Z</time>
      </trkpt>
      <trkpt lat="46.22304" lon="1.57619">
        <ele>410.14</ele>
        <time>2021-06-29T12:54:42Z</time>
      </trkpt>
      <trkpt lat="46.2231" lon="1.57178">
        <ele>416.39</ele>
        <time>2021-06-29T12:54:54Z</time>
      </trkpt>
      <trkpt lat="46.22352" lon="1.56774">
        <ele>420.23</ele>
        <time>2021-06-29T12:55:05Z</time>
      </trkpt>
      <trkpt lat="46.22479" lon="1.56119">
        <ele>426</ele>
        <time>2021-06-29T12:55:23Z</time>
      </trkpt>
      <trkpt lat="46.22599" lon="1.55554">
        <ele>429.85</ele>
        <time>2021-06-29T12:55:39Z</time>
      </trkpt>
      <trkpt lat="46.227" lon="1.55342">
        <ele>433.69</ele>
        <time>2021-06-29T12:55:46Z</time>
      </trkpt>
      <trkpt lat="46.22838" lon="1.55172">
        <ele>429.37</ele>
        <time>2021-06-29T12:55:53Z</time>
      </trkpt>
      <trkpt lat="46.23049" lon="1.5501">
        <ele>426.48</ele>
        <time>2021-06-29T12:56:02Z</time>
      </trkpt>
      <trkpt lat="46.23219" lon="1.54818">
        <ele>431.77</ele>
        <time>2021-06-29T12:56:10Z</time>
      </trkpt>
      <trkpt lat="46.23333" lon="1.54606">
        <ele>435.13</ele>
        <time>2021-06-29T12:56:17Z</time>
      </trkpt>
      <trkpt lat="46.23458" lon="1.54264">
        <ele>434.65</ele>
        <time>2021-06-29T12:56:27Z</time>
      </trkpt>
      <trkpt lat="46.2359" lon="1.53975">
        <ele>430.33</ele>
        <time>2021-06-29T12:56:36Z</time>
      </trkpt>
      <trkpt lat="46.23717" lon="1.53682">
        <ele>422.16</ele>
        <time>2021-06-29T12:56:45Z</time>
      </trkpt>
      <trkpt lat="46.23791" lon="1.53356">
        <ele>419.27</ele>
        <time>2021-06-29T12:56:54Z</time>
      </trkpt>
      <trkpt lat="46.23858" lon="1.52982">
        <ele>412.54</ele>
        <time>2021-06-29T12:57:05Z</time>
      </trkpt>
      <trkpt lat="46.23871" lon="1.52688">
        <ele>406.77</ele>
        <time>2021-06-29T12:57:13Z</time>
      </trkpt>
      <trkpt lat="46.23833" lon="1.52386">
        <ele>401.01</ele>
        <time>2021-06-29T12:57:21Z</time>
      </trkpt>
      <trkpt lat="46.23737" lon="1.51986">
        <ele>395.72</ele>
        <time>2021-06-29T12:57:32Z</time>
      </trkpt>
      <trkpt lat="46.2362" lon="1.51684">
        <ele>392.36</ele>
        <time>2021-06-29T12:57:41Z</time>
      </trkpt>
      <trkpt lat="46.23451" lon="1.51394">
        <ele>389.95</ele>
        <time>2021-06-29T12:57:51Z</time>
      </trkpt>
      <trkpt lat="46.2324" lon="1.5112">
        <ele>386.11</ele>
        <time>2021-06-29T12:58:02Z</time>
      </trkpt>
      <trkpt lat="46.23066" lon="1.50864">
        <ele>378.9</ele>
        <time>2021-06-29T12:58:12Z</time>
      </trkpt>
      <trkpt lat="46.22817" lon="1.50464">
        <ele>372.17</ele>
        <time>2021-06-29T12:58:26Z</time>
      </trkpt>
      <trkpt lat="46.22615" lon="1.50004">
        <ele>367.36</ele>
        <time>2021-06-29T12:58:40Z</time>
      </trkpt>
      <trkpt lat="46.22426" lon="1.49557">
        <ele>381.78</ele>
        <time>2021-06-29T12:58:54Z</time>
      </trkpt>
      <trkpt lat="46.22335" lon="1.49261">
        <ele>386.11</ele>
        <time>2021-06-29T12:59:03Z</time>
      </trkpt>
      <trkpt lat="46.22299" lon="1.48974">
        <ele>388.99</ele>
        <time>2021-06-29T12:59:11Z</time>
      </trkpt>
      <trkpt lat="46.22309" lon="1.48675">
        <ele>386.11</ele>
        <time>2021-06-29T12:59:19Z</time>
      </trkpt>
      <trkpt lat="46.22369" lon="1.48384">
        <ele>383.22</ele>
        <time>2021-06-29T12:59:27Z</time>
      </trkpt>
      <trkpt lat="46.22521" lon="1.47943">
        <ele>380.82</ele>
        <time>2021-06-29T12:59:40Z</time>
      </trkpt>
      <trkpt lat="46.22634" lon="1.47531">
        <ele>382.26</ele>
        <time>2021-06-29T12:59:52Z</time>
      </trkpt>
      <trkpt lat="46.2265" lon="1.47242">
        <ele>383.22</ele>
        <time>2021-06-29T13:00:00Z</time>
      </trkpt>
      <trkpt lat="46.22627" lon="1.46802">
        <ele>382.26</ele>
        <time>2021-06-29T13:00:12Z</time>
      </trkpt>
      <trkpt lat="46.22548" lon="1.46326">
        <ele>382.74</ele>
        <time>2021-06-29T13:00:25Z</time>
      </trkpt>
      <trkpt lat="46.22461" lon="1.46014">
        <ele>379.38</ele>
        <time>2021-06-29T13:00:34Z</time>
      </trkpt>
      <trkpt lat="46.22349" lon="1.45802">
        <ele>375.05</ele>
        <time>2021-06-29T13:00:41Z</time>
      </trkpt>
      <trkpt lat="46.22177" lon="1.45613">
        <ele>371.69</ele>
        <time>2021-06-29T13:00:49Z</time>
      </trkpt>
      <trkpt lat="46.21925" lon="1.45319">
        <ele>368.32</ele>
        <time>2021-06-29T13:01:01Z</time>
      </trkpt>
      <trkpt lat="46.21799" lon="1.45071">
        <ele>365.92</ele>
        <time>2021-06-29T13:01:09Z</time>
      </trkpt>
      <trkpt lat="46.21705" lon="1.44741">
        <ele>366.88</ele>
        <time>2021-06-29T13:01:18Z</time>
      </trkpt>
      <trkpt lat="46.21584" lon="1.44186">
        <ele>369.28</ele>
        <time>2021-06-29T13:01:33Z</time>
      </trkpt>
      <trkpt lat="46.21573" lon="1.43878">
        <ele>367.36</ele>
        <time>2021-06-29T13:01:41Z</time>
      </trkpt>
      <trkpt lat="46.21623" lon="1.43529">
        <ele>362.07</ele>
        <time>2021-06-29T13:01:50Z</time>
      </trkpt>
      <trkpt lat="46.21736" lon="1.42856">
        <ele>361.11</ele>
        <time>2021-06-29T13:02:08Z</time>
      </trkpt>
      <trkpt lat="46.21762" lon="1.42524">
        <ele>363.04</ele>
        <time>2021-06-29T13:02:17Z</time>
      </trkpt>
      <trkpt lat="46.21739" lon="1.42182">
        <ele>366.88</ele>
        <time>2021-06-29T13:02:26Z</time>
      </trkpt>
      <trkpt lat="46.21668" lon="1.41851">
        <ele>372.17</ele>
        <time>2021-06-29T13:02:35Z</time>
      </trkpt>
      <trkpt lat="46.21513" lon="1.41282">
        <ele>373.13</ele>
        <time>2021-06-29T13:02:51Z</time>
      </trkpt>
      <trkpt lat="46.21362" lon="1.4093">
        <ele>365.44</ele>
        <time>2021-06-29T13:03:02Z</time>
      </trkpt>
      <trkpt lat="46.21104" lon="1.40378">
        <ele>365.92</ele>
        <time>2021-06-29T13:03:20Z</time>
      </trkpt>
      <trkpt lat="46.2085" lon="1.3983">
        <ele>360.63</ele>
        <time>2021-06-29T13:03:38Z</time>
      </trkpt>
      <trkpt lat="46.2074" lon="1.39638">
        <ele>367.36</ele>
        <time>2021-06-29T13:03:46Z</time>
      </trkpt>
      <trkpt lat="46.20645" lon="1.39468">
        <ele>369.76</ele>
        <time>2021-06-29T13:03:55Z</time>
      </trkpt>
      <trkpt lat="46.20576" lon="1.39297">
        <ele>369.76</ele>
        <time>2021-06-29T13:04:05Z</time>
      </trkpt>
      <trkpt lat="46.20546" lon="1.39153">
        <ele>369.76</ele>
        <time>2021-06-29T13:04:14Z</time>
      </trkpt>
      <trkpt lat="46.20545" lon="1.3913">
        <ele>369.76</ele>
        <time>2021-06-29T13:04:16Z</time>
      </trkpt>
      <trkpt lat="46.20547" lon="1.39123">
        <ele>370.24</ele>
        <time>2021-06-29T13:04:17Z</time>
      </trkpt>
      <trkpt lat="46.20549" lon="1.39116">
        <ele>370.24</ele>
        <time>2021-06-29T13:04:18Z</time>
      </trkpt>
      <trkpt lat="46.20552" lon="1.39109">
        <ele>370.73</ele>
        <time>2021-06-29T13:04:19Z</time>
      </trkpt>
      <trkpt lat="46.20554" lon="1.39104">
        <ele>370.73</ele>
        <time>2021-06-29T13:04:20Z</time>
      </trkpt>
      <trkpt lat="46.20558" lon="1.39101">
        <ele>370.73</ele>
        <time>2021-06-29T13:04:21Z</time>
      </trkpt>
      <trkpt lat="46.20569" lon="1.39094">
        <ele>370.73</ele>
        <time>2021-06-29T13:04:23Z</time>
      </trkpt>
      <trkpt lat="46.20574" lon="1.39083">
        <ele>370.73</ele>
        <time>2021-06-29T13:04:24Z</time>
      </trkpt>
      <trkpt lat="46.20576" lon="1.39075">
        <ele>370.73</ele>
        <time>2021-06-29T13:04:25Z</time>
      </trkpt>
      <trkpt lat="46.20577" lon="1.39072">
        <ele>370.73</ele>
        <time>2021-06-29T13:04:26Z</time>
      </trkpt>
      <trkpt lat="46.20575" lon="1.39061">
        <ele>370.73</ele>
        <time>2021-06-29T13:04:27Z</time>
      </trkpt>
      <trkpt lat="46.20573" lon="1.39053">
        <ele>370.73</ele>
        <time>2021-06-29T13:04:28Z</time>
      </trkpt>
      <trkpt lat="46.20572" lon="1.39045">
        <ele>370.73</ele>
        <time>2021-06-29T13:04:29Z</time>
      </trkpt>
      <trkpt lat="46.20564" lon="1.39035">
        <ele>371.21</ele>
        <time>2021-06-29T13:04:30Z</time>
      </trkpt>
      <trkpt lat="46.20564" lon="1.39035">
        <ele>371.21</ele>
        <time>2021-06-29T13:04:31Z</time>
      </trkpt>
      <trkpt lat="46.20559" lon="1.39022">
        <ele>371.21</ele>
        <time>2021-06-29T13:04:32Z</time>
      </trkpt>
      <trkpt lat="46.20557" lon="1.39012">
        <ele>371.21</ele>
        <time>2021-06-29T13:04:33Z</time>
      </trkpt>
      <trkpt lat="46.20534" lon="1.38893">
        <ele>370.73</ele>
        <time>2021-06-29T13:04:42Z</time>
      </trkpt>
      <trkpt lat="46.20463" lon="1.38675">
        <ele>373.61</ele>
        <time>2021-06-29T13:04:55Z</time>
      </trkpt>
      <trkpt lat="46.20418" lon="1.3845">
        <ele>378.42</ele>
        <time>2021-06-29T13:05:07Z</time>
      </trkpt>
      <trkpt lat="46.20368" lon="1.38208">
        <ele>381.3</ele>
        <time>2021-06-29T13:05:20Z</time>
      </trkpt>
      <trkpt lat="46.2034" lon="1.38055">
        <ele>381.3</ele>
        <time>2021-06-29T13:05:31Z</time>
      </trkpt>
      <trkpt lat="46.2034" lon="1.38046">
        <ele>381.3</ele>
        <time>2021-06-29T13:05:32Z</time>
      </trkpt>
      <trkpt lat="46.2034" lon="1.38038">
        <ele>381.3</ele>
        <time>2021-06-29T13:05:33Z</time>
      </trkpt>
      <trkpt lat="46.20341" lon="1.38031">
        <ele>381.3</ele>
        <time>2021-06-29T13:05:34Z</time>
      </trkpt>
      <trkpt lat="46.20341" lon="1.38025">
        <ele>381.3</ele>
        <time>2021-06-29T13:05:35Z</time>
      </trkpt>
      <trkpt lat="46.20342" lon="1.38019">
        <ele>381.78</ele>
        <time>2021-06-29T13:05:36Z</time>
      </trkpt>
      <trkpt lat="46.20346" lon="1.38014">
        <ele>381.78</ele>
        <time>2021-06-29T13:05:37Z</time>
      </trkpt>
      <trkpt lat="46.20351" lon="1.38009">
        <ele>381.3</ele>
        <time>2021-06-29T13:05:38Z</time>
      </trkpt>
      <trkpt lat="46.20357" lon="1.38007">
        <ele>381.3</ele>
        <time>2021-06-29T13:05:39Z</time>
      </trkpt>
      <trkpt lat="46.20364" lon="1.38007">
        <ele>381.3</ele>
        <time>2021-06-29T13:05:40Z</time>
      </trkpt>
      <trkpt lat="46.20381" lon="1.38008">
        <ele>381.3</ele>
        <time>2021-06-29T13:05:41Z</time>
      </trkpt>
      <trkpt lat="46.20381" lon="1.38008">
        <ele>380.82</ele>
        <time>2021-06-29T13:05:42Z</time>
      </trkpt>
      <trkpt lat="46.20474" lon="1.38057">
        <ele>375.53</ele>
        <time>2021-06-29T13:05:51Z</time>
      </trkpt>
      <trkpt lat="46.20482" lon="1.38067">
        <ele>376.01</ele>
        <time>2021-06-29T13:05:52Z</time>
      </trkpt>
      <trkpt lat="46.2049" lon="1.38077">
        <ele>375.53</ele>
        <time>2021-06-29T13:05:53Z</time>
      </trkpt>
      <trkpt lat="46.20498" lon="1.38088">
        <ele>375.05</ele>
        <time>2021-06-29T13:05:54Z</time>
      </trkpt>
      <trkpt lat="46.20504" lon="1.38097">
        <ele>374.57</ele>
        <time>2021-06-29T13:05:55Z</time>
      </trkpt>
      <trkpt lat="46.20509" lon="1.3811">
        <ele>373.61</ele>
        <time>2021-06-29T13:05:56Z</time>
      </trkpt>
      <trkpt lat="46.20513" lon="1.38123">
        <ele>373.13</ele>
        <time>2021-06-29T13:05:57Z</time>
      </trkpt>
      <trkpt lat="46.20514" lon="1.38138">
        <ele>372.17</ele>
        <time>2021-06-29T13:05:58Z</time>
      </trkpt>
      <trkpt lat="46.20511" lon="1.38164">
        <ele>372.17</ele>
        <time>2021-06-29T13:05:59Z</time>
      </trkpt>
      <trkpt lat="46.20506" lon="1.38176">
        <ele>371.21</ele>
        <time>2021-06-29T13:06:00Z</time>
      </trkpt>
      <trkpt lat="46.20506" lon="1.38176">
        <ele>371.69</ele>
        <time>2021-06-29T13:06:01Z</time>
      </trkpt>
      <trkpt lat="46.20499" lon="1.38186">
        <ele>371.21</ele>
        <time>2021-06-29T13:06:02Z</time>
      </trkpt>
      <trkpt lat="46.20491" lon="1.38198">
        <ele>371.69</ele>
        <time>2021-06-29T13:06:03Z</time>
      </trkpt>
      <trkpt lat="46.20482" lon="1.38207">
        <ele>372.17</ele>
        <time>2021-06-29T13:06:04Z</time>
      </trkpt>
      <trkpt lat="46.20471" lon="1.38212">
        <ele>372.17</ele>
        <time>2021-06-29T13:06:05Z</time>
      </trkpt>
      <trkpt lat="46.20458" lon="1.38216">
        <ele>372.65</ele>
        <time>2021-06-29T13:06:06Z</time>
      </trkpt>
      <trkpt lat="46.20445" lon="1.3822">
        <ele>372.65</ele>
        <time>2021-06-29T13:06:07Z</time>
      </trkpt>
      <trkpt lat="46.20431" lon="1.38224">
        <ele>372.17</ele>
        <time>2021-06-29T13:06:08Z</time>
      </trkpt>
      <trkpt lat="46.20267" lon="1.3823">
        <ele>372.17</ele>
        <time>2021-06-29T13:06:17Z</time>
      </trkpt>
      <trkpt lat="46.19967" lon="1.38237">
        <ele>364.48</ele>
        <time>2021-06-29T13:06:30Z</time>
      </trkpt>
      <trkpt lat="46.19606" lon="1.38243">
        <ele>355.34</ele>
        <time>2021-06-29T13:06:45Z</time>
      </trkpt>
      <trkpt lat="46.19062" lon="1.38243">
        <ele>341.41</ele>
        <time>2021-06-29T13:07:08Z</time>
      </trkpt>
      <trkpt lat="46.18734" lon="1.38198">
        <ele>334.68</ele>
        <time>2021-06-29T13:07:22Z</time>
      </trkpt>
      <trkpt lat="46.18446" lon="1.38109">
        <ele>328.91</ele>
        <time>2021-06-29T13:07:34Z</time>
      </trkpt>
      <trkpt lat="46.18019" lon="1.37942">
        <ele>316.41</ele>
        <time>2021-06-29T13:07:51Z</time>
      </trkpt>
      <trkpt lat="46.17576" lon="1.3777">
        <ele>300.55</ele>
        <time>2021-06-29T13:08:09Z</time>
      </trkpt>
      <trkpt lat="46.17294" lon="1.37685">
        <ele>295.26</ele>
        <time>2021-06-29T13:08:20Z</time>
      </trkpt>
      <trkpt lat="46.16999" lon="1.37667">
        <ele>290.46</ele>
        <time>2021-06-29T13:08:31Z</time>
      </trkpt>
      <trkpt lat="46.16617" lon="1.37689">
        <ele>285.17</ele>
        <time>2021-06-29T13:08:45Z</time>
      </trkpt>
      <trkpt lat="46.16245" lon="1.37684">
        <ele>281.32</ele>
        <time>2021-06-29T13:09:00Z</time>
      </trkpt>
      <trkpt lat="46.15777" lon="1.37656">
        <ele>290.46</ele>
        <time>2021-06-29T13:09:20Z</time>
      </trkpt>
      <trkpt lat="46.15482" lon="1.37704">
        <ele>304.39</ele>
        <time>2021-06-29T13:09:33Z</time>
      </trkpt>
      <trkpt lat="46.15127" lon="1.37776">
        <ele>315.45</ele>
        <time>2021-06-29T13:09:49Z</time>
      </trkpt>
      <trkpt lat="46.14866" lon="1.37757">
        <ele>316.41</ele>
        <time>2021-06-29T13:10:00Z</time>
      </trkpt>
      <trkpt lat="46.14395" lon="1.37668">
        <ele>312.09</ele>
        <time>2021-06-29T13:10:19Z</time>
      </trkpt>
      <trkpt lat="46.1415" lon="1.37666">
        <ele>315.93</ele>
        <time>2021-06-29T13:10:29Z</time>
      </trkpt>
      <trkpt lat="46.13937" lon="1.37742">
        <ele>322.66</ele>
        <time>2021-06-29T13:10:38Z</time>
      </trkpt>
      <trkpt lat="46.13721" lon="1.37904">
        <ele>333.71</ele>
        <time>2021-06-29T13:10:48Z</time>
      </trkpt>
      <trkpt lat="46.13498" lon="1.38047">
        <ele>343.33</ele>
        <time>2021-06-29T13:10:58Z</time>
      </trkpt>
      <trkpt lat="46.13228" lon="1.38125">
        <ele>346.21</ele>
        <time>2021-06-29T13:11:09Z</time>
      </trkpt>
      <trkpt lat="46.12881" lon="1.38172">
        <ele>335.64</ele>
        <time>2021-06-29T13:11:23Z</time>
      </trkpt>
      <trkpt lat="46.1268" lon="1.38118">
        <ele>331.79</ele>
        <time>2021-06-29T13:11:31Z</time>
      </trkpt>
      <trkpt lat="46.12499" lon="1.37992">
        <ele>323.14</ele>
        <time>2021-06-29T13:11:39Z</time>
      </trkpt>
      <trkpt lat="46.12303" lon="1.37773">
        <ele>317.37</ele>
        <time>2021-06-29T13:11:49Z</time>
      </trkpt>
      <trkpt lat="46.12138" lon="1.37626">
        <ele>306.32</ele>
        <time>2021-06-29T13:11:57Z</time>
      </trkpt>
      <trkpt lat="46.11932" lon="1.37537">
        <ele>293.34</ele>
        <time>2021-06-29T13:12:06Z</time>
      </trkpt>
      <trkpt lat="46.1173" lon="1.37522">
        <ele>286.61</ele>
        <time>2021-06-29T13:12:15Z</time>
      </trkpt>
      <trkpt lat="46.11511" lon="1.37537">
        <ele>290.94</ele>
        <time>2021-06-29T13:12:26Z</time>
      </trkpt>
      <trkpt lat="46.11251" lon="1.37548">
        <ele>293.82</ele>
        <time>2021-06-29T13:12:39Z</time>
      </trkpt>
      <trkpt lat="46.11072" lon="1.375">
        <ele>304.39</ele>
        <time>2021-06-29T13:12:49Z</time>
      </trkpt>
      <trkpt lat="46.10827" lon="1.3735">
        <ele>319.78</ele>
        <time>2021-06-29T13:13:02Z</time>
      </trkpt>
      <trkpt lat="46.10546" lon="1.37113">
        <ele>334.68</ele>
        <time>2021-06-29T13:13:17Z</time>
      </trkpt>
      <trkpt lat="46.10375" lon="1.36914">
        <ele>341.41</ele>
        <time>2021-06-29T13:13:28Z</time>
      </trkpt>
      <trkpt lat="46.1009" lon="1.36572">
        <ele>348.62</ele>
        <time>2021-06-29T13:13:44Z</time>
      </trkpt>
      <trkpt lat="46.09879" lon="1.36412">
        <ele>356.79</ele>
        <time>2021-06-29T13:13:54Z</time>
      </trkpt>
      <trkpt lat="46.09648" lon="1.36314">
        <ele>366.4</ele>
        <time>2021-06-29T13:14:04Z</time>
      </trkpt>
      <trkpt lat="46.09333" lon="1.36266">
        <ele>375.53</ele>
        <time>2021-06-29T13:14:17Z</time>
      </trkpt>
      <trkpt lat="46.0893" lon="1.362">
        <ele>396.68</ele>
        <time>2021-06-29T13:14:34Z</time>
      </trkpt>
      <trkpt lat="46.08776" lon="1.36102">
        <ele>403.89</ele>
        <time>2021-06-29T13:14:41Z</time>
      </trkpt>
      <trkpt lat="46.08621" lon="1.35916">
        <ele>419.27</ele>
        <time>2021-06-29T13:14:50Z</time>
      </trkpt>
      <trkpt lat="46.08447" lon="1.35725">
        <ele>428.4</ele>
        <time>2021-06-29T13:15:00Z</time>
      </trkpt>
      <trkpt lat="46.08277" lon="1.35648">
        <ele>430.81</ele>
        <time>2021-06-29T13:15:08Z</time>
      </trkpt>
      <trkpt lat="46.08092" lon="1.35654">
        <ele>423.6</ele>
        <time>2021-06-29T13:15:15Z</time>
      </trkpt>
      <trkpt lat="46.07926" lon="1.35706">
        <ele>414.47</ele>
        <time>2021-06-29T13:15:23Z</time>
      </trkpt>
      <trkpt lat="46.07489" lon="1.35867">
        <ele>390.43</ele>
        <time>2021-06-29T13:15:40Z</time>
      </trkpt>
      <trkpt lat="46.06937" lon="1.36055">
        <ele>410.14</ele>
        <time>2021-06-29T13:16:02Z</time>
      </trkpt>
      <trkpt lat="46.06699" lon="1.36095">
        <ele>427.44</ele>
        <time>2021-06-29T13:16:13Z</time>
      </trkpt>
      <trkpt lat="46.06427" lon="1.36104">
        <ele>451.48</ele>
        <time>2021-06-29T13:16:27Z</time>
      </trkpt>
      <trkpt lat="46.06054" lon="1.36086">
        <ele>477.91</ele>
        <time>2021-06-29T13:16:46Z</time>
      </trkpt>
      <trkpt lat="46.05763" lon="1.36031">
        <ele>486.08</ele>
        <time>2021-06-29T13:17:00Z</time>
      </trkpt>
      <trkpt lat="46.0555" lon="1.35927">
        <ele>483.68</ele>
        <time>2021-06-29T13:17:10Z</time>
      </trkpt>
      <trkpt lat="46.05345" lon="1.35857">
        <ele>475.51</ele>
        <time>2021-06-29T13:17:19Z</time>
      </trkpt>
      <trkpt lat="46.05085" lon="1.35763">
        <ele>457.24</ele>
        <time>2021-06-29T13:17:30Z</time>
      </trkpt>
      <trkpt lat="46.04859" lon="1.35607">
        <ele>439.46</ele>
        <time>2021-06-29T13:17:40Z</time>
      </trkpt>
      <trkpt lat="46.04628" lon="1.35498">
        <ele>425.52</ele>
        <time>2021-06-29T13:17:50Z</time>
      </trkpt>
      <trkpt lat="46.0443" lon="1.35373">
        <ele>412.06</ele>
        <time>2021-06-29T13:17:59Z</time>
      </trkpt>
      <trkpt lat="46.04145" lon="1.35095">
        <ele>396.68</ele>
        <time>2021-06-29T13:18:13Z</time>
      </trkpt>
      <trkpt lat="46.03937" lon="1.34971">
        <ele>394.28</ele>
        <time>2021-06-29T13:18:21Z</time>
      </trkpt>
      <trkpt lat="46.03771" lon="1.34932">
        <ele>398.6</ele>
        <time>2021-06-29T13:18:29Z</time>
      </trkpt>
      <trkpt lat="46.03504" lon="1.34953">
        <ele>404.37</ele>
        <time>2021-06-29T13:18:40Z</time>
      </trkpt>
      <trkpt lat="46.03295" lon="1.3494">
        <ele>412.06</ele>
        <time>2021-06-29T13:18:49Z</time>
      </trkpt>
      <trkpt lat="46.03118" lon="1.34849">
        <ele>420.71</ele>
        <time>2021-06-29T13:18:57Z</time>
      </trkpt>
      <trkpt lat="46.02781" lon="1.34631">
        <ele>439.94</ele>
        <time>2021-06-29T13:19:13Z</time>
      </trkpt>
      <trkpt lat="46.02507" lon="1.34479">
        <ele>444.75</ele>
        <time>2021-06-29T13:19:26Z</time>
      </trkpt>
      <trkpt lat="46.02174" lon="1.34254">
        <ele>430.81</ele>
        <time>2021-06-29T13:19:41Z</time>
      </trkpt>
      <trkpt lat="46.01917" lon="1.34078">
        <ele>427.92</ele>
        <time>2021-06-29T13:19:53Z</time>
      </trkpt>
      <trkpt lat="46.01657" lon="1.33916">
        <ele>426.48</ele>
        <time>2021-06-29T13:20:05Z</time>
      </trkpt>
      <trkpt lat="46.01464" lon="1.33868">
        <ele>427.44</ele>
        <time>2021-06-29T13:20:13Z</time>
      </trkpt>
      <trkpt lat="46.01237" lon="1.33881">
        <ele>426.96</ele>
        <time>2021-06-29T13:20:22Z</time>
      </trkpt>
      <trkpt lat="46.01039" lon="1.3387">
        <ele>432.25</ele>
        <time>2021-06-29T13:20:30Z</time>
      </trkpt>
      <trkpt lat="46.00842" lon="1.33803">
        <ele>438.5</ele>
        <time>2021-06-29T13:20:38Z</time>
      </trkpt>
      <trkpt lat="46.0064" lon="1.33769">
        <ele>445.71</ele>
        <time>2021-06-29T13:20:46Z</time>
      </trkpt>
      <trkpt lat="46.00302" lon="1.33801">
        <ele>446.19</ele>
        <time>2021-06-29T13:20:59Z</time>
      </trkpt>
      <trkpt lat="45.99919" lon="1.33826">
        <ele>438.02</ele>
        <time>2021-06-29T13:21:14Z</time>
      </trkpt>
      <trkpt lat="45.99783" lon="1.33766">
        <ele>435.13</ele>
        <time>2021-06-29T13:21:21Z</time>
      </trkpt>
      <trkpt lat="45.99476" lon="1.33575">
        <ele>435.13</ele>
        <time>2021-06-29T13:21:34Z</time>
      </trkpt>
      <trkpt lat="45.99375" lon="1.33452">
        <ele>434.17</ele>
        <time>2021-06-29T13:21:41Z</time>
      </trkpt>
      <trkpt lat="45.99297" lon="1.33261">
        <ele>432.73</ele>
        <time>2021-06-29T13:21:48Z</time>
      </trkpt>
      <trkpt lat="45.99236" lon="1.32955">
        <ele>435.13</ele>
        <time>2021-06-29T13:21:58Z</time>
      </trkpt>
      <trkpt lat="45.99155" lon="1.32753">
        <ele>434.17</ele>
        <time>2021-06-29T13:22:05Z</time>
      </trkpt>
      <trkpt lat="45.99036" lon="1.32599">
        <ele>427.44</ele>
        <time>2021-06-29T13:22:12Z</time>
      </trkpt>
      <trkpt lat="45.9889" lon="1.32506">
        <ele>424.08</ele>
        <time>2021-06-29T13:22:19Z</time>
      </trkpt>
      <trkpt lat="45.98723" lon="1.32486">
        <ele>421.19</ele>
        <time>2021-06-29T13:22:26Z</time>
      </trkpt>
      <trkpt lat="45.98509" lon="1.32544">
        <ele>421.19</ele>
        <time>2021-06-29T13:22:35Z</time>
      </trkpt>
      <trkpt lat="45.98216" lon="1.32616">
        <ele>422.16</ele>
        <time>2021-06-29T13:22:48Z</time>
      </trkpt>
      <trkpt lat="45.98005" lon="1.32592">
        <ele>424.56</ele>
        <time>2021-06-29T13:22:57Z</time>
      </trkpt>
      <trkpt lat="45.97842" lon="1.32519">
        <ele>426</ele>
        <time>2021-06-29T13:23:04Z</time>
      </trkpt>
      <trkpt lat="45.97593" lon="1.32329">
        <ele>426.96</ele>
        <time>2021-06-29T13:23:14Z</time>
      </trkpt>
      <trkpt lat="45.97354" lon="1.32161">
        <ele>432.73</ele>
        <time>2021-06-29T13:23:25Z</time>
      </trkpt>
      <trkpt lat="45.97145" lon="1.32096">
        <ele>438.02</ele>
        <time>2021-06-29T13:23:33Z</time>
      </trkpt>
      <trkpt lat="45.96796" lon="1.3203">
        <ele>444.27</ele>
        <time>2021-06-29T13:23:46Z</time>
      </trkpt>
      <trkpt lat="45.96514" lon="1.31914">
        <ele>443.79</ele>
        <time>2021-06-29T13:23:57Z</time>
      </trkpt>
      <trkpt lat="45.96273" lon="1.3184">
        <ele>442.82</ele>
        <time>2021-06-29T13:24:07Z</time>
      </trkpt>
      <trkpt lat="45.96041" lon="1.31838">
        <ele>439.46</ele>
        <time>2021-06-29T13:24:17Z</time>
      </trkpt>
      <trkpt lat="45.95821" lon="1.31865">
        <ele>445.71</ele>
        <time>2021-06-29T13:24:27Z</time>
      </trkpt>
      <trkpt lat="45.95642" lon="1.31822">
        <ele>449.07</ele>
        <time>2021-06-29T13:24:35Z</time>
      </trkpt>
      <trkpt lat="45.9545" lon="1.31692">
        <ele>447.63</ele>
        <time>2021-06-29T13:24:44Z</time>
      </trkpt>
      <trkpt lat="45.95226" lon="1.31574">
        <ele>446.67</ele>
        <time>2021-06-29T13:24:54Z</time>
      </trkpt>
      <trkpt lat="45.9497" lon="1.31507">
        <ele>432.25</ele>
        <time>2021-06-29T13:25:05Z</time>
      </trkpt>
      <trkpt lat="45.94813" lon="1.31432">
        <ele>426</ele>
        <time>2021-06-29T13:25:12Z</time>
      </trkpt>
      <trkpt lat="45.94632" lon="1.31247">
        <ele>416.39</ele>
        <time>2021-06-29T13:25:20Z</time>
      </trkpt>
      <trkpt lat="45.94361" lon="1.30913">
        <ele>403.89</ele>
        <time>2021-06-29T13:25:35Z</time>
      </trkpt>
      <trkpt lat="45.94131" lon="1.30641">
        <ele>402.45</ele>
        <time>2021-06-29T13:25:46Z</time>
      </trkpt>
      <trkpt lat="45.9397" lon="1.30521">
        <ele>399.57</ele>
        <time>2021-06-29T13:25:53Z</time>
      </trkpt>
      <trkpt lat="45.93747" lon="1.30448">
        <ele>392.84</ele>
        <time>2021-06-29T13:26:01Z</time>
      </trkpt>
      <trkpt lat="45.93522" lon="1.30397">
        <ele>385.63</ele>
        <time>2021-06-29T13:26:11Z</time>
      </trkpt>
      <trkpt lat="45.9322" lon="1.30308">
        <ele>374.09</ele>
        <time>2021-06-29T13:26:22Z</time>
      </trkpt>
      <trkpt lat="45.93036" lon="1.30324">
        <ele>364.48</ele>
        <time>2021-06-29T13:26:30Z</time>
      </trkpt>
      <trkpt lat="45.92811" lon="1.30341">
        <ele>357.27</ele>
        <time>2021-06-29T13:26:39Z</time>
      </trkpt>
      <trkpt lat="45.9261" lon="1.30287">
        <ele>351.5</ele>
        <time>2021-06-29T13:26:47Z</time>
      </trkpt>
      <trkpt lat="45.92426" lon="1.30163">
        <ele>351.5</ele>
        <time>2021-06-29T13:26:55Z</time>
      </trkpt>
      <trkpt lat="45.91949" lon="1.29773">
        <ele>354.86</ele>
        <time>2021-06-29T13:27:16Z</time>
      </trkpt>
      <trkpt lat="45.91578" lon="1.29474">
        <ele>354.86</ele>
        <time>2021-06-29T13:27:32Z</time>
      </trkpt>
      <trkpt lat="45.91279" lon="1.29297">
        <ele>347.65</ele>
        <time>2021-06-29T13:27:44Z</time>
      </trkpt>
      <trkpt lat="45.90989" lon="1.29197">
        <ele>339</ele>
        <time>2021-06-29T13:27:55Z</time>
      </trkpt>
      <trkpt lat="45.9069" lon="1.2916">
        <ele>331.79</ele>
        <time>2021-06-29T13:28:06Z</time>
      </trkpt>
      <trkpt lat="45.90266" lon="1.29184">
        <ele>322.66</ele>
        <time>2021-06-29T13:28:21Z</time>
      </trkpt>
      <trkpt lat="45.89862" lon="1.29212">
        <ele>322.18</ele>
        <time>2021-06-29T13:28:38Z</time>
      </trkpt>
      <trkpt lat="45.89659" lon="1.29221">
        <ele>321.22</ele>
        <time>2021-06-29T13:28:48Z</time>
      </trkpt>
      <trkpt lat="45.89503" lon="1.29211">
        <ele>325.54</ele>
        <time>2021-06-29T13:28:58Z</time>
      </trkpt>
      <trkpt lat="45.89412" lon="1.29199">
        <ele>328.91</ele>
        <time>2021-06-29T13:29:07Z</time>
      </trkpt>
      <trkpt lat="45.89406" lon="1.29195">
        <ele>329.39</ele>
        <time>2021-06-29T13:29:08Z</time>
      </trkpt>
      <trkpt lat="45.894" lon="1.2919">
        <ele>329.39</ele>
        <time>2021-06-29T13:29:09Z</time>
      </trkpt>
      <trkpt lat="45.89382" lon="1.29167">
        <ele>329.87</ele>
        <time>2021-06-29T13:29:16Z</time>
      </trkpt>
      <trkpt lat="45.89377" lon="1.29141">
        <ele>329.39</ele>
        <time>2021-06-29T13:29:28Z</time>
      </trkpt>
      <trkpt lat="45.89372" lon="1.29133">
        <ele>328.91</ele>
        <time>2021-06-29T13:29:29Z</time>
      </trkpt>
      <trkpt lat="45.89369" lon="1.2913">
        <ele>328.91</ele>
        <time>2021-06-29T13:29:30Z</time>
      </trkpt>
      <trkpt lat="45.89359" lon="1.29129">
        <ele>328.43</ele>
        <time>2021-06-29T13:29:31Z</time>
      </trkpt>
      <trkpt lat="45.89352" lon="1.29128">
        <ele>328.43</ele>
        <time>2021-06-29T13:29:32Z</time>
      </trkpt>
      <trkpt lat="45.89345" lon="1.29128">
        <ele>327.95</ele>
        <time>2021-06-29T13:29:33Z</time>
      </trkpt>
      <trkpt lat="45.89339" lon="1.29126">
        <ele>327.47</ele>
        <time>2021-06-29T13:29:34Z</time>
      </trkpt>
      <trkpt lat="45.89332" lon="1.29125">
        <ele>326.99</ele>
        <time>2021-06-29T13:29:35Z</time>
      </trkpt>
      <trkpt lat="45.89324" lon="1.29122">
        <ele>326.5</ele>
        <time>2021-06-29T13:29:36Z</time>
      </trkpt>
      <trkpt lat="45.89318" lon="1.29116">
        <ele>326.02</ele>
        <time>2021-06-29T13:29:37Z</time>
      </trkpt>
      <trkpt lat="45.89251" lon="1.29032">
        <ele>320.26</ele>
        <time>2021-06-29T13:29:45Z</time>
      </trkpt>
      <trkpt lat="45.89189" lon="1.28888">
        <ele>317.85</ele>
        <time>2021-06-29T13:29:53Z</time>
      </trkpt>
      <trkpt lat="45.89154" lon="1.28677">
        <ele>318.33</ele>
        <time>2021-06-29T13:30:02Z</time>
      </trkpt>
      <trkpt lat="45.89134" lon="1.28401">
        <ele>327.47</ele>
        <time>2021-06-29T13:30:14Z</time>
      </trkpt>
      <trkpt lat="45.89119" lon="1.28182">
        <ele>330.83</ele>
        <time>2021-06-29T13:30:26Z</time>
      </trkpt>
      <trkpt lat="45.89122" lon="1.28119">
        <ele>330.35</ele>
        <time>2021-06-29T13:30:33Z</time>
      </trkpt>
      <trkpt lat="45.89127" lon="1.2811">
        <ele>329.87</ele>
        <time>2021-06-29T13:30:38Z</time>
      </trkpt>
      <trkpt lat="45.89133" lon="1.281">
        <ele>330.35</ele>
        <time>2021-06-29T13:30:40Z</time>
      </trkpt>
      <trkpt lat="45.89137" lon="1.28094">
        <ele>330.35</ele>
        <time>2021-06-29T13:30:41Z</time>
      </trkpt>
      <trkpt lat="45.8914" lon="1.28077">
        <ele>330.35</ele>
        <time>2021-06-29T13:30:42Z</time>
      </trkpt>
      <trkpt lat="45.89141" lon="1.28066">
        <ele>330.83</ele>
        <time>2021-06-29T13:30:43Z</time>
      </trkpt>
      <trkpt lat="45.89141" lon="1.28066">
        <ele>331.79</ele>
        <time>2021-06-29T13:30:44Z</time>
      </trkpt>
      <trkpt lat="45.8914" lon="1.28056">
        <ele>331.79</ele>
        <time>2021-06-29T13:30:45Z</time>
      </trkpt>
      <trkpt lat="45.89137" lon="1.28045">
        <ele>332.27</ele>
        <time>2021-06-29T13:30:46Z</time>
      </trkpt>
      <trkpt lat="45.89133" lon="1.28037">
        <ele>331.79</ele>
        <time>2021-06-29T13:30:47Z</time>
      </trkpt>
      <trkpt lat="45.89126" lon="1.2803">
        <ele>331.79</ele>
        <time>2021-06-29T13:30:48Z</time>
      </trkpt>
      <trkpt lat="45.8912" lon="1.28023">
        <ele>331.31</ele>
        <time>2021-06-29T13:30:49Z</time>
      </trkpt>
      <trkpt lat="45.89114" lon="1.28017">
        <ele>330.83</ele>
        <time>2021-06-29T13:30:50Z</time>
      </trkpt>
      <trkpt lat="45.89112" lon="1.28004">
        <ele>330.83</ele>
        <time>2021-06-29T13:30:51Z</time>
      </trkpt>
      <trkpt lat="45.8911" lon="1.27994">
        <ele>331.79</ele>
        <time>2021-06-29T13:30:52Z</time>
      </trkpt>
      <trkpt lat="45.89107" lon="1.27981">
        <ele>332.75</ele>
        <time>2021-06-29T13:30:53Z</time>
      </trkpt>
      <trkpt lat="45.89089" lon="1.27832">
        <ele>338.52</ele>
        <time>2021-06-29T13:31:01Z</time>
      </trkpt>
      <trkpt lat="45.89068" lon="1.27575">
        <ele>342.37</ele>
        <time>2021-06-29T13:31:11Z</time>
      </trkpt>
      <trkpt lat="45.89028" lon="1.27045">
        <ele>345.25</ele>
        <time>2021-06-29T13:31:30Z</time>
      </trkpt>
      <trkpt lat="45.89035" lon="1.26763">
        <ele>347.65</ele>
        <time>2021-06-29T13:31:40Z</time>
      </trkpt>
      <trkpt lat="45.89072" lon="1.26383">
        <ele>347.17</ele>
        <time>2021-06-29T13:31:53Z</time>
      </trkpt>
      <trkpt lat="45.89117" lon="1.25962">
        <ele>347.65</ele>
        <time>2021-06-29T13:32:10Z</time>
      </trkpt>
      <trkpt lat="45.89162" lon="1.2553">
        <ele>350.54</ele>
        <time>2021-06-29T13:32:27Z</time>
      </trkpt>
      <trkpt lat="45.89214" lon="1.25232">
        <ele>349.1</ele>
        <time>2021-06-29T13:32:39Z</time>
      </trkpt>
      <trkpt lat="45.89302" lon="1.25038">
        <ele>349.58</ele>
        <time>2021-06-29T13:32:48Z</time>
      </trkpt>
      <trkpt lat="45.89447" lon="1.24843">
        <ele>350.54</ele>
        <time>2021-06-29T13:32:59Z</time>
      </trkpt>
      <trkpt lat="45.89615" lon="1.24603">
        <ele>350.54</ele>
        <time>2021-06-29T13:33:12Z</time>
      </trkpt>
      <trkpt lat="45.89718" lon="1.24367">
        <ele>351.98</ele>
        <time>2021-06-29T13:33:23Z</time>
      </trkpt>
      <trkpt lat="45.89898" lon="1.23906">
        <ele>360.15</ele>
        <time>2021-06-29T13:33:43Z</time>
      </trkpt>
      <trkpt lat="45.90078" lon="1.23455">
        <ele>365.44</ele>
        <time>2021-06-29T13:34:03Z</time>
      </trkpt>
      <trkpt lat="45.90167" lon="1.23217">
        <ele>370.24</ele>
        <time>2021-06-29T13:34:14Z</time>
      </trkpt>
      <trkpt lat="45.90194" lon="1.23011">
        <ele>375.05</ele>
        <time>2021-06-29T13:34:23Z</time>
      </trkpt>
      <trkpt lat="45.90172" lon="1.22818">
        <ele>379.86</ele>
        <time>2021-06-29T13:34:31Z</time>
      </trkpt>
      <trkpt lat="45.90094" lon="1.22574">
        <ele>384.18</ele>
        <time>2021-06-29T13:34:41Z</time>
      </trkpt>
      <trkpt lat="45.90002" lon="1.2237">
        <ele>386.59</ele>
        <time>2021-06-29T13:34:50Z</time>
      </trkpt>
      <trkpt lat="45.89869" lon="1.22207">
        <ele>390.91</ele>
        <time>2021-06-29T13:34:59Z</time>
      </trkpt>
      <trkpt lat="45.89576" lon="1.21947">
        <ele>393.32</ele>
        <time>2021-06-29T13:35:17Z</time>
      </trkpt>
      <trkpt lat="45.89263" lon="1.21663">
        <ele>386.59</ele>
        <time>2021-06-29T13:35:35Z</time>
      </trkpt>
      <trkpt lat="45.89047" lon="1.21466">
        <ele>384.18</ele>
        <time>2021-06-29T13:35:48Z</time>
      </trkpt>
      <trkpt lat="45.888" lon="1.21216">
        <ele>377.94</ele>
        <time>2021-06-29T13:36:04Z</time>
      </trkpt>
      <trkpt lat="45.88688" lon="1.2102">
        <ele>377.94</ele>
        <time>2021-06-29T13:36:13Z</time>
      </trkpt>
      <trkpt lat="45.88614" lon="1.20772">
        <ele>383.7</ele>
        <time>2021-06-29T13:36:23Z</time>
      </trkpt>
      <trkpt lat="45.88557" lon="1.20418">
        <ele>388.51</ele>
        <time>2021-06-29T13:36:36Z</time>
      </trkpt>
      <trkpt lat="45.8849" lon="1.19965">
        <ele>393.8</ele>
        <time>2021-06-29T13:36:53Z</time>
      </trkpt>
      <trkpt lat="45.88398" lon="1.19341">
        <ele>400.05</ele>
        <time>2021-06-29T13:37:16Z</time>
      </trkpt>
      <trkpt lat="45.88334" lon="1.18918">
        <ele>398.6</ele>
        <time>2021-06-29T13:37:32Z</time>
      </trkpt>
      <trkpt lat="45.88272" lon="1.18607">
        <ele>395.24</ele>
        <time>2021-06-29T13:37:44Z</time>
      </trkpt>
      <trkpt lat="45.88173" lon="1.18267">
        <ele>395.72</ele>
        <time>2021-06-29T13:37:58Z</time>
      </trkpt>
      <trkpt lat="45.88055" lon="1.179">
        <ele>411.1</ele>
        <time>2021-06-29T13:38:14Z</time>
      </trkpt>
      <trkpt lat="45.88015" lon="1.17615">
        <ele>413.5</ele>
        <time>2021-06-29T13:38:24Z</time>
      </trkpt>
      <trkpt lat="45.88016" lon="1.17355">
        <ele>412.06</ele>
        <time>2021-06-29T13:38:34Z</time>
      </trkpt>
      <trkpt lat="45.88025" lon="1.17017">
        <ele>405.81</ele>
        <time>2021-06-29T13:38:46Z</time>
      </trkpt>
      <trkpt lat="45.87988" lon="1.16772">
        <ele>401.97</ele>
        <time>2021-06-29T13:38:54Z</time>
      </trkpt>
      <trkpt lat="45.87916" lon="1.16584">
        <ele>398.12</ele>
        <time>2021-06-29T13:39:03Z</time>
      </trkpt>
      <trkpt lat="45.87805" lon="1.16432">
        <ele>394.76</ele>
        <time>2021-06-29T13:39:11Z</time>
      </trkpt>
      <trkpt lat="45.87652" lon="1.16319">
        <ele>390.43</ele>
        <time>2021-06-29T13:39:20Z</time>
      </trkpt>
      <trkpt lat="45.87496" lon="1.16279">
        <ele>388.99</ele>
        <time>2021-06-29T13:39:28Z</time>
      </trkpt>
      <trkpt lat="45.87354" lon="1.16302">
        <ele>386.11</ele>
        <time>2021-06-29T13:39:36Z</time>
      </trkpt>
      <trkpt lat="45.87147" lon="1.16405">
        <ele>378.9</ele>
        <time>2021-06-29T13:39:48Z</time>
      </trkpt>
      <trkpt lat="45.86901" lon="1.16525">
        <ele>379.86</ele>
        <time>2021-06-29T13:40:03Z</time>
      </trkpt>
      <trkpt lat="45.86734" lon="1.1656">
        <ele>383.7</ele>
        <time>2021-06-29T13:40:14Z</time>
      </trkpt>
      <trkpt lat="45.86695" lon="1.16562">
        <ele>383.22</ele>
        <time>2021-06-29T13:40:17Z</time>
      </trkpt>
      <trkpt lat="45.86683" lon="1.16562">
        <ele>383.22</ele>
        <time>2021-06-29T13:40:18Z</time>
      </trkpt>
      <trkpt lat="45.86673" lon="1.16561">
        <ele>384.18</ele>
        <time>2021-06-29T13:40:19Z</time>
      </trkpt>
      <trkpt lat="45.86669" lon="1.16533">
        <ele>385.63</ele>
        <time>2021-06-29T13:40:20Z</time>
      </trkpt>
      <trkpt lat="45.86663" lon="1.16526">
        <ele>386.11</ele>
        <time>2021-06-29T13:40:21Z</time>
      </trkpt>
      <trkpt lat="45.86655" lon="1.16514">
        <ele>385.63</ele>
        <time>2021-06-29T13:40:22Z</time>
      </trkpt>
      <trkpt lat="45.86616" lon="1.16452">
        <ele>385.15</ele>
        <time>2021-06-29T13:40:27Z</time>
      </trkpt>
      <trkpt lat="45.86607" lon="1.16444">
        <ele>383.7</ele>
        <time>2021-06-29T13:40:28Z</time>
      </trkpt>
      <trkpt lat="45.86598" lon="1.16435">
        <ele>382.74</ele>
        <time>2021-06-29T13:40:29Z</time>
      </trkpt>
      <trkpt lat="45.86589" lon="1.16429">
        <ele>381.78</ele>
        <time>2021-06-29T13:40:30Z</time>
      </trkpt>
      <trkpt lat="45.86582" lon="1.16425">
        <ele>381.78</ele>
        <time>2021-06-29T13:40:31Z</time>
      </trkpt>
      <trkpt lat="45.86573" lon="1.16426">
        <ele>382.26</ele>
        <time>2021-06-29T13:40:32Z</time>
      </trkpt>
      <trkpt lat="45.86566" lon="1.16427">
        <ele>381.78</ele>
        <time>2021-06-29T13:40:33Z</time>
      </trkpt>
      <trkpt lat="45.8656" lon="1.16428">
        <ele>381.78</ele>
        <time>2021-06-29T13:40:34Z</time>
      </trkpt>
      <trkpt lat="45.8653" lon="1.16432">
        <ele>381.78</ele>
        <time>2021-06-29T13:40:46Z</time>
      </trkpt>
      <trkpt lat="45.86488" lon="1.16438">
        <ele>382.74</ele>
        <time>2021-06-29T13:40:57Z</time>
      </trkpt>
      <trkpt lat="45.86462" lon="1.16442">
        <ele>383.22</ele>
        <time>2021-06-29T13:41:06Z</time>
      </trkpt>
      <trkpt lat="45.86462" lon="1.16442">
        <ele>383.7</ele>
        <time>2021-06-29T13:41:07Z</time>
      </trkpt>
      <trkpt lat="45.86461" lon="1.16447">
        <ele>383.7</ele>
        <time>2021-06-29T13:41:08Z</time>
      </trkpt>
      <trkpt lat="45.86455" lon="1.16531">
        <ele>383.7</ele>
        <time>2021-06-29T13:41:16Z</time>
      </trkpt>
      <trkpt lat="45.86436" lon="1.16683">
        <ele>387.55</ele>
        <time>2021-06-29T13:41:24Z</time>
      </trkpt>
      <trkpt lat="45.86374" lon="1.16916">
        <ele>392.36</ele>
        <time>2021-06-29T13:41:34Z</time>
      </trkpt>
      <trkpt lat="45.86257" lon="1.17232">
        <ele>399.57</ele>
        <time>2021-06-29T13:41:48Z</time>
      </trkpt>
      <trkpt lat="45.86217" lon="1.17339">
        <ele>401.97</ele>
        <time>2021-06-29T13:41:55Z</time>
      </trkpt>
      <trkpt lat="45.86213" lon="1.17348">
        <ele>401.97</ele>
        <time>2021-06-29T13:41:56Z</time>
      </trkpt>
      <trkpt lat="45.86211" lon="1.17355">
        <ele>402.45</ele>
        <time>2021-06-29T13:41:57Z</time>
      </trkpt>
      <trkpt lat="45.86201" lon="1.17353">
        <ele>401.49</ele>
        <time>2021-06-29T13:41:58Z</time>
      </trkpt>
      <trkpt lat="45.86188" lon="1.1736">
        <ele>401.49</ele>
        <time>2021-06-29T13:41:59Z</time>
      </trkpt>
      <trkpt lat="45.86188" lon="1.1736">
        <ele>401.01</ele>
        <time>2021-06-29T13:42:00Z</time>
      </trkpt>
      <trkpt lat="45.86182" lon="1.17354">
        <ele>400.05</ele>
        <time>2021-06-29T13:42:01Z</time>
      </trkpt>
      <trkpt lat="45.86175" lon="1.17348">
        <ele>399.08</ele>
        <time>2021-06-29T13:42:02Z</time>
      </trkpt>
      <trkpt lat="45.86167" lon="1.17341">
        <ele>397.64</ele>
        <time>2021-06-29T13:42:03Z</time>
      </trkpt>
      <trkpt lat="45.86081" lon="1.17254">
        <ele>391.39</ele>
        <time>2021-06-29T13:42:10Z</time>
      </trkpt>
      <trkpt lat="45.8591" lon="1.17088">
        <ele>381.3</ele>
        <time>2021-06-29T13:42:20Z</time>
      </trkpt>
      <trkpt lat="45.85553" lon="1.16737">
        <ele>364</ele>
        <time>2021-06-29T13:42:40Z</time>
      </trkpt>
      <trkpt lat="45.85348" lon="1.16533">
        <ele>369.28</ele>
        <time>2021-06-29T13:42:52Z</time>
      </trkpt>
      <trkpt lat="45.85207" lon="1.1637">
        <ele>359.67</ele>
        <time>2021-06-29T13:43:02Z</time>
      </trkpt>
      <trkpt lat="45.85177" lon="1.16291">
        <ele>356.31</ele>
        <time>2021-06-29T13:43:09Z</time>
      </trkpt>
      <trkpt lat="45.85168" lon="1.16261">
        <ele>355.34</ele>
        <time>2021-06-29T13:43:12Z</time>
      </trkpt>
      <trkpt lat="45.85168" lon="1.16249">
        <ele>354.38</ele>
        <time>2021-06-29T13:43:13Z</time>
      </trkpt>
      <trkpt lat="45.85168" lon="1.16238">
        <ele>353.42</ele>
        <time>2021-06-29T13:43:14Z</time>
      </trkpt>
      <trkpt lat="45.85168" lon="1.16227">
        <ele>352.94</ele>
        <time>2021-06-29T13:43:15Z</time>
      </trkpt>
      <trkpt lat="45.8517" lon="1.16214">
        <ele>351.98</ele>
        <time>2021-06-29T13:43:16Z</time>
      </trkpt>
      <trkpt lat="45.85185" lon="1.16157">
        <ele>349.58</ele>
        <time>2021-06-29T13:43:20Z</time>
      </trkpt>
      <trkpt lat="45.85188" lon="1.16141">
        <ele>348.62</ele>
        <time>2021-06-29T13:43:21Z</time>
      </trkpt>
      <trkpt lat="45.85189" lon="1.16125">
        <ele>347.65</ele>
        <time>2021-06-29T13:43:22Z</time>
      </trkpt>
      <trkpt lat="45.85189" lon="1.16107">
        <ele>346.69</ele>
        <time>2021-06-29T13:43:23Z</time>
      </trkpt>
      <trkpt lat="45.85187" lon="1.16091">
        <ele>345.73</ele>
        <time>2021-06-29T13:43:24Z</time>
      </trkpt>
      <trkpt lat="45.85178" lon="1.16061">
        <ele>345.25</ele>
        <time>2021-06-29T13:43:25Z</time>
      </trkpt>
      <trkpt lat="45.85178" lon="1.16061">
        <ele>344.29</ele>
        <time>2021-06-29T13:43:26Z</time>
      </trkpt>
      <trkpt lat="45.85161" lon="1.16017">
        <ele>342.85</ele>
        <time>2021-06-29T13:43:30Z</time>
      </trkpt>
      <trkpt lat="45.85154" lon="1.16002">
        <ele>342.37</ele>
        <time>2021-06-29T13:43:31Z</time>
      </trkpt>
      <trkpt lat="45.85153" lon="1.1598">
        <ele>341.41</ele>
        <time>2021-06-29T13:43:32Z</time>
      </trkpt>
      <trkpt lat="45.85153" lon="1.1598">
        <ele>340.44</ele>
        <time>2021-06-29T13:43:33Z</time>
      </trkpt>
      <trkpt lat="45.85159" lon="1.15966">
        <ele>339.96</ele>
        <time>2021-06-29T13:43:34Z</time>
      </trkpt>
      <trkpt lat="45.85163" lon="1.15946">
        <ele>339</ele>
        <time>2021-06-29T13:43:35Z</time>
      </trkpt>
      <trkpt lat="45.85163" lon="1.15946">
        <ele>338.04</ele>
        <time>2021-06-29T13:43:36Z</time>
      </trkpt>
      <trkpt lat="45.85166" lon="1.15932">
        <ele>338.04</ele>
        <time>2021-06-29T13:43:37Z</time>
      </trkpt>
      <trkpt lat="45.8522" lon="1.15818">
        <ele>332.75</ele>
        <time>2021-06-29T13:43:44Z</time>
      </trkpt>
      <trkpt lat="45.85337" lon="1.15598">
        <ele>332.75</ele>
        <time>2021-06-29T13:43:54Z</time>
      </trkpt>
      <trkpt lat="45.85493" lon="1.15311">
        <ele>334.68</ele>
        <time>2021-06-29T13:44:06Z</time>
      </trkpt>
      <trkpt lat="45.85706" lon="1.14912">
        <ele>338.04</ele>
        <time>2021-06-29T13:44:22Z</time>
      </trkpt>
      <trkpt lat="45.85788" lon="1.14746">
        <ele>342.85</ele>
        <time>2021-06-29T13:44:29Z</time>
      </trkpt>
      <trkpt lat="45.85788" lon="1.14746">
        <ele>343.33</ele>
        <time>2021-06-29T13:44:30Z</time>
      </trkpt>
      <trkpt lat="45.85791" lon="1.14705">
        <ele>341.89</ele>
        <time>2021-06-29T13:44:31Z</time>
      </trkpt>
      <trkpt lat="45.85792" lon="1.14684">
        <ele>341.41</ele>
        <time>2021-06-29T13:44:32Z</time>
      </trkpt>
      <trkpt lat="45.85792" lon="1.14684">
        <ele>340.92</ele>
        <time>2021-06-29T13:44:33Z</time>
      </trkpt>
      <trkpt lat="45.85791" lon="1.14661">
        <ele>340.44</ele>
        <time>2021-06-29T13:44:34Z</time>
      </trkpt>
      <trkpt lat="45.85784" lon="1.14542">
        <ele>341.89</ele>
        <time>2021-06-29T13:44:41Z</time>
      </trkpt>
      <trkpt lat="45.85784" lon="1.14528">
        <ele>342.37</ele>
        <time>2021-06-29T13:44:42Z</time>
      </trkpt>
      <trkpt lat="45.85795" lon="1.14524">
        <ele>342.37</ele>
        <time>2021-06-29T13:44:43Z</time>
      </trkpt>
      <trkpt lat="45.85799" lon="1.14522">
        <ele>342.37</ele>
        <time>2021-06-29T13:44:44Z</time>
      </trkpt>
      <trkpt lat="45.85799" lon="1.14522">
        <ele>341.89</ele>
        <time>2021-06-29T13:44:45Z</time>
      </trkpt>
      <trkpt lat="45.85799" lon="1.14522">
        <ele>342.37</ele>
        <time>2021-06-29T13:44:46Z</time>
      </trkpt>
      <trkpt lat="45.8581" lon="1.14515">
        <ele>342.85</ele>
        <time>2021-06-29T13:44:47Z</time>
      </trkpt>
      <trkpt lat="45.85825" lon="1.14522">
        <ele>343.33</ele>
        <time>2021-06-29T13:44:48Z</time>
      </trkpt>
      <trkpt lat="45.85831" lon="1.14526">
        <ele>344.29</ele>
        <time>2021-06-29T13:44:49Z</time>
      </trkpt>
      <trkpt lat="45.85887" lon="1.14556">
        <ele>349.1</ele>
        <time>2021-06-29T13:45:01Z</time>
      </trkpt>
      <trkpt lat="45.85899" lon="1.14563">
        <ele>350.06</ele>
        <time>2021-06-29T13:45:04Z</time>
      </trkpt>
      <trkpt lat="45.85903" lon="1.14566">
        <ele>350.54</ele>
        <time>2021-06-29T13:45:05Z</time>
      </trkpt>
      <trkpt lat="45.85907" lon="1.14568">
        <ele>351.02</ele>
        <time>2021-06-29T13:45:06Z</time>
      </trkpt>
      <trkpt lat="45.85914" lon="1.14562">
        <ele>351.02</ele>
        <time>2021-06-29T13:45:07Z</time>
      </trkpt>
      <trkpt lat="45.85916" lon="1.14555">
        <ele>351.5</ele>
        <time>2021-06-29T13:45:08Z</time>
      </trkpt>
      <trkpt lat="45.85918" lon="1.14547">
        <ele>351.5</ele>
        <time>2021-06-29T13:45:09Z</time>
      </trkpt>
      <trkpt lat="45.85918" lon="1.14547">
        <ele>351.5</ele>
        <time>2021-06-29T13:45:10Z</time>
      </trkpt>
      <trkpt lat="45.85942" lon="1.14438">
        <ele>343.81</ele>
        <time>2021-06-29T13:45:17Z</time>
      </trkpt>
      <trkpt lat="45.85987" lon="1.14273">
        <ele>342.37</ele>
        <time>2021-06-29T13:45:24Z</time>
      </trkpt>
      <trkpt lat="45.861" lon="1.14041">
        <ele>335.16</ele>
        <time>2021-06-29T13:45:33Z</time>
      </trkpt>
      <trkpt lat="45.86258" lon="1.13797">
        <ele>326.5</ele>
        <time>2021-06-29T13:45:43Z</time>
      </trkpt>
      <trkpt lat="45.86397" lon="1.13546">
        <ele>319.3</ele>
        <time>2021-06-29T13:45:52Z</time>
      </trkpt>
      <trkpt lat="45.86478" lon="1.13281">
        <ele>314.49</ele>
        <time>2021-06-29T13:46:00Z</time>
      </trkpt>
      <trkpt lat="45.86526" lon="1.12921">
        <ele>308.72</ele>
        <time>2021-06-29T13:46:10Z</time>
      </trkpt>
      <trkpt lat="45.86598" lon="1.12417">
        <ele>306.32</ele>
        <time>2021-06-29T13:46:24Z</time>
      </trkpt>
      <trkpt lat="45.86683" lon="1.12203">
        <ele>304.88</ele>
        <time>2021-06-29T13:46:31Z</time>
      </trkpt>
      <trkpt lat="45.8681" lon="1.12029">
        <ele>302.47</ele>
        <time>2021-06-29T13:46:38Z</time>
      </trkpt>
      <trkpt lat="45.87035" lon="1.11851">
        <ele>309.68</ele>
        <time>2021-06-29T13:46:48Z</time>
      </trkpt>
      <trkpt lat="45.87264" lon="1.11637">
        <ele>310.16</ele>
        <time>2021-06-29T13:46:59Z</time>
      </trkpt>
      <trkpt lat="45.87393" lon="1.1143">
        <ele>310.16</ele>
        <time>2021-06-29T13:47:07Z</time>
      </trkpt>
      <trkpt lat="45.8756" lon="1.11056">
        <ele>306.8</ele>
        <time>2021-06-29T13:47:19Z</time>
      </trkpt>
      <trkpt lat="45.87787" lon="1.10569">
        <ele>303.43</ele>
        <time>2021-06-29T13:47:34Z</time>
      </trkpt>
      <trkpt lat="45.87967" lon="1.10344">
        <ele>309.2</ele>
        <time>2021-06-29T13:47:43Z</time>
      </trkpt>
      <trkpt lat="45.88157" lon="1.10087">
        <ele>311.12</ele>
        <time>2021-06-29T13:47:53Z</time>
      </trkpt>
      <trkpt lat="45.88259" lon="1.09832">
        <ele>310.64</ele>
        <time>2021-06-29T13:48:01Z</time>
      </trkpt>
      <trkpt lat="45.88316" lon="1.09547">
        <ele>301.51</ele>
        <time>2021-06-29T13:48:09Z</time>
      </trkpt>
      <trkpt lat="45.88322" lon="1.0925">
        <ele>296.7</ele>
        <time>2021-06-29T13:48:17Z</time>
      </trkpt>
      <trkpt lat="45.88321" lon="1.08772">
        <ele>297.67</ele>
        <time>2021-06-29T13:48:30Z</time>
      </trkpt>
      <trkpt lat="45.88378" lon="1.08485">
        <ele>302.47</ele>
        <time>2021-06-29T13:48:38Z</time>
      </trkpt>
      <trkpt lat="45.88582" lon="1.07824">
        <ele>307.76</ele>
        <time>2021-06-29T13:48:57Z</time>
      </trkpt>
      <trkpt lat="45.8873" lon="1.07289">
        <ele>301.51</ele>
        <time>2021-06-29T13:49:12Z</time>
      </trkpt>
      <trkpt lat="45.88806" lon="1.06806">
        <ele>298.63</ele>
        <time>2021-06-29T13:49:25Z</time>
      </trkpt>
      <trkpt lat="45.88932" lon="1.05928">
        <ele>282.77</ele>
        <time>2021-06-29T13:49:48Z</time>
      </trkpt>
      <trkpt lat="45.89036" lon="1.05209">
        <ele>278.92</ele>
        <time>2021-06-29T13:50:07Z</time>
      </trkpt>
      <trkpt lat="45.8912" lon="1.04628">
        <ele>284.21</ele>
        <time>2021-06-29T13:50:23Z</time>
      </trkpt>
      <trkpt lat="45.8923" lon="1.03992">
        <ele>290.94</ele>
        <time>2021-06-29T13:50:40Z</time>
      </trkpt>
      <trkpt lat="45.89347" lon="1.03678">
        <ele>293.34</ele>
        <time>2021-06-29T13:50:49Z</time>
      </trkpt>
      <trkpt lat="45.89522" lon="1.03358">
        <ele>296.22</ele>
        <time>2021-06-29T13:50:59Z</time>
      </trkpt>
      <trkpt lat="45.8981" lon="1.0284">
        <ele>302.47</ele>
        <time>2021-06-29T13:51:15Z</time>
      </trkpt>
      <trkpt lat="45.90038" lon="1.02349">
        <ele>290.46</ele>
        <time>2021-06-29T13:51:30Z</time>
      </trkpt>
      <trkpt lat="45.90241" lon="1.01904">
        <ele>280.36</ele>
        <time>2021-06-29T13:51:45Z</time>
      </trkpt>
      <trkpt lat="45.90444" lon="1.01442">
        <ele>277.48</ele>
        <time>2021-06-29T13:52:01Z</time>
      </trkpt>
      <trkpt lat="45.9054" lon="1.01113">
        <ele>274.59</ele>
        <time>2021-06-29T13:52:11Z</time>
      </trkpt>
      <trkpt lat="45.90587" lon="1.00794">
        <ele>272.19</ele>
        <time>2021-06-29T13:52:20Z</time>
      </trkpt>
      <trkpt lat="45.90607" lon="1.00373">
        <ele>273.63</ele>
        <time>2021-06-29T13:52:31Z</time>
      </trkpt>
      <trkpt lat="45.90633" lon="0.9953">
        <ele>276.04</ele>
        <time>2021-06-29T13:52:52Z</time>
      </trkpt>
      <trkpt lat="45.90621" lon="0.99138">
        <ele>274.11</ele>
        <time>2021-06-29T13:53:02Z</time>
      </trkpt>
      <trkpt lat="45.90617" lon="0.98678">
        <ele>270.75</ele>
        <time>2021-06-29T13:53:14Z</time>
      </trkpt>
      <trkpt lat="45.90661" lon="0.98291">
        <ele>267.86</ele>
        <time>2021-06-29T13:53:24Z</time>
      </trkpt>
      <trkpt lat="45.90742" lon="0.97703">
        <ele>267.86</ele>
        <time>2021-06-29T13:53:39Z</time>
      </trkpt>
      <trkpt lat="45.90745" lon="0.97342">
        <ele>269.79</ele>
        <time>2021-06-29T13:53:48Z</time>
      </trkpt>
      <trkpt lat="45.90697" lon="0.96707">
        <ele>275.07</ele>
        <time>2021-06-29T13:54:04Z</time>
      </trkpt>
      <trkpt lat="45.90666" lon="0.96271">
        <ele>278.92</ele>
        <time>2021-06-29T13:54:15Z</time>
      </trkpt>
      <trkpt lat="45.90648" lon="0.95673">
        <ele>288.05</ele>
        <time>2021-06-29T13:54:30Z</time>
      </trkpt>
      <trkpt lat="45.90586" lon="0.94986">
        <ele>281.32</ele>
        <time>2021-06-29T13:54:48Z</time>
      </trkpt>
      <trkpt lat="45.90524" lon="0.94543">
        <ele>275.56</ele>
        <time>2021-06-29T13:55:00Z</time>
      </trkpt>
      <trkpt lat="45.9046" lon="0.9396">
        <ele>262.1</ele>
        <time>2021-06-29T13:55:16Z</time>
      </trkpt>
      <trkpt lat="45.90445" lon="0.93633">
        <ele>259.21</ele>
        <time>2021-06-29T13:55:25Z</time>
      </trkpt>
      <trkpt lat="45.9049" lon="0.9334">
        <ele>262.1</ele>
        <time>2021-06-29T13:55:33Z</time>
      </trkpt>
      <trkpt lat="45.90581" lon="0.93074">
        <ele>259.21</ele>
        <time>2021-06-29T13:55:41Z</time>
      </trkpt>
      <trkpt lat="45.90786" lon="0.92577">
        <ele>258.73</ele>
        <time>2021-06-29T13:55:56Z</time>
      </trkpt>
      <trkpt lat="45.90878" lon="0.92258">
        <ele>254.41</ele>
        <time>2021-06-29T13:56:05Z</time>
      </trkpt>
      <trkpt lat="45.90922" lon="0.9188">
        <ele>244.79</ele>
        <time>2021-06-29T13:56:14Z</time>
      </trkpt>
      <trkpt lat="45.90928" lon="0.91391">
        <ele>227.01</ele>
        <time>2021-06-29T13:56:28Z</time>
      </trkpt>
      <trkpt lat="45.9093" lon="0.90525">
        <ele>211.63</ele>
        <time>2021-06-29T13:56:51Z</time>
      </trkpt>
      <trkpt lat="45.90933" lon="0.89746">
        <ele>227.97</ele>
        <time>2021-06-29T13:57:12Z</time>
      </trkpt>
      <trkpt lat="45.90936" lon="0.88885">
        <ele>237.1</ele>
        <time>2021-06-29T13:57:35Z</time>
      </trkpt>
      <trkpt lat="45.90904" lon="0.88405">
        <ele>249.6</ele>
        <time>2021-06-29T13:57:48Z</time>
      </trkpt>
      <trkpt lat="45.90824" lon="0.87869">
        <ele>270.27</ele>
        <time>2021-06-29T13:58:04Z</time>
      </trkpt>
      <trkpt lat="45.90736" lon="0.87341">
        <ele>272.19</ele>
        <time>2021-06-29T13:58:20Z</time>
      </trkpt>
      <trkpt lat="45.90672" lon="0.86979">
        <ele>259.21</ele>
        <time>2021-06-29T13:58:31Z</time>
      </trkpt>
      <trkpt lat="45.90571" lon="0.86439">
        <ele>235.66</ele>
        <time>2021-06-29T13:58:47Z</time>
      </trkpt>
      <trkpt lat="45.90449" lon="0.85837">
        <ele>224.12</ele>
        <time>2021-06-29T13:59:04Z</time>
      </trkpt>
      <trkpt lat="45.90391" lon="0.8556">
        <ele>227.97</ele>
        <time>2021-06-29T13:59:15Z</time>
      </trkpt>
      <trkpt lat="45.90308" lon="0.85187">
        <ele>233.26</ele>
        <time>2021-06-29T13:59:28Z</time>
      </trkpt>
      <trkpt lat="45.90204" lon="0.84729">
        <ele>231.81</ele>
        <time>2021-06-29T13:59:42Z</time>
      </trkpt>
      <trkpt lat="45.89993" lon="0.83881">
        <ele>217.4</ele>
        <time>2021-06-29T14:00:06Z</time>
      </trkpt>
      <trkpt lat="45.8981" lon="0.83227">
        <ele>214.03</ele>
        <time>2021-06-29T14:00:24Z</time>
      </trkpt>
      <trkpt lat="45.8967" lon="0.82901">
        <ele>227.49</ele>
        <time>2021-06-29T14:00:36Z</time>
      </trkpt>
      <trkpt lat="45.8942" lon="0.82401">
        <ele>216.91</ele>
        <time>2021-06-29T14:00:53Z</time>
      </trkpt>
      <trkpt lat="45.89027" lon="0.81619">
        <ele>209.22</ele>
        <time>2021-06-29T14:01:19Z</time>
      </trkpt>
      <trkpt lat="45.88737" lon="0.81089">
        <ele>215.95</ele>
        <time>2021-06-29T14:01:37Z</time>
      </trkpt>
      <trkpt lat="45.88461" lon="0.80636">
        <ele>222.2</ele>
        <time>2021-06-29T14:01:53Z</time>
      </trkpt>
      <trkpt lat="45.8834" lon="0.8034">
        <ele>218.84</ele>
        <time>2021-06-29T14:02:02Z</time>
      </trkpt>
      <trkpt lat="45.88215" lon="0.79901">
        <ele>205.38</ele>
        <time>2021-06-29T14:02:13Z</time>
      </trkpt>
      <trkpt lat="45.88105" lon="0.79405">
        <ele>193.84</ele>
        <time>2021-06-29T14:02:27Z</time>
      </trkpt>
      <trkpt lat="45.88075" lon="0.79057">
        <ele>202.98</ele>
        <time>2021-06-29T14:02:36Z</time>
      </trkpt>
      <trkpt lat="45.88096" lon="0.7868">
        <ele>209.7</ele>
        <time>2021-06-29T14:02:46Z</time>
      </trkpt>
      <trkpt lat="45.88178" lon="0.78014">
        <ele>200.09</ele>
        <time>2021-06-29T14:03:03Z</time>
      </trkpt>
      <trkpt lat="45.8821" lon="0.77536">
        <ele>201.53</ele>
        <time>2021-06-29T14:03:15Z</time>
      </trkpt>
      <trkpt lat="45.88254" lon="0.76706">
        <ele>184.71</ele>
        <time>2021-06-29T14:03:36Z</time>
      </trkpt>
      <trkpt lat="45.88251" lon="0.76303">
        <ele>178.94</ele>
        <time>2021-06-29T14:03:46Z</time>
      </trkpt>
      <trkpt lat="45.88192" lon="0.75911">
        <ele>180.38</ele>
        <time>2021-06-29T14:03:55Z</time>
      </trkpt>
      <trkpt lat="45.88093" lon="0.75587">
        <ele>181.83</ele>
        <time>2021-06-29T14:04:05Z</time>
      </trkpt>
      <trkpt lat="45.87839" lon="0.74812">
        <ele>168.37</ele>
        <time>2021-06-29T14:04:27Z</time>
      </trkpt>
      <trkpt lat="45.87728" lon="0.74556">
        <ele>165</ele>
        <time>2021-06-29T14:04:35Z</time>
      </trkpt>
      <trkpt lat="45.87424" lon="0.74046">
        <ele>163.08</ele>
        <time>2021-06-29T14:04:53Z</time>
      </trkpt>
      <trkpt lat="45.87233" lon="0.73853">
        <ele>165</ele>
        <time>2021-06-29T14:05:01Z</time>
      </trkpt>
      <trkpt lat="45.87069" lon="0.73764">
        <ele>175.58</ele>
        <time>2021-06-29T14:05:09Z</time>
      </trkpt>
      <trkpt lat="45.86839" lon="0.73685">
        <ele>188.56</ele>
        <time>2021-06-29T14:05:19Z</time>
      </trkpt>
      <trkpt lat="45.86673" lon="0.73574">
        <ele>194.32</ele>
        <time>2021-06-29T14:05:27Z</time>
      </trkpt>
      <trkpt lat="45.86553" lon="0.73423">
        <ele>200.09</ele>
        <time>2021-06-29T14:05:34Z</time>
      </trkpt>
      <trkpt lat="45.86459" lon="0.73191">
        <ele>201.53</ele>
        <time>2021-06-29T14:05:41Z</time>
      </trkpt>
      <trkpt lat="45.86423" lon="0.72991">
        <ele>200.09</ele>
        <time>2021-06-29T14:05:48Z</time>
      </trkpt>
      <trkpt lat="45.86426" lon="0.72746">
        <ele>198.65</ele>
        <time>2021-06-29T14:05:55Z</time>
      </trkpt>
      <trkpt lat="45.86503" lon="0.72347">
        <ele>190.48</ele>
        <time>2021-06-29T14:06:06Z</time>
      </trkpt>
      <trkpt lat="45.86611" lon="0.71873">
        <ele>177.02</ele>
        <time>2021-06-29T14:06:20Z</time>
      </trkpt>
      <trkpt lat="45.86764" lon="0.71486">
        <ele>164.52</ele>
        <time>2021-06-29T14:06:32Z</time>
      </trkpt>
      <trkpt lat="45.86862" lon="0.71183">
        <ele>156.83</ele>
        <time>2021-06-29T14:06:41Z</time>
      </trkpt>
      <trkpt lat="45.86903" lon="0.7086">
        <ele>158.27</ele>
        <time>2021-06-29T14:06:50Z</time>
      </trkpt>
      <trkpt lat="45.86894" lon="0.7054">
        <ele>168.85</ele>
        <time>2021-06-29T14:06:59Z</time>
      </trkpt>
      <trkpt lat="45.86861" lon="0.70021">
        <ele>187.11</ele>
        <time>2021-06-29T14:07:15Z</time>
      </trkpt>
      <trkpt lat="45.86823" lon="0.6971">
        <ele>193.84</ele>
        <time>2021-06-29T14:07:26Z</time>
      </trkpt>
      <trkpt lat="45.86811" lon="0.69486">
        <ele>195.28</ele>
        <time>2021-06-29T14:07:36Z</time>
      </trkpt>
      <trkpt lat="45.86815" lon="0.69385">
        <ele>196.25</ele>
        <time>2021-06-29T14:07:42Z</time>
      </trkpt>
      <trkpt lat="45.86815" lon="0.69375">
        <ele>196.25</ele>
        <time>2021-06-29T14:07:43Z</time>
      </trkpt>
      <trkpt lat="45.86816" lon="0.69366">
        <ele>196.25</ele>
        <time>2021-06-29T14:07:44Z</time>
      </trkpt>
      <trkpt lat="45.86827" lon="0.69363">
        <ele>196.25</ele>
        <time>2021-06-29T14:07:45Z</time>
      </trkpt>
      <trkpt lat="45.86835" lon="0.69352">
        <ele>196.25</ele>
        <time>2021-06-29T14:07:46Z</time>
      </trkpt>
      <trkpt lat="45.86848" lon="0.69332">
        <ele>196.73</ele>
        <time>2021-06-29T14:07:47Z</time>
      </trkpt>
      <trkpt lat="45.86848" lon="0.69332">
        <ele>196.25</ele>
        <time>2021-06-29T14:07:48Z</time>
      </trkpt>
      <trkpt lat="45.86859" lon="0.69332">
        <ele>196.25</ele>
        <time>2021-06-29T14:07:49Z</time>
      </trkpt>
      <trkpt lat="45.8687" lon="0.69332">
        <ele>197.21</ele>
        <time>2021-06-29T14:07:50Z</time>
      </trkpt>
      <trkpt lat="45.87037" lon="0.6933">
        <ele>188.56</ele>
        <time>2021-06-29T14:08:02Z</time>
      </trkpt>
      <trkpt lat="45.87095" lon="0.69313">
        <ele>184.23</ele>
        <time>2021-06-29T14:08:06Z</time>
      </trkpt>
      <trkpt lat="45.87108" lon="0.69303">
        <ele>183.27</ele>
        <time>2021-06-29T14:08:07Z</time>
      </trkpt>
      <trkpt lat="45.87164" lon="0.69241">
        <ele>178.94</ele>
        <time>2021-06-29T14:08:12Z</time>
      </trkpt>
      <trkpt lat="45.87177" lon="0.69216">
        <ele>179.9</ele>
        <time>2021-06-29T14:08:14Z</time>
      </trkpt>
      <trkpt lat="45.87198" lon="0.69176">
        <ele>179.9</ele>
        <time>2021-06-29T14:08:19Z</time>
      </trkpt>
      <trkpt lat="45.87201" lon="0.6917">
        <ele>180.38</ele>
        <time>2021-06-29T14:08:20Z</time>
      </trkpt>
      <trkpt lat="45.87203" lon="0.69165">
        <ele>180.38</ele>
        <time>2021-06-29T14:08:21Z</time>
      </trkpt>
      <trkpt lat="45.87206" lon="0.69159">
        <ele>180.87</ele>
        <time>2021-06-29T14:08:22Z</time>
      </trkpt>
      <trkpt lat="45.87212" lon="0.69155">
        <ele>181.35</ele>
        <time>2021-06-29T14:08:23Z</time>
      </trkpt>
      <trkpt lat="45.87217" lon="0.69156">
        <ele>181.35</ele>
        <time>2021-06-29T14:08:24Z</time>
      </trkpt>
      <trkpt lat="45.87222" lon="0.69158">
        <ele>180.87</ele>
        <time>2021-06-29T14:08:25Z</time>
      </trkpt>
      <trkpt lat="45.8723" lon="0.69157">
        <ele>180.87</ele>
        <time>2021-06-29T14:08:26Z</time>
      </trkpt>
      <trkpt lat="45.8724" lon="0.69137">
        <ele>180.87</ele>
        <time>2021-06-29T14:08:27Z</time>
      </trkpt>
      <trkpt lat="45.87239" lon="0.69125">
        <ele>180.38</ele>
        <time>2021-06-29T14:08:28Z</time>
      </trkpt>
      <trkpt lat="45.87238" lon="0.69116">
        <ele>180.38</ele>
        <time>2021-06-29T14:08:29Z</time>
      </trkpt>
      <trkpt lat="45.87231" lon="0.69109">
        <ele>180.38</ele>
        <time>2021-06-29T14:08:30Z</time>
      </trkpt>
      <trkpt lat="45.87231" lon="0.69109">
        <ele>180.87</ele>
        <time>2021-06-29T14:08:31Z</time>
      </trkpt>
      <trkpt lat="45.87224" lon="0.69104">
        <ele>180.87</ele>
        <time>2021-06-29T14:08:32Z</time>
      </trkpt>
      <trkpt lat="45.8722" lon="0.69089">
        <ele>181.35</ele>
        <time>2021-06-29T14:08:33Z</time>
      </trkpt>
      <trkpt lat="45.87217" lon="0.6906">
        <ele>181.83</ele>
        <time>2021-06-29T14:08:34Z</time>
      </trkpt>
      <trkpt lat="45.87217" lon="0.6906">
        <ele>181.83</ele>
        <time>2021-06-29T14:08:35Z</time>
      </trkpt>
      <trkpt lat="45.87215" lon="0.69045">
        <ele>182.31</ele>
        <time>2021-06-29T14:08:36Z</time>
      </trkpt>
      <trkpt lat="45.87204" lon="0.68877">
        <ele>188.08</ele>
        <time>2021-06-29T14:08:45Z</time>
      </trkpt>
      <trkpt lat="45.87211" lon="0.68668">
        <ele>193.36</ele>
        <time>2021-06-29T14:08:56Z</time>
      </trkpt>
      <trkpt lat="45.87208" lon="0.68335">
        <ele>187.59</ele>
        <time>2021-06-29T14:09:13Z</time>
      </trkpt>
      <trkpt lat="45.87206" lon="0.68066">
        <ele>182.31</ele>
        <time>2021-06-29T14:09:27Z</time>
      </trkpt>
      <trkpt lat="45.87204" lon="0.67682">
        <ele>171.73</ele>
        <time>2021-06-29T14:09:44Z</time>
      </trkpt>
      <trkpt lat="45.872" lon="0.67282">
        <ele>157.31</ele>
        <time>2021-06-29T14:10:00Z</time>
      </trkpt>
      <trkpt lat="45.87197" lon="0.66977">
        <ele>166.45</ele>
        <time>2021-06-29T14:10:12Z</time>
      </trkpt>
      <trkpt lat="45.87195" lon="0.66575">
        <ele>178.46</ele>
        <time>2021-06-29T14:10:28Z</time>
      </trkpt>
      <trkpt lat="45.8719" lon="0.65979">
        <ele>187.59</ele>
        <time>2021-06-29T14:10:51Z</time>
      </trkpt>
      <trkpt lat="45.87187" lon="0.65518">
        <ele>194.32</ele>
        <time>2021-06-29T14:11:10Z</time>
      </trkpt>
      <trkpt lat="45.87189" lon="0.65363">
        <ele>196.25</ele>
        <time>2021-06-29T14:11:18Z</time>
      </trkpt>
      <trkpt lat="45.87193" lon="0.65342">
        <ele>195.77</ele>
        <time>2021-06-29T14:11:19Z</time>
      </trkpt>
      <trkpt lat="45.87263" lon="0.65058">
        <ele>184.71</ele>
        <time>2021-06-29T14:11:30Z</time>
      </trkpt>
      <trkpt lat="45.87345" lon="0.64746">
        <ele>183.75</ele>
        <time>2021-06-29T14:11:43Z</time>
      </trkpt>
      <trkpt lat="45.87457" lon="0.64309">
        <ele>187.11</ele>
        <time>2021-06-29T14:11:59Z</time>
      </trkpt>
      <trkpt lat="45.87541" lon="0.63981">
        <ele>191.44</ele>
        <time>2021-06-29T14:12:11Z</time>
      </trkpt>
      <trkpt lat="45.87631" lon="0.63626">
        <ele>187.59</ele>
        <time>2021-06-29T14:12:26Z</time>
      </trkpt>
      <trkpt lat="45.87717" lon="0.63292">
        <ele>184.71</ele>
        <time>2021-06-29T14:12:39Z</time>
      </trkpt>
      <trkpt lat="45.87804" lon="0.62952">
        <ele>192.88</ele>
        <time>2021-06-29T14:12:52Z</time>
      </trkpt>
      <trkpt lat="45.87901" lon="0.62577">
        <ele>209.22</ele>
        <time>2021-06-29T14:13:07Z</time>
      </trkpt>
      <trkpt lat="45.88023" lon="0.62099">
        <ele>220.76</ele>
        <time>2021-06-29T14:13:27Z</time>
      </trkpt>
      <trkpt lat="45.88078" lon="0.61889">
        <ele>223.16</ele>
        <time>2021-06-29T14:13:37Z</time>
      </trkpt>
      <trkpt lat="45.88129" lon="0.61683">
        <ele>234.22</ele>
        <time>2021-06-29T14:13:52Z</time>
      </trkpt>
      <trkpt lat="45.88165" lon="0.61516">
        <ele>232.78</ele>
        <time>2021-06-29T14:14:02Z</time>
      </trkpt>
      <trkpt lat="45.88201" lon="0.61237">
        <ele>228.93</ele>
        <time>2021-06-29T14:14:18Z</time>
      </trkpt>
      <trkpt lat="45.88233" lon="0.61011">
        <ele>225.09</ele>
        <time>2021-06-29T14:14:31Z</time>
      </trkpt>
      <trkpt lat="45.88267" lon="0.60757">
        <ele>217.88</ele>
        <time>2021-06-29T14:14:42Z</time>
      </trkpt>
      <trkpt lat="45.8833" lon="0.60293">
        <ele>198.65</ele>
        <time>2021-06-29T14:15:00Z</time>
      </trkpt>
      <trkpt lat="45.88379" lon="0.59925">
        <ele>186.63</ele>
        <time>2021-06-29T14:15:15Z</time>
      </trkpt>
      <trkpt lat="45.88425" lon="0.59576">
        <ele>186.15</ele>
        <time>2021-06-29T14:15:30Z</time>
      </trkpt>
      <trkpt lat="45.88462" lon="0.59293">
        <ele>193.36</ele>
        <time>2021-06-29T14:15:44Z</time>
      </trkpt>
      <trkpt lat="45.88467" lon="0.59252">
        <ele>194.8</ele>
        <time>2021-06-29T14:15:47Z</time>
      </trkpt>
      <trkpt lat="45.88469" lon="0.5924">
        <ele>195.28</ele>
        <time>2021-06-29T14:15:48Z</time>
      </trkpt>
      <trkpt lat="45.8848" lon="0.5923">
        <ele>195.77</ele>
        <time>2021-06-29T14:15:49Z</time>
      </trkpt>
      <trkpt lat="45.88488" lon="0.59218">
        <ele>196.25</ele>
        <time>2021-06-29T14:15:50Z</time>
      </trkpt>
      <trkpt lat="45.8849" lon="0.59204">
        <ele>196.73</ele>
        <time>2021-06-29T14:15:51Z</time>
      </trkpt>
      <trkpt lat="45.8849" lon="0.59204">
        <ele>197.21</ele>
        <time>2021-06-29T14:15:52Z</time>
      </trkpt>
      <trkpt lat="45.88489" lon="0.59197">
        <ele>197.21</ele>
        <time>2021-06-29T14:15:53Z</time>
      </trkpt>
      <trkpt lat="45.88489" lon="0.59197">
        <ele>197.69</ele>
        <time>2021-06-29T14:15:54Z</time>
      </trkpt>
      <trkpt lat="45.88476" lon="0.59175">
        <ele>197.69</ele>
        <time>2021-06-29T14:15:55Z</time>
      </trkpt>
      <trkpt lat="45.88478" lon="0.59165">
        <ele>198.17</ele>
        <time>2021-06-29T14:15:56Z</time>
      </trkpt>
      <trkpt lat="45.88479" lon="0.59154">
        <ele>198.17</ele>
        <time>2021-06-29T14:15:57Z</time>
      </trkpt>
      <trkpt lat="45.885" lon="0.59004">
        <ele>200.09</ele>
        <time>2021-06-29T14:16:06Z</time>
      </trkpt>
      <trkpt lat="45.88531" lon="0.58781">
        <ele>203.94</ele>
        <time>2021-06-29T14:16:18Z</time>
      </trkpt>
      <trkpt lat="45.8856" lon="0.58554">
        <ele>209.22</ele>
        <time>2021-06-29T14:16:34Z</time>
      </trkpt>
      <trkpt lat="45.88576" lon="0.58441">
        <ele>212.59</ele>
        <time>2021-06-29T14:16:44Z</time>
      </trkpt>
      <trkpt lat="45.88582" lon="0.58388">
        <ele>214.03</ele>
        <time>2021-06-29T14:16:55Z</time>
      </trkpt>
      <trkpt lat="45.88583" lon="0.58382">
        <ele>214.03</ele>
        <time>2021-06-29T14:17:16Z</time>
      </trkpt>
      <trkpt lat="45.8859" lon="0.58338">
        <ele>214.99</ele>
        <time>2021-06-29T14:17:24Z</time>
      </trkpt>
      <trkpt lat="45.88608" lon="0.58193">
        <ele>217.4</ele>
        <time>2021-06-29T14:17:37Z</time>
      </trkpt>
      <trkpt lat="45.88633" lon="0.57983">
        <ele>220.28</ele>
        <time>2021-06-29T14:17:54Z</time>
      </trkpt>
      <trkpt lat="45.88633" lon="0.57971">
        <ele>220.28</ele>
        <time>2021-06-29T14:17:55Z</time>
      </trkpt>
      <trkpt lat="45.88633" lon="0.57959">
        <ele>219.8</ele>
        <time>2021-06-29T14:17:56Z</time>
      </trkpt>
      <trkpt lat="45.8863" lon="0.5795">
        <ele>219.32</ele>
        <time>2021-06-29T14:17:57Z</time>
      </trkpt>
      <trkpt lat="45.88626" lon="0.57939">
        <ele>219.32</ele>
        <time>2021-06-29T14:17:58Z</time>
      </trkpt>
      <trkpt lat="45.88561" lon="0.57759">
        <ele>216.43</ele>
        <time>2021-06-29T14:18:13Z</time>
      </trkpt>
      <trkpt lat="45.88475" lon="0.57596">
        <ele>213.07</ele>
        <time>2021-06-29T14:18:28Z</time>
      </trkpt>
      <trkpt lat="45.8836" lon="0.5739">
        <ele>202.01</ele>
        <time>2021-06-29T14:18:45Z</time>
      </trkpt>
      <trkpt lat="45.88229" lon="0.5715">
        <ele>190.96</ele>
        <time>2021-06-29T14:19:02Z</time>
      </trkpt>
      <trkpt lat="45.8808" lon="0.56883">
        <ele>197.69</ele>
        <time>2021-06-29T14:19:16Z</time>
      </trkpt>
      <trkpt lat="45.8796" lon="0.56662">
        <ele>196.73</ele>
        <time>2021-06-29T14:19:30Z</time>
      </trkpt>
      <trkpt lat="45.87826" lon="0.56396">
        <ele>195.28</ele>
        <time>2021-06-29T14:19:45Z</time>
      </trkpt>
      <trkpt lat="45.87782" lon="0.56227">
        <ele>192.4</ele>
        <time>2021-06-29T14:19:55Z</time>
      </trkpt>
      <trkpt lat="45.87722" lon="0.56096">
        <ele>190</ele>
        <time>2021-06-29T14:20:03Z</time>
      </trkpt>
      <trkpt lat="45.87713" lon="0.56081">
        <ele>190</ele>
        <time>2021-06-29T14:20:04Z</time>
      </trkpt>
      <trkpt lat="45.87703" lon="0.56067">
        <ele>189.52</ele>
        <time>2021-06-29T14:20:05Z</time>
      </trkpt>
      <trkpt lat="45.87692" lon="0.56057">
        <ele>189.04</ele>
        <time>2021-06-29T14:20:06Z</time>
      </trkpt>
      <trkpt lat="45.87678" lon="0.56047">
        <ele>188.56</ele>
        <time>2021-06-29T14:20:07Z</time>
      </trkpt>
      <trkpt lat="45.87664" lon="0.56037">
        <ele>188.08</ele>
        <time>2021-06-29T14:20:08Z</time>
      </trkpt>
      <trkpt lat="45.87588" lon="0.55972">
        <ele>190.48</ele>
        <time>2021-06-29T14:20:14Z</time>
      </trkpt>
      <trkpt lat="45.87578" lon="0.55959">
        <ele>190.96</ele>
        <time>2021-06-29T14:20:15Z</time>
      </trkpt>
      <trkpt lat="45.87568" lon="0.55945">
        <ele>191.44</ele>
        <time>2021-06-29T14:20:16Z</time>
      </trkpt>
      <trkpt lat="45.87442" lon="0.55718">
        <ele>192.4</ele>
        <time>2021-06-29T14:20:29Z</time>
      </trkpt>
      <trkpt lat="45.87262" lon="0.55391">
        <ele>190.96</ele>
        <time>2021-06-29T14:20:46Z</time>
      </trkpt>
      <trkpt lat="45.87086" lon="0.55066">
        <ele>190</ele>
        <time>2021-06-29T14:21:04Z</time>
      </trkpt>
      <trkpt lat="45.8689" lon="0.54707">
        <ele>181.35</ele>
        <time>2021-06-29T14:21:24Z</time>
      </trkpt>
      <trkpt lat="45.86796" lon="0.54535">
        <ele>179.9</ele>
        <time>2021-06-29T14:21:35Z</time>
      </trkpt>
      <trkpt lat="45.86654" lon="0.54272">
        <ele>177.98</ele>
        <time>2021-06-29T14:21:56Z</time>
      </trkpt>
      <trkpt lat="45.86517" lon="0.54022">
        <ele>172.69</ele>
        <time>2021-06-29T14:22:16Z</time>
      </trkpt>
      <trkpt lat="45.86484" lon="0.53954">
        <ele>169.33</ele>
        <time>2021-06-29T14:22:21Z</time>
      </trkpt>
      <trkpt lat="45.86478" lon="0.53939">
        <ele>168.85</ele>
        <time>2021-06-29T14:22:22Z</time>
      </trkpt>
      <trkpt lat="45.8647" lon="0.53904">
        <ele>168.37</ele>
        <time>2021-06-29T14:22:23Z</time>
      </trkpt>
      <trkpt lat="45.8647" lon="0.53904">
        <ele>168.85</ele>
        <time>2021-06-29T14:22:24Z</time>
      </trkpt>
      <trkpt lat="45.86467" lon="0.53887">
        <ele>169.33</ele>
        <time>2021-06-29T14:22:25Z</time>
      </trkpt>
      <trkpt lat="45.86455" lon="0.53748">
        <ele>172.69</ele>
        <time>2021-06-29T14:22:33Z</time>
      </trkpt>
      <trkpt lat="45.86453" lon="0.53732">
        <ele>172.69</ele>
        <time>2021-06-29T14:22:34Z</time>
      </trkpt>
      <trkpt lat="45.86451" lon="0.53717">
        <ele>173.17</ele>
        <time>2021-06-29T14:22:35Z</time>
      </trkpt>
      <trkpt lat="45.86359" lon="0.53499">
        <ele>176.06</ele>
        <time>2021-06-29T14:22:50Z</time>
      </trkpt>
      <trkpt lat="45.86313" lon="0.53348">
        <ele>176.06</ele>
        <time>2021-06-29T14:22:59Z</time>
      </trkpt>
      <trkpt lat="45.86239" lon="0.53091">
        <ele>172.69</ele>
        <time>2021-06-29T14:23:10Z</time>
      </trkpt>
      <trkpt lat="45.86115" lon="0.52646">
        <ele>179.9</ele>
        <time>2021-06-29T14:23:27Z</time>
      </trkpt>
      <trkpt lat="45.8596" lon="0.52092">
        <ele>180.38</ele>
        <time>2021-06-29T14:23:47Z</time>
      </trkpt>
      <trkpt lat="45.85874" lon="0.51776">
        <ele>179.42</ele>
        <time>2021-06-29T14:23:59Z</time>
      </trkpt>
      <trkpt lat="45.85795" lon="0.51486">
        <ele>177.5</ele>
        <time>2021-06-29T14:24:11Z</time>
      </trkpt>
      <trkpt lat="45.85707" lon="0.51205">
        <ele>176.06</ele>
        <time>2021-06-29T14:24:26Z</time>
      </trkpt>
      <trkpt lat="45.8561" lon="0.51049">
        <ele>175.1</ele>
        <time>2021-06-29T14:24:36Z</time>
      </trkpt>
      <trkpt lat="45.85423" lon="0.50801">
        <ele>174.62</ele>
        <time>2021-06-29T14:24:52Z</time>
      </trkpt>
      <trkpt lat="45.85321" lon="0.50669">
        <ele>176.06</ele>
        <time>2021-06-29T14:25:03Z</time>
      </trkpt>
      <trkpt lat="45.85168" lon="0.50466">
        <ele>183.27</ele>
        <time>2021-06-29T14:25:18Z</time>
      </trkpt>
      <trkpt lat="45.85081" lon="0.50348">
        <ele>184.23</ele>
        <time>2021-06-29T14:25:27Z</time>
      </trkpt>
      <trkpt lat="45.84933" lon="0.50147">
        <ele>180.38</ele>
        <time>2021-06-29T14:25:40Z</time>
      </trkpt>
      <trkpt lat="45.84756" lon="0.49905">
        <ele>175.1</ele>
        <time>2021-06-29T14:25:53Z</time>
      </trkpt>
      <trkpt lat="45.84506" lon="0.49559">
        <ele>173.17</ele>
        <time>2021-06-29T14:26:10Z</time>
      </trkpt>
      <trkpt lat="45.84225" lon="0.49171">
        <ele>161.64</ele>
        <time>2021-06-29T14:26:30Z</time>
      </trkpt>
      <trkpt lat="45.84018" lon="0.48877">
        <ele>151.06</ele>
        <time>2021-06-29T14:26:45Z</time>
      </trkpt>
      <trkpt lat="45.83898" lon="0.48636">
        <ele>159.24</ele>
        <time>2021-06-29T14:26:56Z</time>
      </trkpt>
      <trkpt lat="45.83761" lon="0.48264">
        <ele>152.03</ele>
        <time>2021-06-29T14:27:12Z</time>
      </trkpt>
      <trkpt lat="45.83624" lon="0.47889">
        <ele>140.01</ele>
        <time>2021-06-29T14:27:27Z</time>
      </trkpt>
      <trkpt lat="45.83449" lon="0.47406">
        <ele>136.16</ele>
        <time>2021-06-29T14:27:47Z</time>
      </trkpt>
      <trkpt lat="45.83332" lon="0.47113">
        <ele>129.43</ele>
        <time>2021-06-29T14:28:00Z</time>
      </trkpt>
      <trkpt lat="45.83256" lon="0.47013">
        <ele>124.63</ele>
        <time>2021-06-29T14:28:08Z</time>
      </trkpt>
      <trkpt lat="45.83256" lon="0.47013">
        <ele>123.67</ele>
        <time>2021-06-29T14:28:09Z</time>
      </trkpt>
      <trkpt lat="45.83249" lon="0.47001">
        <ele>122.22</ele>
        <time>2021-06-29T14:28:10Z</time>
      </trkpt>
      <trkpt lat="45.83242" lon="0.4699">
        <ele>122.22</ele>
        <time>2021-06-29T14:28:11Z</time>
      </trkpt>
      <trkpt lat="45.83238" lon="0.46979">
        <ele>121.26</ele>
        <time>2021-06-29T14:28:12Z</time>
      </trkpt>
      <trkpt lat="45.83235" lon="0.46969">
        <ele>121.26</ele>
        <time>2021-06-29T14:28:13Z</time>
      </trkpt>
      <trkpt lat="45.83232" lon="0.4696">
        <ele>120.78</ele>
        <time>2021-06-29T14:28:14Z</time>
      </trkpt>
      <trkpt lat="45.8323" lon="0.46951">
        <ele>120.78</ele>
        <time>2021-06-29T14:28:15Z</time>
      </trkpt>
      <trkpt lat="45.83228" lon="0.46924">
        <ele>122.71</ele>
        <time>2021-06-29T14:28:22Z</time>
      </trkpt>
      <trkpt lat="45.83231" lon="0.46921">
        <ele>122.22</ele>
        <time>2021-06-29T14:28:23Z</time>
      </trkpt>
      <trkpt lat="45.83237" lon="0.46913">
        <ele>122.22</ele>
        <time>2021-06-29T14:28:25Z</time>
      </trkpt>
      <trkpt lat="45.83239" lon="0.46902">
        <ele>122.71</ele>
        <time>2021-06-29T14:28:26Z</time>
      </trkpt>
      <trkpt lat="45.8324" lon="0.46894">
        <ele>122.71</ele>
        <time>2021-06-29T14:28:27Z</time>
      </trkpt>
      <trkpt lat="45.83233" lon="0.46875">
        <ele>122.71</ele>
        <time>2021-06-29T14:28:28Z</time>
      </trkpt>
      <trkpt lat="45.83233" lon="0.46875">
        <ele>122.22</ele>
        <time>2021-06-29T14:28:29Z</time>
      </trkpt>
      <trkpt lat="45.83229" lon="0.46869">
        <ele>121.74</ele>
        <time>2021-06-29T14:28:30Z</time>
      </trkpt>
      <trkpt lat="45.83225" lon="0.46863">
        <ele>121.26</ele>
        <time>2021-06-29T14:28:31Z</time>
      </trkpt>
      <trkpt lat="45.83216" lon="0.46863">
        <ele>121.26</ele>
        <time>2021-06-29T14:28:32Z</time>
      </trkpt>
      <trkpt lat="45.83211" lon="0.46864">
        <ele>120.78</ele>
        <time>2021-06-29T14:28:33Z</time>
      </trkpt>
      <trkpt lat="45.832" lon="0.46859">
        <ele>120.3</ele>
        <time>2021-06-29T14:28:34Z</time>
      </trkpt>
      <trkpt lat="45.83194" lon="0.4684">
        <ele>120.3</ele>
        <time>2021-06-29T14:28:35Z</time>
      </trkpt>
      <trkpt lat="45.83194" lon="0.4684">
        <ele>119.82</ele>
        <time>2021-06-29T14:28:36Z</time>
      </trkpt>
      <trkpt lat="45.83148" lon="0.46705">
        <ele>121.26</ele>
        <time>2021-06-29T14:28:45Z</time>
      </trkpt>
      <trkpt lat="45.83117" lon="0.46634">
        <ele>121.74</ele>
        <time>2021-06-29T14:28:49Z</time>
      </trkpt>
      <trkpt lat="45.83002" lon="0.46486">
        <ele>119.82</ele>
        <time>2021-06-29T14:28:58Z</time>
      </trkpt>
      <trkpt lat="45.82783" lon="0.46239">
        <ele>118.86</ele>
        <time>2021-06-29T14:29:12Z</time>
      </trkpt>
      <trkpt lat="45.82589" lon="0.46014">
        <ele>116.94</ele>
        <time>2021-06-29T14:29:23Z</time>
      </trkpt>
      <trkpt lat="45.82339" lon="0.45776">
        <ele>116.94</ele>
        <time>2021-06-29T14:29:35Z</time>
      </trkpt>
      <trkpt lat="45.82145" lon="0.45681">
        <ele>118.86</ele>
        <time>2021-06-29T14:29:43Z</time>
      </trkpt>
      <trkpt lat="45.81837" lon="0.45571">
        <ele>115.98</ele>
        <time>2021-06-29T14:29:55Z</time>
      </trkpt>
      <trkpt lat="45.8162" lon="0.45417">
        <ele>114.05</ele>
        <time>2021-06-29T14:30:04Z</time>
      </trkpt>
      <trkpt lat="45.81329" lon="0.4512">
        <ele>111.65</ele>
        <time>2021-06-29T14:30:17Z</time>
      </trkpt>
      <trkpt lat="45.80953" lon="0.44721">
        <ele>119.34</ele>
        <time>2021-06-29T14:30:34Z</time>
      </trkpt>
      <trkpt lat="45.8065" lon="0.44402">
        <ele>112.61</ele>
        <time>2021-06-29T14:30:48Z</time>
      </trkpt>
      <trkpt lat="45.80351" lon="0.44084">
        <ele>108.29</ele>
        <time>2021-06-29T14:31:01Z</time>
      </trkpt>
      <trkpt lat="45.80004" lon="0.43715">
        <ele>113.57</ele>
        <time>2021-06-29T14:31:18Z</time>
      </trkpt>
      <trkpt lat="45.79566" lon="0.43242">
        <ele>120.3</ele>
        <time>2021-06-29T14:31:38Z</time>
      </trkpt>
      <trkpt lat="45.79392" lon="0.42976">
        <ele>121.26</ele>
        <time>2021-06-29T14:31:47Z</time>
      </trkpt>
      <trkpt lat="45.79277" lon="0.42694">
        <ele>116.94</ele>
        <time>2021-06-29T14:31:55Z</time>
      </trkpt>
      <trkpt lat="45.79138" lon="0.42195">
        <ele>110.69</ele>
        <time>2021-06-29T14:32:08Z</time>
      </trkpt>
      <trkpt lat="45.79024" lon="0.41888">
        <ele>107.32</ele>
        <time>2021-06-29T14:32:17Z</time>
      </trkpt>
      <trkpt lat="45.7887" lon="0.41622">
        <ele>102.52</ele>
        <time>2021-06-29T14:32:26Z</time>
      </trkpt>
      <trkpt lat="45.78632" lon="0.41331">
        <ele>98.19</ele>
        <time>2021-06-29T14:32:38Z</time>
      </trkpt>
      <trkpt lat="45.78408" lon="0.41011">
        <ele>92.9</ele>
        <time>2021-06-29T14:32:50Z</time>
      </trkpt>
      <trkpt lat="45.78224" lon="0.40806">
        <ele>91.94</ele>
        <time>2021-06-29T14:32:59Z</time>
      </trkpt>
      <trkpt lat="45.77982" lon="0.40631">
        <ele>91.94</ele>
        <time>2021-06-29T14:33:09Z</time>
      </trkpt>
      <trkpt lat="45.77397" lon="0.4025">
        <ele>104.92</ele>
        <time>2021-06-29T14:33:33Z</time>
      </trkpt>
      <trkpt lat="45.76882" lon="0.39918">
        <ele>125.59</ele>
        <time>2021-06-29T14:33:55Z</time>
      </trkpt>
      <trkpt lat="45.7644" lon="0.39629">
        <ele>127.99</ele>
        <time>2021-06-29T14:34:14Z</time>
      </trkpt>
      <trkpt lat="45.76059" lon="0.39364">
        <ele>125.59</ele>
        <time>2021-06-29T14:34:30Z</time>
      </trkpt>
      <trkpt lat="45.75767" lon="0.391">
        <ele>121.26</ele>
        <time>2021-06-29T14:34:43Z</time>
      </trkpt>
      <trkpt lat="45.75597" lon="0.38857">
        <ele>112.61</ele>
        <time>2021-06-29T14:34:52Z</time>
      </trkpt>
      <trkpt lat="45.75464" lon="0.3857">
        <ele>99.63</ele>
        <time>2021-06-29T14:35:01Z</time>
      </trkpt>
      <trkpt lat="45.75367" lon="0.38203">
        <ele>84.73</ele>
        <time>2021-06-29T14:35:10Z</time>
      </trkpt>
      <trkpt lat="45.75276" lon="0.37676">
        <ele>78.97</ele>
        <time>2021-06-29T14:35:25Z</time>
      </trkpt>
      <trkpt lat="45.75201" lon="0.37317">
        <ele>80.41</ele>
        <time>2021-06-29T14:35:35Z</time>
      </trkpt>
      <trkpt lat="45.75095" lon="0.37062">
        <ele>80.41</ele>
        <time>2021-06-29T14:35:43Z</time>
      </trkpt>
      <trkpt lat="45.74955" lon="0.36848">
        <ele>81.85</ele>
        <time>2021-06-29T14:35:51Z</time>
      </trkpt>
      <trkpt lat="45.74764" lon="0.3667">
        <ele>82.81</ele>
        <time>2021-06-29T14:35:59Z</time>
      </trkpt>
      <trkpt lat="45.74582" lon="0.36522">
        <ele>85.69</ele>
        <time>2021-06-29T14:36:08Z</time>
      </trkpt>
      <trkpt lat="45.74428" lon="0.36332">
        <ele>92.42</ele>
        <time>2021-06-29T14:36:16Z</time>
      </trkpt>
      <trkpt lat="45.74299" lon="0.36073">
        <ele>97.71</ele>
        <time>2021-06-29T14:36:25Z</time>
      </trkpt>
      <trkpt lat="45.74224" lon="0.35802">
        <ele>98.19</ele>
        <time>2021-06-29T14:36:33Z</time>
      </trkpt>
      <trkpt lat="45.74052" lon="0.35091">
        <ele>94.83</ele>
        <time>2021-06-29T14:36:53Z</time>
      </trkpt>
      <trkpt lat="45.73944" lon="0.34719">
        <ele>93.87</ele>
        <time>2021-06-29T14:37:04Z</time>
      </trkpt>
      <trkpt lat="45.73811" lon="0.3446">
        <ele>88.58</ele>
        <time>2021-06-29T14:37:13Z</time>
      </trkpt>
      <trkpt lat="45.73479" lon="0.3394">
        <ele>77.52</ele>
        <time>2021-06-29T14:37:32Z</time>
      </trkpt>
      <trkpt lat="45.73209" lon="0.33595">
        <ele>82.81</ele>
        <time>2021-06-29T14:37:46Z</time>
      </trkpt>
      <trkpt lat="45.7299" lon="0.33252">
        <ele>91.94</ele>
        <time>2021-06-29T14:37:59Z</time>
      </trkpt>
      <trkpt lat="45.72584" lon="0.32585">
        <ele>105.4</ele>
        <time>2021-06-29T14:38:24Z</time>
      </trkpt>
      <trkpt lat="45.72429" lon="0.32257">
        <ele>109.73</ele>
        <time>2021-06-29T14:38:35Z</time>
      </trkpt>
      <trkpt lat="45.72168" lon="0.31627">
        <ele>119.34</ele>
        <time>2021-06-29T14:38:55Z</time>
      </trkpt>
      <trkpt lat="45.71935" lon="0.31072">
        <ele>111.17</ele>
        <time>2021-06-29T14:39:13Z</time>
      </trkpt>
      <trkpt lat="45.71727" lon="0.30571">
        <ele>118.38</ele>
        <time>2021-06-29T14:39:29Z</time>
      </trkpt>
      <trkpt lat="45.71451" lon="0.29914">
        <ele>126.55</ele>
        <time>2021-06-29T14:39:49Z</time>
      </trkpt>
      <trkpt lat="45.71205" lon="0.29319">
        <ele>124.15</ele>
        <time>2021-06-29T14:40:09Z</time>
      </trkpt>
      <trkpt lat="45.71062" lon="0.28942">
        <ele>131.36</ele>
        <time>2021-06-29T14:40:21Z</time>
      </trkpt>
      <trkpt lat="45.70961" lon="0.28547">
        <ele>140.01</ele>
        <time>2021-06-29T14:40:33Z</time>
      </trkpt>
      <trkpt lat="45.70909" lon="0.28131">
        <ele>143.37</ele>
        <time>2021-06-29T14:40:44Z</time>
      </trkpt>
      <trkpt lat="45.70861" lon="0.27726">
        <ele>133.76</ele>
        <time>2021-06-29T14:40:56Z</time>
      </trkpt>
      <trkpt lat="45.70769" lon="0.27401">
        <ele>132.8</ele>
        <time>2021-06-29T14:41:05Z</time>
      </trkpt>
      <trkpt lat="45.70553" lon="0.26858">
        <ele>136.16</ele>
        <time>2021-06-29T14:41:21Z</time>
      </trkpt>
      <trkpt lat="45.70369" lon="0.26524">
        <ele>135.68</ele>
        <time>2021-06-29T14:41:31Z</time>
      </trkpt>
      <trkpt lat="45.70152" lon="0.26134">
        <ele>142.41</ele>
        <time>2021-06-29T14:41:45Z</time>
      </trkpt>
      <trkpt lat="45.70043" lon="0.25832">
        <ele>144.34</ele>
        <time>2021-06-29T14:41:54Z</time>
      </trkpt>
      <trkpt lat="45.69888" lon="0.2529">
        <ele>140.01</ele>
        <time>2021-06-29T14:42:09Z</time>
      </trkpt>
      <trkpt lat="45.69689" lon="0.24724">
        <ele>132.8</ele>
        <time>2021-06-29T14:42:25Z</time>
      </trkpt>
      <trkpt lat="45.69445" lon="0.24067">
        <ele>117.42</ele>
        <time>2021-06-29T14:42:44Z</time>
      </trkpt>
      <trkpt lat="45.69209" lon="0.23424">
        <ele>96.27</ele>
        <time>2021-06-29T14:43:03Z</time>
      </trkpt>
      <trkpt lat="45.69036" lon="0.22889">
        <ele>77.04</ele>
        <time>2021-06-29T14:43:18Z</time>
      </trkpt>
      <trkpt lat="45.68888" lon="0.22269">
        <ele>71.27</ele>
        <time>2021-06-29T14:43:34Z</time>
      </trkpt>
      <trkpt lat="45.6875" lon="0.21601">
        <ele>84.25</ele>
        <time>2021-06-29T14:43:52Z</time>
      </trkpt>
      <trkpt lat="45.68637" lon="0.20989">
        <ele>83.29</ele>
        <time>2021-06-29T14:44:09Z</time>
      </trkpt>
      <trkpt lat="45.68615" lon="0.20583">
        <ele>79.45</ele>
        <time>2021-06-29T14:44:20Z</time>
      </trkpt>
      <trkpt lat="45.68644" lon="0.20189">
        <ele>77.04</ele>
        <time>2021-06-29T14:44:31Z</time>
      </trkpt>
      <trkpt lat="45.68699" lon="0.19816">
        <ele>69.83</ele>
        <time>2021-06-29T14:44:42Z</time>
      </trkpt>
      <trkpt lat="45.68789" lon="0.19568">
        <ele>57.82</ele>
        <time>2021-06-29T14:44:50Z</time>
      </trkpt>
      <trkpt lat="45.68919" lon="0.19354">
        <ele>53.01</ele>
        <time>2021-06-29T14:44:58Z</time>
      </trkpt>
      <trkpt lat="45.6908" lon="0.19194">
        <ele>60.7</ele>
        <time>2021-06-29T14:45:06Z</time>
      </trkpt>
      <trkpt lat="45.69373" lon="0.18973">
        <ele>75.12</ele>
        <time>2021-06-29T14:45:21Z</time>
      </trkpt>
      <trkpt lat="45.69541" lon="0.18815">
        <ele>79.93</ele>
        <time>2021-06-29T14:45:31Z</time>
      </trkpt>
      <trkpt lat="45.69623" lon="0.18645">
        <ele>80.41</ele>
        <time>2021-06-29T14:45:38Z</time>
      </trkpt>
      <trkpt lat="45.69653" lon="0.18438">
        <ele>75.12</ele>
        <time>2021-06-29T14:45:45Z</time>
      </trkpt>
      <trkpt lat="45.69626" lon="0.1822">
        <ele>71.27</ele>
        <time>2021-06-29T14:45:52Z</time>
      </trkpt>
      <trkpt lat="45.69561" lon="0.17993">
        <ele>65.51</ele>
        <time>2021-06-29T14:46:00Z</time>
      </trkpt>
      <trkpt lat="45.69558" lon="0.17962">
        <ele>65.03</ele>
        <time>2021-06-29T14:46:01Z</time>
      </trkpt>
      <trkpt lat="45.69555" lon="0.17931">
        <ele>64.55</ele>
        <time>2021-06-29T14:46:02Z</time>
      </trkpt>
      <trkpt lat="45.69547" lon="0.17527">
        <ele>54.93</ele>
        <time>2021-06-29T14:46:15Z</time>
      </trkpt>
      <trkpt lat="45.69534" lon="0.17468">
        <ele>55.41</ele>
        <time>2021-06-29T14:46:16Z</time>
      </trkpt>
      <trkpt lat="45.69527" lon="0.17437">
        <ele>54.93</ele>
        <time>2021-06-29T14:46:17Z</time>
      </trkpt>
      <trkpt lat="45.69527" lon="0.17437">
        <ele>54.93</ele>
        <time>2021-06-29T14:46:18Z</time>
      </trkpt>
      <trkpt lat="45.69518" lon="0.1741">
        <ele>54.93</ele>
        <time>2021-06-29T14:46:19Z</time>
      </trkpt>
      <trkpt lat="45.69496" lon="0.17358">
        <ele>54.45</ele>
        <time>2021-06-29T14:46:20Z</time>
      </trkpt>
      <trkpt lat="45.69413" lon="0.17151">
        <ele>49.65</ele>
        <time>2021-06-29T14:46:29Z</time>
      </trkpt>
      <trkpt lat="45.69377" lon="0.16914">
        <ele>46.28</ele>
        <time>2021-06-29T14:46:37Z</time>
      </trkpt>
      <trkpt lat="45.69335" lon="0.16672">
        <ele>48.68</ele>
        <time>2021-06-29T14:46:47Z</time>
      </trkpt>
      <trkpt lat="45.69285" lon="0.16424">
        <ele>52.53</ele>
        <time>2021-06-29T14:46:57Z</time>
      </trkpt>
      <trkpt lat="45.69205" lon="0.16221">
        <ele>58.3</ele>
        <time>2021-06-29T14:47:05Z</time>
      </trkpt>
      <trkpt lat="45.69063" lon="0.16021">
        <ele>57.82</ele>
        <time>2021-06-29T14:47:13Z</time>
      </trkpt>
      <trkpt lat="45.68898" lon="0.1588">
        <ele>53.97</ele>
        <time>2021-06-29T14:47:22Z</time>
      </trkpt>
      <trkpt lat="45.68577" lon="0.15622">
        <ele>37.15</ele>
        <time>2021-06-29T14:47:36Z</time>
      </trkpt>
      <trkpt lat="45.683" lon="0.15357">
        <ele>29.94</ele>
        <time>2021-06-29T14:47:49Z</time>
      </trkpt>
      <trkpt lat="45.68028" lon="0.15052">
        <ele>32.34</ele>
        <time>2021-06-29T14:48:03Z</time>
      </trkpt>
      <trkpt lat="45.67803" lon="0.14764">
        <ele>36.19</ele>
        <time>2021-06-29T14:48:16Z</time>
      </trkpt>
      <trkpt lat="45.67533" lon="0.14393">
        <ele>40.51</ele>
        <time>2021-06-29T14:48:33Z</time>
      </trkpt>
      <trkpt lat="45.67461" lon="0.14272">
        <ele>42.92</ele>
        <time>2021-06-29T14:48:39Z</time>
      </trkpt>
      <trkpt lat="45.67452" lon="0.14255">
        <ele>43.88</ele>
        <time>2021-06-29T14:48:40Z</time>
      </trkpt>
      <trkpt lat="45.67446" lon="0.14236">
        <ele>44.36</ele>
        <time>2021-06-29T14:48:41Z</time>
      </trkpt>
      <trkpt lat="45.67441" lon="0.14216">
        <ele>44.84</ele>
        <time>2021-06-29T14:48:42Z</time>
      </trkpt>
      <trkpt lat="45.67438" lon="0.14197">
        <ele>45.32</ele>
        <time>2021-06-29T14:48:43Z</time>
      </trkpt>
      <trkpt lat="45.67436" lon="0.14176">
        <ele>46.28</ele>
        <time>2021-06-29T14:48:44Z</time>
      </trkpt>
      <trkpt lat="45.67436" lon="0.14158">
        <ele>46.28</ele>
        <time>2021-06-29T14:48:45Z</time>
      </trkpt>
      <trkpt lat="45.67437" lon="0.14139">
        <ele>46.76</ele>
        <time>2021-06-29T14:48:46Z</time>
      </trkpt>
      <trkpt lat="45.67439" lon="0.14119">
        <ele>47.24</ele>
        <time>2021-06-29T14:48:47Z</time>
      </trkpt>
      <trkpt lat="45.67441" lon="0.141">
        <ele>47.72</ele>
        <time>2021-06-29T14:48:48Z</time>
      </trkpt>
      <trkpt lat="45.67446" lon="0.14082">
        <ele>48.2</ele>
        <time>2021-06-29T14:48:49Z</time>
      </trkpt>
      <trkpt lat="45.67452" lon="0.14063">
        <ele>48.2</ele>
        <time>2021-06-29T14:48:50Z</time>
      </trkpt>
      <trkpt lat="45.67522" lon="0.1389">
        <ele>48.2</ele>
        <time>2021-06-29T14:48:58Z</time>
      </trkpt>
      <trkpt lat="45.67642" lon="0.13696">
        <ele>51.57</ele>
        <time>2021-06-29T14:49:07Z</time>
      </trkpt>
      <trkpt lat="45.67802" lon="0.13471">
        <ele>53.49</ele>
        <time>2021-06-29T14:49:18Z</time>
      </trkpt>
      <trkpt lat="45.67914" lon="0.13353">
        <ele>61.66</ele>
        <time>2021-06-29T14:49:27Z</time>
      </trkpt>
      <trkpt lat="45.67963" lon="0.1331">
        <ele>63.58</ele>
        <time>2021-06-29T14:49:34Z</time>
      </trkpt>
      <trkpt lat="45.6797" lon="0.13305">
        <ele>63.58</ele>
        <time>2021-06-29T14:49:36Z</time>
      </trkpt>
      <trkpt lat="45.67973" lon="0.13303">
        <ele>63.58</ele>
        <time>2021-06-29T14:49:37Z</time>
      </trkpt>
      <trkpt lat="45.67977" lon="0.133">
        <ele>63.58</ele>
        <time>2021-06-29T14:49:38Z</time>
      </trkpt>
      <trkpt lat="45.67984" lon="0.13304">
        <ele>63.58</ele>
        <time>2021-06-29T14:49:39Z</time>
      </trkpt>
      <trkpt lat="45.67988" lon="0.13308">
        <ele>64.07</ele>
        <time>2021-06-29T14:49:40Z</time>
      </trkpt>
      <trkpt lat="45.67989" lon="0.13308">
        <ele>64.07</ele>
        <time>2021-06-29T14:49:41Z</time>
      </trkpt>
      <trkpt lat="45.68001" lon="0.13316">
        <ele>63.58</ele>
        <time>2021-06-29T14:49:42Z</time>
      </trkpt>
      <trkpt lat="45.68002" lon="0.13324">
        <ele>63.58</ele>
        <time>2021-06-29T14:49:43Z</time>
      </trkpt>
      <trkpt lat="45.68004" lon="0.13342">
        <ele>62.62</ele>
        <time>2021-06-29T14:49:44Z</time>
      </trkpt>
      <trkpt lat="45.68004" lon="0.13342">
        <ele>62.14</ele>
        <time>2021-06-29T14:49:45Z</time>
      </trkpt>
      <trkpt lat="45.68005" lon="0.13352">
        <ele>61.66</ele>
        <time>2021-06-29T14:49:46Z</time>
      </trkpt>
      <trkpt lat="45.68006" lon="0.13362">
        <ele>61.18</ele>
        <time>2021-06-29T14:49:47Z</time>
      </trkpt>
      <trkpt lat="45.68004" lon="0.13372">
        <ele>60.7</ele>
        <time>2021-06-29T14:49:48Z</time>
      </trkpt>
      <trkpt lat="45.68001" lon="0.13383">
        <ele>60.22</ele>
        <time>2021-06-29T14:49:49Z</time>
      </trkpt>
      <trkpt lat="45.67998" lon="0.13394">
        <ele>59.74</ele>
        <time>2021-06-29T14:49:50Z</time>
      </trkpt>
      <trkpt lat="45.67996" lon="0.13405">
        <ele>59.74</ele>
        <time>2021-06-29T14:49:51Z</time>
      </trkpt>
      <trkpt lat="45.67991" lon="0.13413">
        <ele>59.26</ele>
        <time>2021-06-29T14:49:52Z</time>
      </trkpt>
      <trkpt lat="45.67984" lon="0.13418">
        <ele>58.78</ele>
        <time>2021-06-29T14:49:53Z</time>
      </trkpt>
      <trkpt lat="45.67977" lon="0.13424">
        <ele>58.78</ele>
        <time>2021-06-29T14:49:54Z</time>
      </trkpt>
      <trkpt lat="45.6797" lon="0.13429">
        <ele>58.78</ele>
        <time>2021-06-29T14:49:55Z</time>
      </trkpt>
      <trkpt lat="45.67963" lon="0.13435">
        <ele>58.78</ele>
        <time>2021-06-29T14:49:56Z</time>
      </trkpt>
      <trkpt lat="45.67863" lon="0.13477">
        <ele>59.74</ele>
        <time>2021-06-29T14:50:07Z</time>
      </trkpt>
      <trkpt lat="45.6778" lon="0.13568">
        <ele>60.7</ele>
        <time>2021-06-29T14:50:16Z</time>
      </trkpt>
      <trkpt lat="45.67706" lon="0.13691">
        <ele>57.34</ele>
        <time>2021-06-29T14:50:27Z</time>
      </trkpt>
      <trkpt lat="45.67681" lon="0.13745">
        <ele>56.37</ele>
        <time>2021-06-29T14:50:34Z</time>
      </trkpt>
      <trkpt lat="45.67679" lon="0.1375">
        <ele>56.37</ele>
        <time>2021-06-29T14:50:35Z</time>
      </trkpt>
      <trkpt lat="45.67677" lon="0.13752">
        <ele>56.86</ele>
        <time>2021-06-29T14:50:36Z</time>
      </trkpt>
      <trkpt lat="45.67677" lon="0.13752">
        <ele>57.34</ele>
        <time>2021-06-29T14:50:37Z</time>
      </trkpt>
      <trkpt lat="45.67673" lon="0.13755">
        <ele>57.82</ele>
        <time>2021-06-29T14:50:38Z</time>
      </trkpt>
      <trkpt lat="45.67665" lon="0.13761">
        <ele>58.78</ele>
        <time>2021-06-29T14:50:40Z</time>
      </trkpt>
      <trkpt lat="45.67661" lon="0.13763">
        <ele>59.26</ele>
        <time>2021-06-29T14:50:41Z</time>
      </trkpt>
      <trkpt lat="45.67657" lon="0.13775">
        <ele>59.74</ele>
        <time>2021-06-29T14:50:42Z</time>
      </trkpt>
      <trkpt lat="45.67655" lon="0.13782">
        <ele>60.22</ele>
        <time>2021-06-29T14:50:43Z</time>
      </trkpt>
      <trkpt lat="45.67655" lon="0.13791">
        <ele>59.74</ele>
        <time>2021-06-29T14:50:44Z</time>
      </trkpt>
      <trkpt lat="45.67656" lon="0.13798">
        <ele>59.26</ele>
        <time>2021-06-29T14:50:45Z</time>
      </trkpt>
      <trkpt lat="45.67657" lon="0.13806">
        <ele>58.78</ele>
        <time>2021-06-29T14:50:46Z</time>
      </trkpt>
      <trkpt lat="45.67661" lon="0.13814">
        <ele>58.3</ele>
        <time>2021-06-29T14:50:47Z</time>
      </trkpt>
      <trkpt lat="45.67665" lon="0.13819">
        <ele>57.82</ele>
        <time>2021-06-29T14:50:48Z</time>
      </trkpt>
      <trkpt lat="45.67668" lon="0.13827">
        <ele>56.86</ele>
        <time>2021-06-29T14:50:49Z</time>
      </trkpt>
      <trkpt lat="45.6767" lon="0.13835">
        <ele>56.37</ele>
        <time>2021-06-29T14:50:50Z</time>
      </trkpt>
      <trkpt lat="45.67671" lon="0.13854">
        <ele>56.86</ele>
        <time>2021-06-29T14:50:51Z</time>
      </trkpt>
      <trkpt lat="45.67671" lon="0.13854">
        <ele>56.37</ele>
        <time>2021-06-29T14:50:52Z</time>
      </trkpt>
      <trkpt lat="45.67671" lon="0.13864">
        <ele>56.37</ele>
        <time>2021-06-29T14:50:53Z</time>
      </trkpt>
      <trkpt lat="45.67669" lon="0.13915">
        <ele>54.93</ele>
        <time>2021-06-29T14:50:58Z</time>
      </trkpt>
      <trkpt lat="45.67668" lon="0.13927">
        <ele>54.45</ele>
        <time>2021-06-29T14:50:59Z</time>
      </trkpt>
      <trkpt lat="45.67667" lon="0.13939">
        <ele>53.97</ele>
        <time>2021-06-29T14:51:00Z</time>
      </trkpt>
      <trkpt lat="45.67668" lon="0.13951">
        <ele>53.49</ele>
        <time>2021-06-29T14:51:01Z</time>
      </trkpt>
      <trkpt lat="45.6767" lon="0.13963">
        <ele>53.01</ele>
        <time>2021-06-29T14:51:02Z</time>
      </trkpt>
      <trkpt lat="45.6772" lon="0.14161">
        <ele>41.95</ele>
        <time>2021-06-29T14:51:19Z</time>
      </trkpt>
      <trkpt lat="45.67767" lon="0.14335">
        <ele>33.3</ele>
        <time>2021-06-29T14:51:39Z</time>
      </trkpt>
      <trkpt lat="45.67771" lon="0.14411">
        <ele>31.38</ele>
        <time>2021-06-29T14:51:51Z</time>
      </trkpt>
      <trkpt lat="45.67771" lon="0.14411">
        <ele>30.9</ele>
        <time>2021-06-29T14:51:52Z</time>
      </trkpt>
      <trkpt lat="45.67771" lon="0.14417">
        <ele>30.9</ele>
        <time>2021-06-29T14:51:53Z</time>
      </trkpt>
      <trkpt lat="45.67771" lon="0.14428">
        <ele>30.9</ele>
        <time>2021-06-29T14:51:54Z</time>
      </trkpt>
      <trkpt lat="45.67771" lon="0.14428">
        <ele>30.9</ele>
        <time>2021-06-29T14:51:55Z</time>
      </trkpt>
      <trkpt lat="45.67773" lon="0.14432">
        <ele>30.9</ele>
        <time>2021-06-29T14:51:56Z</time>
      </trkpt>
      <trkpt lat="45.6777" lon="0.14426">
        <ele>30.9</ele>
        <time>2021-06-29T14:51:57Z</time>
      </trkpt>
      <trkpt lat="45.67763" lon="0.14433">
        <ele>30.9</ele>
        <time>2021-06-29T14:51:58Z</time>
      </trkpt>
      <trkpt lat="45.6776" lon="0.14435">
        <ele>30.9</ele>
        <time>2021-06-29T14:51:59Z</time>
      </trkpt>
      <trkpt lat="45.67758" lon="0.14438">
        <ele>31.38</ele>
        <time>2021-06-29T14:52:00Z</time>
      </trkpt>
      <trkpt lat="45.67754" lon="0.14442">
        <ele>31.38</ele>
        <time>2021-06-29T14:52:02Z</time>
      </trkpt>
      <trkpt lat="45.6774" lon="0.14424">
        <ele>33.78</ele>
        <time>2021-06-29T14:52:10Z</time>
      </trkpt>
      <trkpt lat="45.67743" lon="0.14413">
        <ele>34.26</ele>
        <time>2021-06-29T14:52:19Z</time>
      </trkpt>
      <trkpt lat="45.67737" lon="0.14421">
        <ele>35.23</ele>
        <time>2021-06-29T14:52:34Z</time>
      </trkpt>
      <trkpt lat="45.67748" lon="0.14436">
        <ele>33.3</ele>
        <time>2021-06-29T14:52:45Z</time>
      </trkpt>
      <trkpt lat="45.67748" lon="0.14435">
        <ele>33.3</ele>
        <time>2021-06-29T14:53:17Z</time>
      </trkpt>
      <trkpt lat="45.67747" lon="0.14437">
        <ele>32.82</ele>
        <time>2021-06-29T14:59:08Z</time>
      </trkpt>
      <trkpt lat="45.67755" lon="0.14441">
        <ele>30.42</ele>
        <time>2021-06-29T15:03:43Z</time>
      </trkpt>
      <trkpt lat="45.67769" lon="0.14427">
        <ele>29.46</ele>
        <time>2021-06-29T15:03:52Z</time>
      </trkpt>
      <trkpt lat="45.67778" lon="0.14439">
        <ele>29.46</ele>
        <time>2021-06-29T15:03:53Z</time>
      </trkpt>
      <trkpt lat="45.67781" lon="0.14441">
        <ele>28.98</ele>
        <time>2021-06-29T15:03:54Z</time>
      </trkpt>
      <trkpt lat="45.67778" lon="0.14441">
        <ele>28.5</ele>
        <time>2021-06-29T15:03:55Z</time>
      </trkpt>
      <trkpt lat="45.67795" lon="0.1445">
        <ele>28.5</ele>
        <time>2021-06-29T15:03:56Z</time>
      </trkpt>
      <trkpt lat="45.67797" lon="0.14466">
        <ele>28.02</ele>
        <time>2021-06-29T15:03:57Z</time>
      </trkpt>
      <trkpt lat="45.67797" lon="0.14466">
        <ele>27.53</ele>
        <time>2021-06-29T15:03:58Z</time>
      </trkpt>
      <trkpt lat="45.67798" lon="0.14476">
        <ele>26.57</ele>
        <time>2021-06-29T15:03:59Z</time>
      </trkpt>
      <trkpt lat="45.67808" lon="0.14629">
        <ele>22.25</ele>
        <time>2021-06-29T15:04:10Z</time>
      </trkpt>
      <trkpt lat="45.6782" lon="0.1487">
        <ele>18.4</ele>
        <time>2021-06-29T15:04:26Z</time>
      </trkpt>
      <trkpt lat="45.67821" lon="0.14882">
        <ele>18.4</ele>
        <time>2021-06-29T15:04:27Z</time>
      </trkpt>
      <trkpt lat="45.67821" lon="0.14892">
        <ele>19.36</ele>
        <time>2021-06-29T15:04:28Z</time>
      </trkpt>
      <trkpt lat="45.67809" lon="0.14909">
        <ele>19.84</ele>
        <time>2021-06-29T15:04:29Z</time>
      </trkpt>
      <trkpt lat="45.67809" lon="0.14909">
        <ele>20.32</ele>
        <time>2021-06-29T15:04:30Z</time>
      </trkpt>
      <trkpt lat="45.67807" lon="0.14917">
        <ele>20.81</ele>
        <time>2021-06-29T15:04:31Z</time>
      </trkpt>
      <trkpt lat="45.6781" lon="0.14931">
        <ele>20.81</ele>
        <time>2021-06-29T15:04:32Z</time>
      </trkpt>
      <trkpt lat="45.67813" lon="0.1494">
        <ele>21.29</ele>
        <time>2021-06-29T15:04:33Z</time>
      </trkpt>
      <trkpt lat="45.67813" lon="0.14941">
        <ele>21.77</ele>
        <time>2021-06-29T15:04:34Z</time>
      </trkpt>
      <trkpt lat="45.67826" lon="0.14958">
        <ele>22.25</ele>
        <time>2021-06-29T15:04:35Z</time>
      </trkpt>
      <trkpt lat="45.67827" lon="0.1497">
        <ele>22.25</ele>
        <time>2021-06-29T15:04:36Z</time>
      </trkpt>
      <trkpt lat="45.67828" lon="0.14983">
        <ele>22.73</ele>
        <time>2021-06-29T15:04:37Z</time>
      </trkpt>
      <trkpt lat="45.67837" lon="0.15145">
        <ele>21.29</ele>
        <time>2021-06-29T15:04:47Z</time>
      </trkpt>
      <trkpt lat="45.67854" lon="0.15479">
        <ele>25.61</ele>
        <time>2021-06-29T15:05:05Z</time>
      </trkpt>
      <trkpt lat="45.67858" lon="0.1555">
        <ele>23.69</ele>
        <time>2021-06-29T15:05:12Z</time>
      </trkpt>
      <trkpt lat="45.67866" lon="0.15694">
        <ele>28.5</ele>
        <time>2021-06-29T15:05:25Z</time>
      </trkpt>
      <trkpt lat="45.67869" lon="0.15716">
        <ele>28.98</ele>
        <time>2021-06-29T15:05:27Z</time>
      </trkpt>
      <trkpt lat="45.67873" lon="0.15808">
        <ele>30.9</ele>
        <time>2021-06-29T15:05:37Z</time>
      </trkpt>
      <trkpt lat="45.67878" lon="0.15926">
        <ele>33.78</ele>
        <time>2021-06-29T15:05:48Z</time>
      </trkpt>
      <trkpt lat="45.67879" lon="0.15932">
        <ele>34.26</ele>
        <time>2021-06-29T15:05:49Z</time>
      </trkpt>
      <trkpt lat="45.67877" lon="0.15924">
        <ele>33.78</ele>
        <time>2021-06-29T15:05:50Z</time>
      </trkpt>
      <trkpt lat="45.67871" lon="0.15924">
        <ele>33.78</ele>
        <time>2021-06-29T15:05:51Z</time>
      </trkpt>
      <trkpt lat="45.67871" lon="0.15924">
        <ele>33.78</ele>
        <time>2021-06-29T15:05:52Z</time>
      </trkpt>
      <trkpt lat="45.67866" lon="0.15924">
        <ele>33.78</ele>
        <time>2021-06-29T15:05:53Z</time>
      </trkpt>
      <trkpt lat="45.67813" lon="0.15926">
        <ele>33.3</ele>
        <time>2021-06-29T15:06:03Z</time>
      </trkpt>
      <trkpt lat="45.67809" lon="0.15929">
        <ele>33.3</ele>
        <time>2021-06-29T15:06:04Z</time>
      </trkpt>
      <trkpt lat="45.67808" lon="0.15932">
        <ele>33.3</ele>
        <time>2021-06-29T15:06:05Z</time>
      </trkpt>
      <trkpt lat="45.67806" lon="0.15937">
        <ele>33.3</ele>
        <time>2021-06-29T15:06:06Z</time>
      </trkpt>
      <trkpt lat="45.67806" lon="0.15943">
        <ele>33.3</ele>
        <time>2021-06-29T15:06:07Z</time>
      </trkpt>
      <trkpt lat="45.67806" lon="0.15965">
        <ele>33.78</ele>
        <time>2021-06-29T15:06:10Z</time>
      </trkpt>
      <trkpt lat="45.67806" lon="0.15972">
        <ele>33.78</ele>
        <time>2021-06-29T15:06:11Z</time>
      </trkpt>
      <trkpt lat="45.67804" lon="0.15979">
        <ele>33.78</ele>
        <time>2021-06-29T15:06:12Z</time>
      </trkpt>
      <trkpt lat="45.67798" lon="0.16">
        <ele>34.26</ele>
        <time>2021-06-29T15:06:15Z</time>
      </trkpt>
      <trkpt lat="45.67796" lon="0.16005">
        <ele>34.26</ele>
        <time>2021-06-29T15:06:16Z</time>
      </trkpt>
      <trkpt lat="45.67793" lon="0.16008">
        <ele>34.26</ele>
        <time>2021-06-29T15:06:17Z</time>
      </trkpt>
      <trkpt lat="45.67789" lon="0.16011">
        <ele>34.26</ele>
        <time>2021-06-29T15:06:18Z</time>
      </trkpt>
      <trkpt lat="45.67783" lon="0.16013">
        <ele>34.26</ele>
        <time>2021-06-29T15:06:19Z</time>
      </trkpt>
      <trkpt lat="45.67695" lon="0.16046">
        <ele>33.78</ele>
        <time>2021-06-29T15:06:33Z</time>
      </trkpt>
      <trkpt lat="45.6767" lon="0.16057">
        <ele>33.3</ele>
        <time>2021-06-29T15:06:39Z</time>
      </trkpt>
      <trkpt lat="45.67666" lon="0.16057">
        <ele>33.3</ele>
        <time>2021-06-29T15:06:40Z</time>
      </trkpt>
      <trkpt lat="45.67664" lon="0.16054">
        <ele>33.3</ele>
        <time>2021-06-29T15:06:41Z</time>
      </trkpt>
      <trkpt lat="45.67634" lon="0.15986">
        <ele>31.38</ele>
        <time>2021-06-29T15:06:51Z</time>
      </trkpt>
      <trkpt lat="45.67631" lon="0.15983">
        <ele>31.38</ele>
        <time>2021-06-29T15:06:52Z</time>
      </trkpt>
      <trkpt lat="45.67627" lon="0.1598">
        <ele>31.38</ele>
        <time>2021-06-29T15:06:53Z</time>
      </trkpt>
      <trkpt lat="45.67623" lon="0.1598">
        <ele>30.9</ele>
        <time>2021-06-29T15:06:54Z</time>
      </trkpt>
      <trkpt lat="45.67619" lon="0.15981">
        <ele>30.9</ele>
        <time>2021-06-29T15:06:55Z</time>
      </trkpt>
      <trkpt lat="45.67615" lon="0.15984">
        <ele>30.42</ele>
        <time>2021-06-29T15:06:56Z</time>
      </trkpt>
      <trkpt lat="45.67539" lon="0.16038">
        <ele>30.42</ele>
        <time>2021-06-29T15:07:12Z</time>
      </trkpt>
      <trkpt lat="45.6747" lon="0.16046">
        <ele>27.53</ele>
        <time>2021-06-29T15:07:30Z</time>
      </trkpt>
      <trkpt lat="45.67441" lon="0.16052">
        <ele>28.02</ele>
        <time>2021-06-29T15:07:42Z</time>
      </trkpt>
      <trkpt lat="45.67441" lon="0.16052">
        <ele>29.46</ele>
        <time>2021-06-29T15:08:11Z</time>
      </trkpt>
      <trkpt lat="45.67441" lon="0.16052">
        <ele>29.94</ele>
        <time>2021-06-29T15:08:34Z</time>
      </trkpt>
      <trkpt lat="45.67441" lon="0.16052">
        <ele>28.5</ele>
        <time>2021-06-29T15:14:05Z</time>
      </trkpt>
      <trkpt lat="45.67441" lon="0.16052">
        <ele>27.53</ele>
        <time>2021-06-29T15:21:39Z</time>
      </trkpt>
      <trkpt lat="45.67441" lon="0.16052">
        <ele>26.57</ele>
        <time>2021-06-29T15:30:54Z</time>
      </trkpt>
      <trkpt lat="45.67441" lon="0.16052">
        <ele>26.09</ele>
        <time>2021-06-29T15:35:43Z</time>
      </trkpt>
      <trkpt lat="45.67441" lon="0.16052">
        <ele>27.05</ele>
        <time>2021-06-29T15:43:26Z</time>
      </trkpt>
      <trkpt lat="45.67441" lon="0.16052">
        <ele>27.53</ele>
        <time>2021-06-29T15:49:23Z</time>
      </trkpt>
      <trkpt lat="45.67441" lon="0.16052">
        <ele>27.53</ele>
        <time>2021-06-29T15:52:06Z</time>
      </trkpt>
      <trkpt lat="45.67441" lon="0.16052">
        <ele>28.02</ele>
        <time>2021-06-29T15:58:08Z</time>
      </trkpt>
      <trkpt lat="45.67441" lon="0.16052">
        <ele>28.02</ele>
        <time>2021-06-29T16:02:34Z</time>
      </trkpt>
      <trkpt lat="45.67441" lon="0.16052">
        <ele>28.5</ele>
        <time>2021-06-29T16:05:36Z</time>
      </trkpt>
      <trkpt lat="45.67441" lon="0.16052">
        <ele>28.5</ele>
        <time>2021-06-29T16:08:14Z</time>
      </trkpt>
      <trkpt lat="45.67441" lon="0.16052">
        <ele>28.5</ele>
        <time>2021-06-29T16:10:08Z</time>
      </trkpt>
      <trkpt lat="45.67451" lon="0.16048">
        <ele>28.02</ele>
        <time>2021-06-29T16:10:09Z</time>
      </trkpt>
      <trkpt lat="45.67454" lon="0.16047">
        <ele>28.02</ele>
        <time>2021-06-29T16:10:10Z</time>
      </trkpt>
      <trkpt lat="45.67456" lon="0.16046">
        <ele>28.5</ele>
        <time>2021-06-29T16:10:11Z</time>
      </trkpt>
      <trkpt lat="45.67456" lon="0.16046">
        <ele>28.5</ele>
        <time>2021-06-29T16:10:12Z</time>
      </trkpt>
      <trkpt lat="45.67462" lon="0.16046">
        <ele>28.5</ele>
        <time>2021-06-29T16:10:13Z</time>
      </trkpt>
      <trkpt lat="45.67465" lon="0.16046">
        <ele>28.02</ele>
        <time>2021-06-29T16:10:14Z</time>
      </trkpt>
      <trkpt lat="45.67528" lon="0.16041">
        <ele>30.42</ele>
        <time>2021-06-29T16:10:31Z</time>
      </trkpt>
      <trkpt lat="45.67592" lon="0.16007">
        <ele>31.38</ele>
        <time>2021-06-29T16:10:47Z</time>
      </trkpt>
      <trkpt lat="45.67615" lon="0.15984">
        <ele>31.38</ele>
        <time>2021-06-29T16:10:53Z</time>
      </trkpt>
      <trkpt lat="45.67619" lon="0.15981">
        <ele>31.38</ele>
        <time>2021-06-29T16:10:54Z</time>
      </trkpt>
      <trkpt lat="45.67623" lon="0.1598">
        <ele>31.38</ele>
        <time>2021-06-29T16:10:55Z</time>
      </trkpt>
      <trkpt lat="45.67627" lon="0.1598">
        <ele>31.38</ele>
        <time>2021-06-29T16:10:56Z</time>
      </trkpt>
      <trkpt lat="45.6763" lon="0.15982">
        <ele>30.9</ele>
        <time>2021-06-29T16:10:57Z</time>
      </trkpt>
      <trkpt lat="45.67633" lon="0.15986">
        <ele>31.38</ele>
        <time>2021-06-29T16:10:58Z</time>
      </trkpt>
      <trkpt lat="45.67636" lon="0.15991">
        <ele>31.38</ele>
        <time>2021-06-29T16:10:59Z</time>
      </trkpt>
      <trkpt lat="45.67666" lon="0.16057">
        <ele>33.78</ele>
        <time>2021-06-29T16:11:10Z</time>
      </trkpt>
      <trkpt lat="45.6767" lon="0.16058">
        <ele>33.78</ele>
        <time>2021-06-29T16:11:11Z</time>
      </trkpt>
      <trkpt lat="45.67673" lon="0.16056">
        <ele>34.26</ele>
        <time>2021-06-29T16:11:12Z</time>
      </trkpt>
      <trkpt lat="45.67681" lon="0.16052">
        <ele>34.26</ele>
        <time>2021-06-29T16:11:13Z</time>
      </trkpt>
      <trkpt lat="45.67686" lon="0.1605">
        <ele>34.26</ele>
        <time>2021-06-29T16:11:14Z</time>
      </trkpt>
      <trkpt lat="45.6778" lon="0.16014">
        <ele>35.23</ele>
        <time>2021-06-29T16:11:32Z</time>
      </trkpt>
      <trkpt lat="45.67794" lon="0.16007">
        <ele>34.26</ele>
        <time>2021-06-29T16:11:37Z</time>
      </trkpt>
      <trkpt lat="45.67797" lon="0.16004">
        <ele>34.26</ele>
        <time>2021-06-29T16:11:38Z</time>
      </trkpt>
      <trkpt lat="45.67799" lon="0.15999">
        <ele>34.26</ele>
        <time>2021-06-29T16:11:39Z</time>
      </trkpt>
      <trkpt lat="45.67806" lon="0.15968">
        <ele>34.26</ele>
        <time>2021-06-29T16:11:44Z</time>
      </trkpt>
      <trkpt lat="45.67806" lon="0.15962">
        <ele>34.26</ele>
        <time>2021-06-29T16:11:45Z</time>
      </trkpt>
      <trkpt lat="45.67806" lon="0.15956">
        <ele>33.78</ele>
        <time>2021-06-29T16:11:46Z</time>
      </trkpt>
      <trkpt lat="45.67811" lon="0.15926">
        <ele>33.78</ele>
        <time>2021-06-29T16:11:53Z</time>
      </trkpt>
      <trkpt lat="45.67811" lon="0.15926">
        <ele>33.78</ele>
        <time>2021-06-29T16:11:54Z</time>
      </trkpt>
      <trkpt lat="45.67811" lon="0.15926">
        <ele>34.26</ele>
        <time>2021-06-29T16:11:55Z</time>
      </trkpt>
      <trkpt lat="45.67813" lon="0.15926">
        <ele>34.26</ele>
        <time>2021-06-29T16:11:56Z</time>
      </trkpt>
      <trkpt lat="45.67817" lon="0.15926">
        <ele>34.26</ele>
        <time>2021-06-29T16:11:57Z</time>
      </trkpt>
      <trkpt lat="45.6782" lon="0.15926">
        <ele>34.74</ele>
        <time>2021-06-29T16:11:58Z</time>
      </trkpt>
    </trkseg>
  </trk>
</gpx>